<?xml version='1.0' encoding='UTF-8'?>
<gpx version="1.1" creator="https://www.komoot.de" xmlns="http://www.topografix.com/GPX/1/1" xmlns:xsi="http://www.w3.org/2001/XMLSchema-instance" xsi:schemaLocation="http://www.topografix.com/GPX/1/1 http://www.topografix.com/GPX/1/1/gpx.xsd">
  <metadata>
    <name>51_840Breitfeld</name>
    <author>
      <link href="https://www.komoot.de">
        <text>komoot</text>
        <type>text/html</type>
      </link>
    </author>
  </metadata>
  <trk>
    <name>51_840Breitfeld</name>
    <trkseg>
      <trkpt lat="47.541191" lon="7.870973">
        <ele>339.231059</ele>
        <time>2021-11-13T08:37:53.465Z</time>
      </trkpt>
      <trkpt lat="47.541326" lon="7.870860">
        <ele>339.231059</ele>
        <time>2021-11-13T08:37:55.640Z</time>
      </trkpt>
      <trkpt lat="47.541410" lon="7.870791">
        <ele>339.231059</ele>
        <time>2021-11-13T08:37:57.157Z</time>
      </trkpt>
      <trkpt lat="47.541576" lon="7.870664">
        <ele>339.231059</ele>
        <time>2021-11-13T08:37:59.596Z</time>
      </trkpt>
      <trkpt lat="47.541550" lon="7.870601">
        <ele>339.231059</ele>
        <time>2021-11-13T08:38:00.406Z</time>
      </trkpt>
      <trkpt lat="47.541521" lon="7.870517">
        <ele>339.231059</ele>
        <time>2021-11-13T08:38:01.444Z</time>
      </trkpt>
      <trkpt lat="47.541606" lon="7.870424">
        <ele>339.231059</ele>
        <time>2021-11-13T08:38:03.091Z</time>
      </trkpt>
      <trkpt lat="47.541910" lon="7.870106">
        <ele>339.122392</ele>
        <time>2021-11-13T08:38:08.753Z</time>
      </trkpt>
      <trkpt lat="47.542014" lon="7.870126">
        <ele>339.034716</ele>
        <time>2021-11-13T08:38:10.225Z</time>
      </trkpt>
      <trkpt lat="47.542118" lon="7.870135">
        <ele>338.947622</ele>
        <time>2021-11-13T08:38:11.965Z</time>
      </trkpt>
      <trkpt lat="47.542181" lon="7.870131">
        <ele>338.894904</ele>
        <time>2021-11-13T08:38:12.828Z</time>
      </trkpt>
      <trkpt lat="47.542317" lon="7.870012">
        <ele>338.762852</ele>
        <time>2021-11-13T08:38:14.943Z</time>
      </trkpt>
      <trkpt lat="47.542348" lon="7.869983">
        <ele>338.732201</ele>
        <time>2021-11-13T08:38:15.382Z</time>
      </trkpt>
      <trkpt lat="47.542329" lon="7.869820">
        <ele>338.638850</ele>
        <time>2021-11-13T08:38:17.160Z</time>
      </trkpt>
      <trkpt lat="47.542372" lon="7.869746">
        <ele>338.583746</ele>
        <time>2021-11-13T08:38:17.969Z</time>
      </trkpt>
      <trkpt lat="47.542657" lon="7.869354">
        <ele>338.258614</ele>
        <time>2021-11-13T08:38:22.768Z</time>
      </trkpt>
      <trkpt lat="47.542696" lon="7.869257">
        <ele>338.194898</ele>
        <time>2021-11-13T08:38:23.703Z</time>
      </trkpt>
      <trkpt lat="47.542722" lon="7.869201">
        <ele>338.156541</ele>
        <time>2021-11-13T08:38:24.295Z</time>
      </trkpt>
      <trkpt lat="47.543049" lon="7.868759">
        <ele>337.786464</ele>
        <time>2021-11-13T08:38:29.208Z</time>
      </trkpt>
      <trkpt lat="47.543105" lon="7.868711">
        <ele>337.732375</ele>
        <time>2021-11-13T08:38:29.946Z</time>
      </trkpt>
      <trkpt lat="47.543201" lon="7.868657">
        <ele>337.592037</ele>
        <time>2021-11-13T08:38:31.024Z</time>
      </trkpt>
      <trkpt lat="47.543657" lon="7.868359">
        <ele>336.894477</ele>
        <time>2021-11-13T08:38:36.820Z</time>
      </trkpt>
      <trkpt lat="47.543801" lon="7.868269">
        <ele>336.675732</ele>
        <time>2021-11-13T08:38:39.299Z</time>
      </trkpt>
      <trkpt lat="47.544214" lon="7.867988">
        <ele>336.039646</ele>
        <time>2021-11-13T08:38:46.917Z</time>
      </trkpt>
      <trkpt lat="47.544246" lon="7.867967">
        <ele>335.990662</ele>
        <time>2021-11-13T08:38:47.514Z</time>
      </trkpt>
      <trkpt lat="47.544410" lon="7.867825">
        <ele>335.724797</ele>
        <time>2021-11-13T08:38:50.768Z</time>
      </trkpt>
      <trkpt lat="47.544469" lon="7.867776">
        <ele>335.630129</ele>
        <time>2021-11-13T08:38:51.790Z</time>
      </trkpt>
      <trkpt lat="47.544568" lon="7.867693">
        <ele>335.470919</ele>
        <time>2021-11-13T08:38:53.718Z</time>
      </trkpt>
      <trkpt lat="47.545003" lon="7.867278">
        <ele>335.348647</ele>
        <time>2021-11-13T08:39:02.567Z</time>
      </trkpt>
      <trkpt lat="47.545160" lon="7.866985">
        <ele>335.454459</ele>
        <time>2021-11-13T08:39:07.217Z</time>
      </trkpt>
      <trkpt lat="47.545240" lon="7.866887">
        <ele>335.497957</ele>
        <time>2021-11-13T08:39:09.491Z</time>
      </trkpt>
      <trkpt lat="47.545561" lon="7.866610">
        <ele>335.653620</ele>
        <time>2021-11-13T08:39:17.960Z</time>
      </trkpt>
      <trkpt lat="47.546096" lon="7.866147">
        <ele>335.913247</ele>
        <time>2021-11-13T08:39:34.560Z</time>
      </trkpt>
      <trkpt lat="47.546327" lon="7.865959">
        <ele>336.012636</ele>
        <time>2021-11-13T08:39:40.981Z</time>
      </trkpt>
      <trkpt lat="47.546510" lon="7.865766">
        <ele>336.089438</ele>
        <time>2021-11-13T08:39:47.368Z</time>
      </trkpt>
      <trkpt lat="47.546819" lon="7.865489">
        <ele>336.212920</ele>
        <time>2021-11-13T08:39:55.520Z</time>
      </trkpt>
      <trkpt lat="47.546889" lon="7.865225">
        <ele>336.278378</ele>
        <time>2021-11-13T08:39:59.304Z</time>
      </trkpt>
      <trkpt lat="47.546894" lon="7.864837">
        <ele>336.367936</ele>
        <time>2021-11-13T08:40:04.478Z</time>
      </trkpt>
      <trkpt lat="47.546885" lon="7.864500">
        <ele>336.445769</ele>
        <time>2021-11-13T08:40:10.116Z</time>
      </trkpt>
      <trkpt lat="47.546974" lon="7.864423">
        <ele>336.481006</ele>
        <time>2021-11-13T08:40:11.704Z</time>
      </trkpt>
      <trkpt lat="47.547320" lon="7.863864">
        <ele>336.247270</ele>
        <time>2021-11-13T08:40:21.629Z</time>
      </trkpt>
      <trkpt lat="47.547568" lon="7.863151">
        <ele>335.455192</ele>
        <time>2021-11-13T08:40:30.642Z</time>
      </trkpt>
      <trkpt lat="47.547930" lon="7.861711">
        <ele>333.938579</ele>
        <time>2021-11-13T08:40:47.016Z</time>
      </trkpt>
      <trkpt lat="47.548049" lon="7.860929">
        <ele>333.215232</ele>
        <time>2021-11-13T08:40:55.715Z</time>
      </trkpt>
      <trkpt lat="47.548334" lon="7.859801">
        <ele>332.128414</ele>
        <time>2021-11-13T08:41:09.197Z</time>
      </trkpt>
      <trkpt lat="47.548611" lon="7.858381">
        <ele>331.386875</ele>
        <time>2021-11-13T08:41:27.153Z</time>
      </trkpt>
      <trkpt lat="47.548686" lon="7.857973">
        <ele>331.307425</ele>
        <time>2021-11-13T08:41:32.542Z</time>
      </trkpt>
      <trkpt lat="47.548701" lon="7.857893">
        <ele>331.291824</ele>
        <time>2021-11-13T08:41:33.663Z</time>
      </trkpt>
      <trkpt lat="47.548743" lon="7.857692">
        <ele>331.252291</ele>
        <time>2021-11-13T08:41:36.437Z</time>
      </trkpt>
      <trkpt lat="47.548887" lon="7.857308">
        <ele>331.169755</ele>
        <time>2021-11-13T08:41:42.470Z</time>
      </trkpt>
      <trkpt lat="47.549362" lon="7.855774">
        <ele>331.352816</ele>
        <time>2021-11-13T08:42:06.515Z</time>
      </trkpt>
      <trkpt lat="47.549566" lon="7.855225">
        <ele>331.546206</ele>
        <time>2021-11-13T08:42:15.808Z</time>
      </trkpt>
      <trkpt lat="47.549883" lon="7.854434">
        <ele>331.830081</ele>
        <time>2021-11-13T08:42:30.149Z</time>
      </trkpt>
      <trkpt lat="47.550221" lon="7.853833">
        <ele>332.062080</ele>
        <time>2021-11-13T08:42:39.629Z</time>
      </trkpt>
      <trkpt lat="47.549708" lon="7.853279">
        <ele>332.339143</ele>
        <time>2021-11-13T08:42:53.536Z</time>
      </trkpt>
      <trkpt lat="47.549285" lon="7.852784">
        <ele>332.574403</ele>
        <time>2021-11-13T08:43:04.961Z</time>
      </trkpt>
      <trkpt lat="47.549535" lon="7.852225">
        <ele>332.514463</ele>
        <time>2021-11-13T08:43:14.664Z</time>
      </trkpt>
      <trkpt lat="47.549652" lon="7.851969">
        <ele>332.414356</ele>
        <time>2021-11-13T08:43:19.065Z</time>
      </trkpt>
      <trkpt lat="47.550009" lon="7.851173">
        <ele>332.104902</ele>
        <time>2021-11-13T08:43:31.287Z</time>
      </trkpt>
      <trkpt lat="47.550333" lon="7.850434">
        <ele>331.819569</ele>
        <time>2021-11-13T08:43:41.531Z</time>
      </trkpt>
      <trkpt lat="47.550488" lon="7.850081">
        <ele>331.482688</ele>
        <time>2021-11-13T08:43:46.254Z</time>
      </trkpt>
      <trkpt lat="47.550598" lon="7.849829">
        <ele>331.196718</ele>
        <time>2021-11-13T08:43:49.562Z</time>
      </trkpt>
      <trkpt lat="47.550810" lon="7.849346">
        <ele>330.647715</ele>
        <time>2021-11-13T08:43:55.989Z</time>
      </trkpt>
      <trkpt lat="47.550975" lon="7.849066">
        <ele>330.293525</ele>
        <time>2021-11-13T08:44:00.219Z</time>
      </trkpt>
      <trkpt lat="47.551242" lon="7.848702">
        <ele>329.781280</ele>
        <time>2021-11-13T08:44:04.463Z</time>
      </trkpt>
      <trkpt lat="47.551669" lon="7.848083">
        <ele>328.912146</ele>
        <time>2021-11-13T08:44:11.311Z</time>
      </trkpt>
      <trkpt lat="47.551196" lon="7.847517">
        <ele>327.982312</ele>
        <time>2021-11-13T08:44:18.216Z</time>
      </trkpt>
      <trkpt lat="47.551184" lon="7.847206">
        <ele>327.660774</ele>
        <time>2021-11-13T08:44:20.586Z</time>
      </trkpt>
      <trkpt lat="47.551205" lon="7.846694">
        <ele>327.131312</ele>
        <time>2021-11-13T08:44:24.514Z</time>
      </trkpt>
      <trkpt lat="47.551344" lon="7.844621">
        <ele>325.406410</ele>
        <time>2021-11-13T08:44:41.129Z</time>
      </trkpt>
      <trkpt lat="47.551454" lon="7.842815">
        <ele>324.185476</ele>
        <time>2021-11-13T08:44:56.315Z</time>
      </trkpt>
      <trkpt lat="47.551668" lon="7.842770">
        <ele>324.012835</ele>
        <time>2021-11-13T08:45:00.391Z</time>
      </trkpt>
      <trkpt lat="47.551922" lon="7.842704">
        <ele>323.806862</ele>
        <time>2021-11-13T08:45:05.034Z</time>
      </trkpt>
      <trkpt lat="47.552380" lon="7.842592">
        <ele>323.436095</ele>
        <time>2021-11-13T08:45:13.468Z</time>
      </trkpt>
      <trkpt lat="47.552833" lon="7.842495">
        <ele>323.061507</ele>
        <time>2021-11-13T08:45:21.445Z</time>
      </trkpt>
      <trkpt lat="47.553133" lon="7.842431">
        <ele>322.614780</ele>
        <time>2021-11-13T08:45:26.696Z</time>
      </trkpt>
      <trkpt lat="47.553123" lon="7.842222">
        <ele>322.406358</ele>
        <time>2021-11-13T08:45:28.276Z</time>
      </trkpt>
      <trkpt lat="47.553216" lon="7.841849">
        <ele>322.010811</ele>
        <time>2021-11-13T08:45:31.487Z</time>
      </trkpt>
      <trkpt lat="47.553231" lon="7.841529">
        <ele>321.691728</ele>
        <time>2021-11-13T08:45:33.979Z</time>
      </trkpt>
      <trkpt lat="47.552939" lon="7.839526">
        <ele>319.617532</ele>
        <time>2021-11-13T08:45:49.514Z</time>
      </trkpt>
      <trkpt lat="47.552802" lon="7.839009">
        <ele>319.039580</ele>
        <time>2021-11-13T08:45:53.836Z</time>
      </trkpt>
      <trkpt lat="47.552736" lon="7.838578">
        <ele>318.579697</ele>
        <time>2021-11-13T08:45:57.276Z</time>
      </trkpt>
      <trkpt lat="47.552697" lon="7.838068">
        <ele>318.045613</ele>
        <time>2021-11-13T08:46:01.291Z</time>
      </trkpt>
      <trkpt lat="47.552719" lon="7.836790">
        <ele>316.647752</ele>
        <time>2021-11-13T08:46:11.319Z</time>
      </trkpt>
      <trkpt lat="47.552714" lon="7.835010">
        <ele>314.648129</ele>
        <time>2021-11-13T08:46:25.069Z</time>
      </trkpt>
      <trkpt lat="47.552700" lon="7.833938">
        <ele>312.676981</ele>
        <time>2021-11-13T08:46:32.636Z</time>
      </trkpt>
      <trkpt lat="47.552696" lon="7.833789">
        <ele>312.402841</ele>
        <time>2021-11-13T08:46:33.633Z</time>
      </trkpt>
      <trkpt lat="47.552452" lon="7.833284">
        <ele>311.261056</ele>
        <time>2021-11-13T08:46:37.958Z</time>
      </trkpt>
      <trkpt lat="47.552467" lon="7.833198">
        <ele>311.097757</ele>
        <time>2021-11-13T08:46:38.570Z</time>
      </trkpt>
      <trkpt lat="47.552511" lon="7.833072">
        <ele>310.836946</ele>
        <time>2021-11-13T08:46:39.576Z</time>
      </trkpt>
      <trkpt lat="47.552556" lon="7.832977">
        <ele>310.623574</ele>
        <time>2021-11-13T08:46:40.392Z</time>
      </trkpt>
      <trkpt lat="47.552616" lon="7.832891">
        <ele>310.396180</ele>
        <time>2021-11-13T08:46:41.198Z</time>
      </trkpt>
      <trkpt lat="47.552690" lon="7.832598">
        <ele>309.821045</ele>
        <time>2021-11-13T08:46:43.399Z</time>
      </trkpt>
      <trkpt lat="47.552645" lon="7.830686">
        <ele>306.117329</ele>
        <time>2021-11-13T08:46:56.522Z</time>
      </trkpt>
      <trkpt lat="47.552554" lon="7.829266">
        <ele>303.888011</ele>
        <time>2021-11-13T08:47:06.808Z</time>
      </trkpt>
      <trkpt lat="47.552416" lon="7.828822">
        <ele>303.339191</ele>
        <time>2021-11-13T08:47:10.472Z</time>
      </trkpt>
      <trkpt lat="47.552404" lon="7.828582">
        <ele>303.068993</ele>
        <time>2021-11-13T08:47:12.387Z</time>
      </trkpt>
      <trkpt lat="47.552421" lon="7.828481">
        <ele>302.952122</ele>
        <time>2021-11-13T08:47:13.142Z</time>
      </trkpt>
      <trkpt lat="47.552477" lon="7.828294">
        <ele>302.722429</ele>
        <time>2021-11-13T08:47:14.718Z</time>
      </trkpt>
      <trkpt lat="47.552515" lon="7.828094">
        <ele>302.489151</ele>
        <time>2021-11-13T08:47:16.436Z</time>
      </trkpt>
      <trkpt lat="47.552491" lon="7.827227">
        <ele>301.580998</ele>
        <time>2021-11-13T08:47:23.344Z</time>
      </trkpt>
      <trkpt lat="47.552567" lon="7.824508">
        <ele>300.254169</ele>
        <time>2021-11-13T08:47:47.192Z</time>
      </trkpt>
      <trkpt lat="47.552896" lon="7.820699">
        <ele>298.357100</ele>
        <time>2021-11-13T08:48:19.931Z</time>
      </trkpt>
      <trkpt lat="47.552948" lon="7.819358">
        <ele>297.719153</ele>
        <time>2021-11-13T08:48:31.470Z</time>
      </trkpt>
      <trkpt lat="47.552844" lon="7.816432">
        <ele>297.362208</ele>
        <time>2021-11-13T08:48:59.104Z</time>
      </trkpt>
      <trkpt lat="47.552711" lon="7.812955">
        <ele>298.598153</ele>
        <time>2021-11-13T08:49:39.758Z</time>
      </trkpt>
      <trkpt lat="47.552566" lon="7.810386">
        <ele>299.731577</ele>
        <time>2021-11-13T08:50:09.790Z</time>
      </trkpt>
      <trkpt lat="47.552398" lon="7.808880">
        <ele>300.427792</ele>
        <time>2021-11-13T08:50:28.271Z</time>
      </trkpt>
      <trkpt lat="47.552068" lon="7.806445">
        <ele>300.936753</ele>
        <time>2021-11-13T08:50:56.611Z</time>
      </trkpt>
      <trkpt lat="47.552015" lon="7.806307">
        <ele>300.967098</ele>
        <time>2021-11-13T08:50:58.334Z</time>
      </trkpt>
      <trkpt lat="47.551895" lon="7.806278">
        <ele>300.982195</ele>
        <time>2021-11-13T08:50:59.643Z</time>
      </trkpt>
      <trkpt lat="47.551651" lon="7.806246">
        <ele>300.801405</ele>
        <time>2021-11-13T08:51:03.405Z</time>
      </trkpt>
      <trkpt lat="47.551671" lon="7.806117">
        <ele>300.735472</ele>
        <time>2021-11-13T08:51:04.720Z</time>
      </trkpt>
      <trkpt lat="47.551681" lon="7.805477">
        <ele>300.416582</ele>
        <time>2021-11-13T08:51:12.418Z</time>
      </trkpt>
      <trkpt lat="47.551709" lon="7.805000">
        <ele>300.178076</ele>
        <time>2021-11-13T08:51:18.062Z</time>
      </trkpt>
      <trkpt lat="47.551731" lon="7.804667">
        <ele>300.011405</ele>
        <time>2021-11-13T08:51:22.698Z</time>
      </trkpt>
      <trkpt lat="47.551744" lon="7.804473">
        <ele>299.914292</ele>
        <time>2021-11-13T08:51:24.703Z</time>
      </trkpt>
      <trkpt lat="47.551741" lon="7.804294">
        <ele>299.825099</ele>
        <time>2021-11-13T08:51:27.083Z</time>
      </trkpt>
      <trkpt lat="47.551692" lon="7.803510">
        <ele>299.622811</ele>
        <time>2021-11-13T08:51:36.231Z</time>
      </trkpt>
      <trkpt lat="47.551751" lon="7.803369">
        <ele>299.606739</ele>
        <time>2021-11-13T08:51:38.236Z</time>
      </trkpt>
      <trkpt lat="47.551744" lon="7.803277">
        <ele>299.597769</ele>
        <time>2021-11-13T08:51:39.055Z</time>
      </trkpt>
      <trkpt lat="47.551732" lon="7.803125">
        <ele>299.582943</ele>
        <time>2021-11-13T08:51:40.443Z</time>
      </trkpt>
      <trkpt lat="47.551666" lon="7.803144">
        <ele>299.573292</ele>
        <time>2021-11-13T08:51:45.110Z</time>
      </trkpt>
      <trkpt lat="47.551598" lon="7.803160">
        <ele>299.563409</ele>
        <time>2021-11-13T08:51:49.854Z</time>
      </trkpt>
      <trkpt lat="47.551163" lon="7.803129">
        <ele>299.500896</ele>
        <time>2021-11-13T08:51:58.869Z</time>
      </trkpt>
      <trkpt lat="47.550981" lon="7.803132">
        <ele>299.474769</ele>
        <time>2021-11-13T08:52:02.883Z</time>
      </trkpt>
      <trkpt lat="47.550196" lon="7.803120">
        <ele>299.519853</ele>
        <time>2021-11-13T08:52:20.206Z</time>
      </trkpt>
      <trkpt lat="47.550134" lon="7.803051">
        <ele>299.545003</ele>
        <time>2021-11-13T08:52:21.890Z</time>
      </trkpt>
      <trkpt lat="47.550141" lon="7.802587">
        <ele>299.646606</ele>
        <time>2021-11-13T08:52:28.591Z</time>
      </trkpt>
      <trkpt lat="47.550146" lon="7.802262">
        <ele>299.717773</ele>
        <time>2021-11-13T08:52:33.275Z</time>
      </trkpt>
      <trkpt lat="47.549879" lon="7.802247">
        <ele>299.804436</ele>
        <time>2021-11-13T08:52:39.053Z</time>
      </trkpt>
      <trkpt lat="47.549481" lon="7.802234">
        <ele>299.933558</ele>
        <time>2021-11-13T08:52:47.777Z</time>
      </trkpt>
      <trkpt lat="47.549410" lon="7.802226">
        <ele>299.956653</ele>
        <time>2021-11-13T08:52:49.379Z</time>
      </trkpt>
      <trkpt lat="47.548877" lon="7.802168">
        <ele>300.048196</ele>
        <time>2021-11-13T08:53:00.590Z</time>
      </trkpt>
      <trkpt lat="47.548626" lon="7.802129">
        <ele>300.080864</ele>
        <time>2021-11-13T08:53:05.807Z</time>
      </trkpt>
      <trkpt lat="47.548607" lon="7.801690">
        <ele>300.119297</ele>
        <time>2021-11-13T08:53:11.881Z</time>
      </trkpt>
      <trkpt lat="47.548596" lon="7.801213">
        <ele>300.160997</ele>
        <time>2021-11-13T08:53:18.413Z</time>
      </trkpt>
      <trkpt lat="47.548576" lon="7.800968">
        <ele>300.182558</ele>
        <time>2021-11-13T08:53:21.775Z</time>
      </trkpt>
      <trkpt lat="47.548569" lon="7.800838">
        <ele>300.193952</ele>
        <time>2021-11-13T08:53:23.541Z</time>
      </trkpt>
      <trkpt lat="47.548560" lon="7.800672">
        <ele>300.208502</ele>
        <time>2021-11-13T08:53:25.857Z</time>
      </trkpt>
      <trkpt lat="47.548545" lon="7.800404">
        <ele>300.238366</ele>
        <time>2021-11-13T08:53:29.504Z</time>
      </trkpt>
      <trkpt lat="47.548519" lon="7.799896">
        <ele>300.336292</ele>
        <time>2021-11-13T08:53:36.619Z</time>
      </trkpt>
      <trkpt lat="47.548514" lon="7.799795">
        <ele>300.355758</ele>
        <time>2021-11-13T08:53:38.023Z</time>
      </trkpt>
      <trkpt lat="47.548535" lon="7.799720">
        <ele>300.371366</ele>
        <time>2021-11-13T08:53:39.173Z</time>
      </trkpt>
      <trkpt lat="47.548459" lon="7.799691">
        <ele>300.393715</ele>
        <time>2021-11-13T08:53:40.820Z</time>
      </trkpt>
      <trkpt lat="47.547912" lon="7.799646">
        <ele>300.549730</ele>
        <time>2021-11-13T08:53:52.063Z</time>
      </trkpt>
      <trkpt lat="47.547540" lon="7.799538">
        <ele>300.657683</ele>
        <time>2021-11-13T08:53:59.979Z</time>
      </trkpt>
      <trkpt lat="47.546418" lon="7.798980">
        <ele>301.117757</ele>
        <time>2021-11-13T08:54:28.417Z</time>
      </trkpt>
      <trkpt lat="47.545896" lon="7.798865">
        <ele>301.340323</ele>
        <time>2021-11-13T08:54:39.550Z</time>
      </trkpt>
      <trkpt lat="47.545807" lon="7.798846">
        <ele>301.378245</ele>
        <time>2021-11-13T08:54:41.377Z</time>
      </trkpt>
      <trkpt lat="47.545731" lon="7.798810">
        <ele>301.411895</ele>
        <time>2021-11-13T08:54:43.408Z</time>
      </trkpt>
      <trkpt lat="47.545581" lon="7.798713">
        <ele>301.480919</ele>
        <time>2021-11-13T08:54:46.188Z</time>
      </trkpt>
      <trkpt lat="47.545511" lon="7.798680">
        <ele>301.496229</ele>
        <time>2021-11-13T08:54:47.711Z</time>
      </trkpt>
      <trkpt lat="47.545558" lon="7.798144">
        <ele>301.483143</ele>
        <time>2021-11-13T08:54:54.502Z</time>
      </trkpt>
      <trkpt lat="47.545637" lon="7.797310">
        <ele>301.462755</ele>
        <time>2021-11-13T08:55:06.241Z</time>
      </trkpt>
      <trkpt lat="47.545645" lon="7.797258">
        <ele>301.461463</ele>
        <time>2021-11-13T08:55:06.734Z</time>
      </trkpt>
      <trkpt lat="47.545670" lon="7.797142">
        <ele>301.458515</ele>
        <time>2021-11-13T08:55:08.307Z</time>
      </trkpt>
      <trkpt lat="47.545689" lon="7.797076">
        <ele>301.456778</ele>
        <time>2021-11-13T08:55:09.250Z</time>
      </trkpt>
      <trkpt lat="47.545728" lon="7.796950">
        <ele>301.453422</ele>
        <time>2021-11-13T08:55:11.981Z</time>
      </trkpt>
      <trkpt lat="47.545767" lon="7.796820">
        <ele>301.449978</ele>
        <time>2021-11-13T08:55:14.182Z</time>
      </trkpt>
      <trkpt lat="47.545788" lon="7.796748">
        <ele>301.448079</ele>
        <time>2021-11-13T08:55:14.986Z</time>
      </trkpt>
      <trkpt lat="47.545889" lon="7.796500">
        <ele>301.441067</ele>
        <time>2021-11-13T08:55:19.271Z</time>
      </trkpt>
      <trkpt lat="47.546038" lon="7.796107">
        <ele>301.468085</ele>
        <time>2021-11-13T08:55:24.826Z</time>
      </trkpt>
      <trkpt lat="47.546105" lon="7.795928">
        <ele>301.530452</ele>
        <time>2021-11-13T08:55:28.357Z</time>
      </trkpt>
      <trkpt lat="47.546154" lon="7.795747">
        <ele>301.589875</ele>
        <time>2021-11-13T08:55:30.667Z</time>
      </trkpt>
      <trkpt lat="47.546170" lon="7.795612">
        <ele>301.631639</ele>
        <time>2021-11-13T08:55:32.580Z</time>
      </trkpt>
      <trkpt lat="47.546165" lon="7.795511">
        <ele>301.662498</ele>
        <time>2021-11-13T08:55:34.604Z</time>
      </trkpt>
      <trkpt lat="47.546019" lon="7.795020">
        <ele>301.825983</ele>
        <time>2021-11-13T08:55:42.363Z</time>
      </trkpt>
      <trkpt lat="47.545947" lon="7.794710">
        <ele>301.925878</ele>
        <time>2021-11-13T08:55:47.398Z</time>
      </trkpt>
      <trkpt lat="47.545921" lon="7.794468">
        <ele>302.000546</ele>
        <time>2021-11-13T08:55:51.520Z</time>
      </trkpt>
      <trkpt lat="47.545969" lon="7.793663">
        <ele>302.243454</ele>
        <time>2021-11-13T08:56:04.103Z</time>
      </trkpt>
      <trkpt lat="47.546027" lon="7.793254">
        <ele>302.146947</ele>
        <time>2021-11-13T08:56:10.651Z</time>
      </trkpt>
      <trkpt lat="47.546253" lon="7.791998">
        <ele>301.846786</ele>
        <time>2021-11-13T08:56:27.427Z</time>
      </trkpt>
      <trkpt lat="47.546656" lon="7.789051">
        <ele>300.299642</ele>
        <time>2021-11-13T08:57:02.481Z</time>
      </trkpt>
      <trkpt lat="47.546673" lon="7.788921">
        <ele>300.214411</ele>
        <time>2021-11-13T08:57:03.914Z</time>
      </trkpt>
      <trkpt lat="47.546695" lon="7.788763">
        <ele>300.110573</ele>
        <time>2021-11-13T08:57:05.905Z</time>
      </trkpt>
      <trkpt lat="47.546897" lon="7.787133">
        <ele>300.397022</ele>
        <time>2021-11-13T08:57:26.663Z</time>
      </trkpt>
      <trkpt lat="47.546959" lon="7.786598">
        <ele>300.590708</ele>
        <time>2021-11-13T08:57:33.775Z</time>
      </trkpt>
      <trkpt lat="47.546952" lon="7.786540">
        <ele>300.611731</ele>
        <time>2021-11-13T08:57:34.734Z</time>
      </trkpt>
      <trkpt lat="47.546913" lon="7.786470">
        <ele>300.644117</ele>
        <time>2021-11-13T08:57:36.517Z</time>
      </trkpt>
      <trkpt lat="47.546526" lon="7.786353">
        <ele>300.852907</ele>
        <time>2021-11-13T08:57:47.914Z</time>
      </trkpt>
      <trkpt lat="47.546464" lon="7.786335">
        <ele>301.088074</ele>
        <time>2021-11-13T08:57:49.719Z</time>
      </trkpt>
      <trkpt lat="47.546417" lon="7.786331">
        <ele>301.351148</ele>
        <time>2021-11-13T08:57:50.957Z</time>
      </trkpt>
      <trkpt lat="47.546102" lon="7.786217">
        <ele>303.163164</ele>
        <time>2021-11-13T08:58:02.510Z</time>
      </trkpt>
      <trkpt lat="47.545856" lon="7.785973">
        <ele>304.817489</ele>
        <time>2021-11-13T08:58:14.665Z</time>
      </trkpt>
      <trkpt lat="47.545672" lon="7.785654">
        <ele>306.400227</ele>
        <time>2021-11-13T08:58:25.991Z</time>
      </trkpt>
      <trkpt lat="47.545624" lon="7.785548">
        <ele>306.881696</ele>
        <time>2021-11-13T08:58:32.656Z</time>
      </trkpt>
      <trkpt lat="47.545250" lon="7.784778">
        <ele>310.459921</ele>
        <time>2021-11-13T08:59:04.183Z</time>
      </trkpt>
      <trkpt lat="47.545240" lon="7.784746">
        <ele>310.592933</ele>
        <time>2021-11-13T08:59:06.862Z</time>
      </trkpt>
      <trkpt lat="47.545054" lon="7.784227">
        <ele>311.632560</ele>
        <time>2021-11-13T08:59:25.011Z</time>
      </trkpt>
      <trkpt lat="47.544950" lon="7.784008">
        <ele>312.014720</ele>
        <time>2021-11-13T08:59:31.342Z</time>
      </trkpt>
      <trkpt lat="47.544627" lon="7.783499">
        <ele>313.011784</ele>
        <time>2021-11-13T08:59:47.205Z</time>
      </trkpt>
      <trkpt lat="47.544555" lon="7.783372">
        <ele>313.248489</ele>
        <time>2021-11-13T08:59:49.282Z</time>
      </trkpt>
      <trkpt lat="47.544490" lon="7.783060">
        <ele>313.714510</ele>
        <time>2021-11-13T08:59:54.028Z</time>
      </trkpt>
      <trkpt lat="47.544474" lon="7.782623">
        <ele>314.339124</ele>
        <time>2021-11-13T08:59:59.036Z</time>
      </trkpt>
      <trkpt lat="47.544469" lon="7.782455">
        <ele>314.579131</ele>
        <time>2021-11-13T09:00:00.335Z</time>
      </trkpt>
      <trkpt lat="47.544461" lon="7.782254">
        <ele>314.318883</ele>
        <time>2021-11-13T09:00:01.599Z</time>
      </trkpt>
      <trkpt lat="47.544100" lon="7.779438">
        <ele>303.591992</ele>
        <time>2021-11-13T09:00:19.089Z</time>
      </trkpt>
      <trkpt lat="47.543933" lon="7.778374">
        <ele>300.758395</ele>
        <time>2021-11-13T09:00:26.159Z</time>
      </trkpt>
      <trkpt lat="47.543707" lon="7.777394">
        <ele>298.072051</ele>
        <time>2021-11-13T09:00:33.380Z</time>
      </trkpt>
      <trkpt lat="47.543527" lon="7.776532">
        <ele>297.177662</ele>
        <time>2021-11-13T09:00:40.524Z</time>
      </trkpt>
      <trkpt lat="47.543482" lon="7.776095">
        <ele>296.984145</ele>
        <time>2021-11-13T09:00:44.400Z</time>
      </trkpt>
      <trkpt lat="47.543449" lon="7.775478">
        <ele>296.713196</ele>
        <time>2021-11-13T09:00:50.143Z</time>
      </trkpt>
      <trkpt lat="47.543402" lon="7.775016">
        <ele>296.508664</ele>
        <time>2021-11-13T09:00:54.812Z</time>
      </trkpt>
      <trkpt lat="47.543350" lon="7.774507">
        <ele>296.298517</ele>
        <time>2021-11-13T09:01:00.050Z</time>
      </trkpt>
      <trkpt lat="47.543145" lon="7.773277">
        <ele>296.135957</ele>
        <time>2021-11-13T09:01:12.949Z</time>
      </trkpt>
      <trkpt lat="47.543108" lon="7.773069">
        <ele>296.108358</ele>
        <time>2021-11-13T09:01:15.129Z</time>
      </trkpt>
      <trkpt lat="47.542720" lon="7.770771">
        <ele>295.711112</ele>
        <time>2021-11-13T09:01:36.351Z</time>
      </trkpt>
      <trkpt lat="47.542450" lon="7.769311">
        <ele>295.550758</ele>
        <time>2021-11-13T09:01:50.323Z</time>
      </trkpt>
      <trkpt lat="47.542317" lon="7.768533">
        <ele>296.790303</ele>
        <time>2021-11-13T09:01:58.696Z</time>
      </trkpt>
      <trkpt lat="47.541697" lon="7.765479">
        <ele>305.153755</ele>
        <time>2021-11-13T09:03:00.962Z</time>
      </trkpt>
      <trkpt lat="47.541552" lon="7.764869">
        <ele>307.727225</ele>
        <time>2021-11-13T09:03:20.702Z</time>
      </trkpt>
      <trkpt lat="47.541443" lon="7.764512">
        <ele>309.286391</ele>
        <time>2021-11-13T09:03:34.553Z</time>
      </trkpt>
      <trkpt lat="47.541364" lon="7.764150">
        <ele>311.200191</ele>
        <time>2021-11-13T09:03:45.520Z</time>
      </trkpt>
      <trkpt lat="47.541377" lon="7.764045">
        <ele>311.881360</ele>
        <time>2021-11-13T09:03:50.083Z</time>
      </trkpt>
      <trkpt lat="47.541334" lon="7.764020">
        <ele>312.317996</ele>
        <time>2021-11-13T09:03:54.926Z</time>
      </trkpt>
      <trkpt lat="47.541219" lon="7.763853">
        <ele>313.840213</ele>
        <time>2021-11-13T09:04:01.514Z</time>
      </trkpt>
      <trkpt lat="47.541023" lon="7.762922">
        <ele>320.063042</ele>
        <time>2021-11-13T09:04:39.846Z</time>
      </trkpt>
      <trkpt lat="47.541004" lon="7.762306">
        <ele>323.997801</ele>
        <time>2021-11-13T09:05:02.664Z</time>
      </trkpt>
      <trkpt lat="47.540921" lon="7.761599">
        <ele>327.960679</ele>
        <time>2021-11-13T09:05:27.333Z</time>
      </trkpt>
      <trkpt lat="47.540567" lon="7.759901">
        <ele>334.440476</ele>
        <time>2021-11-13T09:06:12.007Z</time>
      </trkpt>
      <trkpt lat="47.540447" lon="7.759585">
        <ele>335.762477</ele>
        <time>2021-11-13T09:06:19.590Z</time>
      </trkpt>
      <trkpt lat="47.539949" lon="7.758688">
        <ele>336.406429</ele>
        <time>2021-11-13T09:06:37.835Z</time>
      </trkpt>
      <trkpt lat="47.539722" lon="7.758107">
        <ele>336.057780</ele>
        <time>2021-11-13T09:06:44.124Z</time>
      </trkpt>
      <trkpt lat="47.539595" lon="7.757548">
        <ele>335.751450</ele>
        <time>2021-11-13T09:06:48.518Z</time>
      </trkpt>
      <trkpt lat="47.539346" lon="7.755736">
        <ele>330.707959</ele>
        <time>2021-11-13T09:07:00.262Z</time>
      </trkpt>
      <trkpt lat="47.539230" lon="7.755294">
        <ele>328.981185</ele>
        <time>2021-11-13T09:07:03.154Z</time>
      </trkpt>
      <trkpt lat="47.539079" lon="7.754976">
        <ele>327.565513</ele>
        <time>2021-11-13T09:07:05.545Z</time>
      </trkpt>
      <trkpt lat="47.538792" lon="7.754549">
        <ele>325.542053</ele>
        <time>2021-11-13T09:07:09.279Z</time>
      </trkpt>
      <trkpt lat="47.538723" lon="7.754445">
        <ele>325.239011</ele>
        <time>2021-11-13T09:07:10.177Z</time>
      </trkpt>
      <trkpt lat="47.538494" lon="7.754103">
        <ele>324.237935</ele>
        <time>2021-11-13T09:07:13.337Z</time>
      </trkpt>
      <trkpt lat="47.538359" lon="7.753900">
        <ele>323.645733</ele>
        <time>2021-11-13T09:07:15.238Z</time>
      </trkpt>
      <trkpt lat="47.538052" lon="7.753460">
        <ele>322.330677</ele>
        <time>2021-11-13T09:07:19.645Z</time>
      </trkpt>
      <trkpt lat="47.537715" lon="7.753194">
        <ele>321.155140</ele>
        <time>2021-11-13T09:07:23.764Z</time>
      </trkpt>
      <trkpt lat="47.537564" lon="7.753073">
        <ele>320.626632</ele>
        <time>2021-11-13T09:07:25.666Z</time>
      </trkpt>
      <trkpt lat="47.537371" lon="7.752851">
        <ele>320.185328</ele>
        <time>2021-11-13T09:07:29.103Z</time>
      </trkpt>
      <trkpt lat="47.537134" lon="7.752309">
        <ele>320.010750</ele>
        <time>2021-11-13T09:07:35.391Z</time>
      </trkpt>
      <trkpt lat="47.535912" lon="7.749669">
        <ele>319.231617</ele>
        <time>2021-11-13T09:08:05.571Z</time>
      </trkpt>
      <trkpt lat="47.534874" lon="7.746551">
        <ele>318.588416</ele>
        <time>2021-11-13T09:08:37.421Z</time>
      </trkpt>
      <trkpt lat="47.534429" lon="7.744856">
        <ele>318.712006</ele>
        <time>2021-11-13T09:08:56.332Z</time>
      </trkpt>
      <trkpt lat="47.534370" lon="7.744709">
        <ele>318.739070</ele>
        <time>2021-11-13T09:08:57.979Z</time>
      </trkpt>
      <trkpt lat="47.534179" lon="7.744495">
        <ele>318.795205</ele>
        <time>2021-11-13T09:09:01.862Z</time>
      </trkpt>
      <trkpt lat="47.534097" lon="7.744343">
        <ele>318.825995</ele>
        <time>2021-11-13T09:09:03.873Z</time>
      </trkpt>
      <trkpt lat="47.534043" lon="7.744207">
        <ele>318.850963</ele>
        <time>2021-11-13T09:09:05.619Z</time>
      </trkpt>
      <trkpt lat="47.533870" lon="7.743466">
        <ele>319.074506</ele>
        <time>2021-11-13T09:09:14.397Z</time>
      </trkpt>
      <trkpt lat="47.533707" lon="7.742025">
        <ele>319.760804</ele>
        <time>2021-11-13T09:09:32.946Z</time>
      </trkpt>
      <trkpt lat="47.533352" lon="7.740430">
        <ele>319.573438</ele>
        <time>2021-11-13T09:09:52.068Z</time>
      </trkpt>
      <trkpt lat="47.533191" lon="7.739816">
        <ele>319.074836</ele>
        <time>2021-11-13T09:09:58.139Z</time>
      </trkpt>
      <trkpt lat="47.533153" lon="7.739664">
        <ele>318.952141</ele>
        <time>2021-11-13T09:09:59.436Z</time>
      </trkpt>
      <trkpt lat="47.531874" lon="7.736048">
        <ele>312.602255</ele>
        <time>2021-11-13T09:10:27.909Z</time>
      </trkpt>
      <trkpt lat="47.531710" lon="7.735855">
        <ele>312.216614</ele>
        <time>2021-11-13T09:10:30.095Z</time>
      </trkpt>
      <trkpt lat="47.531389" lon="7.735745">
        <ele>311.610024</ele>
        <time>2021-11-13T09:10:33.660Z</time>
      </trkpt>
      <trkpt lat="47.531325" lon="7.735684">
        <ele>311.469907</ele>
        <time>2021-11-13T09:10:34.372Z</time>
      </trkpt>
      <trkpt lat="47.530882" lon="7.735983">
        <ele>310.573624</ele>
        <time>2021-11-13T09:10:39.985Z</time>
      </trkpt>
      <trkpt lat="47.530193" lon="7.736351">
        <ele>309.768446</ele>
        <time>2021-11-13T09:10:49.403Z</time>
      </trkpt>
      <trkpt lat="47.529741" lon="7.736731">
        <ele>309.798845</ele>
        <time>2021-11-13T09:10:57.883Z</time>
      </trkpt>
      <trkpt lat="47.529603" lon="7.736896">
        <ele>309.809218</ele>
        <time>2021-11-13T09:11:01.118Z</time>
      </trkpt>
      <trkpt lat="47.529534" lon="7.737005">
        <ele>309.815118</ele>
        <time>2021-11-13T09:11:03.288Z</time>
      </trkpt>
      <trkpt lat="47.528997" lon="7.738134">
        <ele>309.698671</ele>
        <time>2021-11-13T09:11:17.263Z</time>
      </trkpt>
      <trkpt lat="47.528896" lon="7.738303">
        <ele>309.587957</ele>
        <time>2021-11-13T09:11:19.451Z</time>
      </trkpt>
      <trkpt lat="47.528842" lon="7.738378">
        <ele>309.534173</ele>
        <time>2021-11-13T09:11:20.270Z</time>
      </trkpt>
      <trkpt lat="47.528601" lon="7.738620">
        <ele>309.322631</ele>
        <time>2021-11-13T09:11:23.888Z</time>
      </trkpt>
      <trkpt lat="47.528341" lon="7.738762">
        <ele>309.121302</ele>
        <time>2021-11-13T09:11:27.244Z</time>
      </trkpt>
      <trkpt lat="47.528292" lon="7.738774">
        <ele>309.085220</ele>
        <time>2021-11-13T09:11:27.838Z</time>
      </trkpt>
      <trkpt lat="47.527841" lon="7.738820">
        <ele>308.756785</ele>
        <time>2021-11-13T09:11:35.651Z</time>
      </trkpt>
      <trkpt lat="47.527567" lon="7.738827">
        <ele>308.557691</ele>
        <time>2021-11-13T09:11:39.223Z</time>
      </trkpt>
      <trkpt lat="47.527349" lon="7.738840">
        <ele>308.514000</ele>
        <time>2021-11-13T09:11:41.915Z</time>
      </trkpt>
      <trkpt lat="47.527103" lon="7.738847">
        <ele>308.471173</ele>
        <time>2021-11-13T09:11:44.920Z</time>
      </trkpt>
      <trkpt lat="47.527038" lon="7.739424">
        <ele>308.402419</ele>
        <time>2021-11-13T09:11:50.018Z</time>
      </trkpt>
      <trkpt lat="47.526782" lon="7.740808">
        <ele>308.254170</ele>
        <time>2021-11-13T09:12:05.143Z</time>
      </trkpt>
      <trkpt lat="47.526377" lon="7.742234">
        <ele>309.182756</ele>
        <time>2021-11-13T09:12:24.421Z</time>
      </trkpt>
      <trkpt lat="47.526222" lon="7.742784">
        <ele>309.540494</ele>
        <time>2021-11-13T09:12:31.739Z</time>
      </trkpt>
      <trkpt lat="47.525969" lon="7.743974">
        <ele>310.680977</ele>
        <time>2021-11-13T09:12:48.740Z</time>
      </trkpt>
      <trkpt lat="47.525891" lon="7.744459">
        <ele>311.238732</ele>
        <time>2021-11-13T09:12:55.947Z</time>
      </trkpt>
      <trkpt lat="47.525836" lon="7.744800">
        <ele>311.630947</ele>
        <time>2021-11-13T09:13:00.987Z</time>
      </trkpt>
      <trkpt lat="47.525817" lon="7.744920">
        <ele>311.768835</ele>
        <time>2021-11-13T09:13:02.907Z</time>
      </trkpt>
      <trkpt lat="47.525761" lon="7.745310">
        <ele>312.214892</ele>
        <time>2021-11-13T09:13:08.691Z</time>
      </trkpt>
      <trkpt lat="47.525754" lon="7.745361">
        <ele>312.273114</ele>
        <time>2021-11-13T09:13:09.462Z</time>
      </trkpt>
      <trkpt lat="47.525698" lon="7.745676">
        <ele>312.637520</ele>
        <time>2021-11-13T09:13:14.548Z</time>
      </trkpt>
      <trkpt lat="47.525493" lon="7.746648">
        <ele>314.240346</ele>
        <time>2021-11-13T09:13:30.685Z</time>
      </trkpt>
      <trkpt lat="47.525175" lon="7.747653">
        <ele>316.081070</ele>
        <time>2021-11-13T09:13:49.561Z</time>
      </trkpt>
      <trkpt lat="47.525102" lon="7.747843">
        <ele>316.443625</ele>
        <time>2021-11-13T09:13:53.638Z</time>
      </trkpt>
      <trkpt lat="47.525034" lon="7.748003">
        <ele>316.757172</ele>
        <time>2021-11-13T09:13:56.502Z</time>
      </trkpt>
      <trkpt lat="47.524939" lon="7.748210">
        <ele>317.172271</ele>
        <time>2021-11-13T09:14:00.776Z</time>
      </trkpt>
      <trkpt lat="47.524786" lon="7.748513">
        <ele>317.972275</ele>
        <time>2021-11-13T09:14:06.983Z</time>
      </trkpt>
      <trkpt lat="47.524595" lon="7.748826">
        <ele>318.885101</ele>
        <time>2021-11-13T09:14:14.722Z</time>
      </trkpt>
      <trkpt lat="47.523810" lon="7.749861">
        <ele>322.252971</ele>
        <time>2021-11-13T09:14:44.166Z</time>
      </trkpt>
      <trkpt lat="47.522660" lon="7.751079">
        <ele>327.095220</ele>
        <time>2021-11-13T09:15:26.032Z</time>
      </trkpt>
      <trkpt lat="47.522153" lon="7.751504">
        <ele>329.115760</ele>
        <time>2021-11-13T09:15:42.621Z</time>
      </trkpt>
      <trkpt lat="47.521128" lon="7.752139">
        <ele>331.665968</ele>
        <time>2021-11-13T09:16:11.123Z</time>
      </trkpt>
      <trkpt lat="47.520691" lon="7.752581">
        <ele>332.860843</ele>
        <time>2021-11-13T09:16:23.463Z</time>
      </trkpt>
      <trkpt lat="47.520500" lon="7.752840">
        <ele>333.295395</ele>
        <time>2021-11-13T09:16:28.219Z</time>
      </trkpt>
      <trkpt lat="47.520081" lon="7.753575">
        <ele>333.290636</ele>
        <time>2021-11-13T09:16:38.910Z</time>
      </trkpt>
      <trkpt lat="47.519771" lon="7.754124">
        <ele>333.287095</ele>
        <time>2021-11-13T09:16:45.564Z</time>
      </trkpt>
      <trkpt lat="47.519558" lon="7.754516">
        <ele>333.284606</ele>
        <time>2021-11-13T09:16:49.929Z</time>
      </trkpt>
      <trkpt lat="47.518866" lon="7.755813">
        <ele>332.857336</ele>
        <time>2021-11-13T09:17:03.891Z</time>
      </trkpt>
      <trkpt lat="47.517863" lon="7.757421">
        <ele>332.734333</ele>
        <time>2021-11-13T09:17:24.603Z</time>
      </trkpt>
      <trkpt lat="47.516954" lon="7.758506">
        <ele>333.485103</ele>
        <time>2021-11-13T09:17:46.228Z</time>
      </trkpt>
      <trkpt lat="47.516501" lon="7.759179">
        <ele>334.789073</ele>
        <time>2021-11-13T09:17:59.343Z</time>
      </trkpt>
      <trkpt lat="47.515929" lon="7.760077">
        <ele>336.683896</ele>
        <time>2021-11-13T09:18:19.048Z</time>
      </trkpt>
      <trkpt lat="47.515394" lon="7.761200">
        <ele>339.440890</ele>
        <time>2021-11-13T09:18:45.859Z</time>
      </trkpt>
      <trkpt lat="47.515265" lon="7.761533">
        <ele>340.359264</ele>
        <time>2021-11-13T09:18:53.736Z</time>
      </trkpt>
      <trkpt lat="47.515220" lon="7.761710">
        <ele>340.811708</ele>
        <time>2021-11-13T09:18:57.604Z</time>
      </trkpt>
      <trkpt lat="47.515194" lon="7.761991">
        <ele>341.490224</ele>
        <time>2021-11-13T09:19:03.635Z</time>
      </trkpt>
      <trkpt lat="47.515150" lon="7.762617">
        <ele>342.995895</ele>
        <time>2021-11-13T09:19:15.755Z</time>
      </trkpt>
      <trkpt lat="47.515108" lon="7.762767">
        <ele>343.384356</ele>
        <time>2021-11-13T09:19:19.219Z</time>
      </trkpt>
      <trkpt lat="47.515023" lon="7.762891">
        <ele>343.807022</ele>
        <time>2021-11-13T09:19:22.949Z</time>
      </trkpt>
      <trkpt lat="47.514492" lon="7.763207">
        <ele>345.044189</ele>
        <time>2021-11-13T09:19:38.347Z</time>
      </trkpt>
      <trkpt lat="47.514365" lon="7.763357">
        <ele>345.371110</ele>
        <time>2021-11-13T09:19:42.733Z</time>
      </trkpt>
      <trkpt lat="47.514022" lon="7.763802">
        <ele>346.288840</ele>
        <time>2021-11-13T09:19:50.906Z</time>
      </trkpt>
      <trkpt lat="47.513823" lon="7.764227">
        <ele>346.991714</ele>
        <time>2021-11-13T09:19:58.053Z</time>
      </trkpt>
      <trkpt lat="47.513810" lon="7.764252">
        <ele>347.034597</ele>
        <time>2021-11-13T09:19:58.442Z</time>
      </trkpt>
      <trkpt lat="47.513747" lon="7.764397">
        <ele>347.268931</ele>
        <time>2021-11-13T09:20:00.944Z</time>
      </trkpt>
      <trkpt lat="47.513707" lon="7.764494">
        <ele>347.423399</ele>
        <time>2021-11-13T09:20:02.960Z</time>
      </trkpt>
      <trkpt lat="47.513661" lon="7.764590">
        <ele>347.583379</ele>
        <time>2021-11-13T09:20:04.922Z</time>
      </trkpt>
      <trkpt lat="47.513615" lon="7.764654">
        <ele>347.685922</ele>
        <time>2021-11-13T09:20:05.595Z</time>
      </trkpt>
      <trkpt lat="47.513036" lon="7.765134">
        <ele>348.640500</ele>
        <time>2021-11-13T09:20:20.557Z</time>
      </trkpt>
      <trkpt lat="47.512959" lon="7.765198">
        <ele>348.767526</ele>
        <time>2021-11-13T09:20:21.680Z</time>
      </trkpt>
      <trkpt lat="47.512947" lon="7.765205">
        <ele>348.786080</ele>
        <time>2021-11-13T09:20:21.914Z</time>
      </trkpt>
      <trkpt lat="47.512876" lon="7.765238">
        <ele>348.893129</ele>
        <time>2021-11-13T09:20:23.410Z</time>
      </trkpt>
      <trkpt lat="47.512596" lon="7.765294">
        <ele>349.299571</ele>
        <time>2021-11-13T09:20:28.880Z</time>
      </trkpt>
      <trkpt lat="47.512523" lon="7.765308">
        <ele>349.405459</ele>
        <time>2021-11-13T09:20:30.339Z</time>
      </trkpt>
      <trkpt lat="47.512359" lon="7.765319">
        <ele>349.641618</ele>
        <time>2021-11-13T09:20:34.312Z</time>
      </trkpt>
      <trkpt lat="47.512026" lon="7.765311">
        <ele>350.120705</ele>
        <time>2021-11-13T09:20:40.308Z</time>
      </trkpt>
      <trkpt lat="47.511929" lon="7.765269">
        <ele>350.279232</ele>
        <time>2021-11-13T09:20:42.496Z</time>
      </trkpt>
      <trkpt lat="47.511866" lon="7.765218">
        <ele>350.407588</ele>
        <time>2021-11-13T09:20:43.571Z</time>
      </trkpt>
      <trkpt lat="47.511702" lon="7.765093">
        <ele>350.737329</ele>
        <time>2021-11-13T09:20:47.958Z</time>
      </trkpt>
      <trkpt lat="47.511360" lon="7.764807">
        <ele>351.439486</ele>
        <time>2021-11-13T09:20:57.392Z</time>
      </trkpt>
      <trkpt lat="47.511298" lon="7.764777">
        <ele>351.556088</ele>
        <time>2021-11-13T09:20:59.448Z</time>
      </trkpt>
      <trkpt lat="47.511261" lon="7.764772">
        <ele>351.622505</ele>
        <time>2021-11-13T09:21:00.348Z</time>
      </trkpt>
      <trkpt lat="47.510922" lon="7.764773">
        <ele>352.228513</ele>
        <time>2021-11-13T09:21:08.222Z</time>
      </trkpt>
      <trkpt lat="47.510628" lon="7.764909">
        <ele>352.779133</ele>
        <time>2021-11-13T09:21:14.049Z</time>
      </trkpt>
      <trkpt lat="47.510486" lon="7.765012">
        <ele>353.061806</ele>
        <time>2021-11-13T09:21:17.375Z</time>
      </trkpt>
      <trkpt lat="47.510392" lon="7.765088">
        <ele>353.253268</ele>
        <time>2021-11-13T09:21:19.348Z</time>
      </trkpt>
      <trkpt lat="47.510179" lon="7.765273">
        <ele>353.906296</ele>
        <time>2021-11-13T09:21:23.970Z</time>
      </trkpt>
      <trkpt lat="47.510078" lon="7.765363">
        <ele>354.283707</ele>
        <time>2021-11-13T09:21:26.653Z</time>
      </trkpt>
      <trkpt lat="47.510019" lon="7.765402">
        <ele>354.490571</ele>
        <time>2021-11-13T09:21:27.824Z</time>
      </trkpt>
      <trkpt lat="47.509942" lon="7.765436">
        <ele>354.747822</ele>
        <time>2021-11-13T09:21:29.856Z</time>
      </trkpt>
      <trkpt lat="47.509899" lon="7.765445">
        <ele>354.886857</ele>
        <time>2021-11-13T09:21:30.852Z</time>
      </trkpt>
      <trkpt lat="47.509741" lon="7.765454">
        <ele>355.393076</ele>
        <time>2021-11-13T09:21:34.975Z</time>
      </trkpt>
      <trkpt lat="47.509600" lon="7.765443">
        <ele>355.845120</ele>
        <time>2021-11-13T09:21:39.218Z</time>
      </trkpt>
      <trkpt lat="47.509436" lon="7.765441">
        <ele>356.370192</ele>
        <time>2021-11-13T09:21:44.245Z</time>
      </trkpt>
      <trkpt lat="47.509057" lon="7.765447">
        <ele>357.583648</ele>
        <time>2021-11-13T09:21:56.782Z</time>
      </trkpt>
      <trkpt lat="47.508744" lon="7.765478">
        <ele>358.587972</ele>
        <time>2021-11-13T09:22:06.757Z</time>
      </trkpt>
      <trkpt lat="47.508322" lon="7.765556">
        <ele>359.966306</ele>
        <time>2021-11-13T09:22:19.418Z</time>
      </trkpt>
      <trkpt lat="47.508137" lon="7.765584">
        <ele>360.574768</ele>
        <time>2021-11-13T09:22:24.201Z</time>
      </trkpt>
      <trkpt lat="47.507977" lon="7.765561">
        <ele>361.100739</ele>
        <time>2021-11-13T09:22:28.414Z</time>
      </trkpt>
      <trkpt lat="47.507650" lon="7.765503">
        <ele>362.178312</ele>
        <time>2021-11-13T09:22:36.649Z</time>
      </trkpt>
      <trkpt lat="47.507506" lon="7.765470">
        <ele>362.655082</ele>
        <time>2021-11-13T09:22:41.981Z</time>
      </trkpt>
      <trkpt lat="47.507429" lon="7.765409">
        <ele>362.940825</ele>
        <time>2021-11-13T09:22:43.637Z</time>
      </trkpt>
      <trkpt lat="47.506870" lon="7.765037">
        <ele>364.946134</ele>
        <time>2021-11-13T09:23:02.019Z</time>
      </trkpt>
      <trkpt lat="47.506716" lon="7.764971">
        <ele>365.425546</ele>
        <time>2021-11-13T09:23:05.380Z</time>
      </trkpt>
      <trkpt lat="47.506619" lon="7.764938">
        <ele>365.714434</ele>
        <time>2021-11-13T09:23:08.166Z</time>
      </trkpt>
      <trkpt lat="47.506377" lon="7.764894">
        <ele>366.422133</ele>
        <time>2021-11-13T09:23:13.611Z</time>
      </trkpt>
      <trkpt lat="47.506301" lon="7.764884">
        <ele>366.643597</ele>
        <time>2021-11-13T09:23:15.311Z</time>
      </trkpt>
      <trkpt lat="47.506143" lon="7.764883">
        <ele>367.102207</ele>
        <time>2021-11-13T09:23:20.009Z</time>
      </trkpt>
      <trkpt lat="47.505115" lon="7.765011">
        <ele>370.096579</ele>
        <time>2021-11-13T09:23:46.004Z</time>
      </trkpt>
      <trkpt lat="47.504400" lon="7.764478">
        <ele>372.121533</ele>
        <time>2021-11-13T09:24:11.263Z</time>
      </trkpt>
      <trkpt lat="47.503736" lon="7.764325">
        <ele>373.798393</ele>
        <time>2021-11-13T09:24:30.242Z</time>
      </trkpt>
      <trkpt lat="47.502578" lon="7.764620">
        <ele>375.041275</ele>
        <time>2021-11-13T09:24:45.265Z</time>
      </trkpt>
      <trkpt lat="47.502400" lon="7.764717">
        <ele>375.104760</ele>
        <time>2021-11-13T09:24:53.237Z</time>
      </trkpt>
      <trkpt lat="47.502299" lon="7.764761">
        <ele>375.139998</ele>
        <time>2021-11-13T09:24:54.305Z</time>
      </trkpt>
      <trkpt lat="47.501861" lon="7.764937">
        <ele>375.291900</ele>
        <time>2021-11-13T09:24:59.727Z</time>
      </trkpt>
      <trkpt lat="47.501785" lon="7.764941">
        <ele>375.317353</ele>
        <time>2021-11-13T09:25:06.258Z</time>
      </trkpt>
      <trkpt lat="47.501717" lon="7.764903">
        <ele>375.341680</ele>
        <time>2021-11-13T09:25:06.891Z</time>
      </trkpt>
      <trkpt lat="47.501402" lon="7.764367">
        <ele>375.834924</ele>
        <time>2021-11-13T09:25:13.274Z</time>
      </trkpt>
      <trkpt lat="47.501345" lon="7.764315">
        <ele>375.919084</ele>
        <time>2021-11-13T09:25:13.832Z</time>
      </trkpt>
      <trkpt lat="47.501281" lon="7.764267">
        <ele>376.009265</ele>
        <time>2021-11-13T09:25:21.404Z</time>
      </trkpt>
      <trkpt lat="47.501196" lon="7.764236">
        <ele>376.119300</ele>
        <time>2021-11-13T09:25:22.237Z</time>
      </trkpt>
      <trkpt lat="47.501035" lon="7.764209">
        <ele>376.322963</ele>
        <time>2021-11-13T09:25:23.751Z</time>
      </trkpt>
      <trkpt lat="47.500820" lon="7.764278">
        <ele>376.599485</ele>
        <time>2021-11-13T09:25:29.648Z</time>
      </trkpt>
      <trkpt lat="47.500727" lon="7.764330">
        <ele>376.724442</ele>
        <time>2021-11-13T09:25:31.664Z</time>
      </trkpt>
      <trkpt lat="47.500387" lon="7.764595">
        <ele>377.207429</ele>
        <time>2021-11-13T09:25:38.188Z</time>
      </trkpt>
      <trkpt lat="47.499963" lon="7.764903">
        <ele>378.289221</ele>
        <time>2021-11-13T09:25:53.143Z</time>
      </trkpt>
      <trkpt lat="47.499545" lon="7.765179">
        <ele>380.634151</ele>
        <time>2021-11-13T09:26:07.107Z</time>
      </trkpt>
      <trkpt lat="47.499422" lon="7.765260">
        <ele>381.323863</ele>
        <time>2021-11-13T09:26:11.477Z</time>
      </trkpt>
      <trkpt lat="47.499360" lon="7.765292">
        <ele>381.660262</ele>
        <time>2021-11-13T09:26:13.725Z</time>
      </trkpt>
      <trkpt lat="47.498800" lon="7.765582">
        <ele>384.699806</ele>
        <time>2021-11-13T09:26:35.052Z</time>
      </trkpt>
      <trkpt lat="47.498586" lon="7.765657">
        <ele>385.826495</ele>
        <time>2021-11-13T09:26:44.263Z</time>
      </trkpt>
      <trkpt lat="47.498351" lon="7.765739">
        <ele>387.209491</ele>
        <time>2021-11-13T09:26:54.791Z</time>
      </trkpt>
      <trkpt lat="47.498155" lon="7.765801">
        <ele>388.963642</ele>
        <time>2021-11-13T09:27:02.797Z</time>
      </trkpt>
      <trkpt lat="47.497958" lon="7.765844">
        <ele>390.706454</ele>
        <time>2021-11-13T09:27:12.840Z</time>
      </trkpt>
      <trkpt lat="47.497754" lon="7.765880">
        <ele>392.504530</ele>
        <time>2021-11-13T09:27:21.547Z</time>
      </trkpt>
      <trkpt lat="47.497754" lon="7.765880">
        <ele>392.504530</ele>
        <time>2021-11-13T09:27:21.671Z</time>
      </trkpt>
      <trkpt lat="47.497498" lon="7.765897">
        <ele>394.747323</ele>
        <time>2021-11-13T09:27:34.342Z</time>
      </trkpt>
      <trkpt lat="47.497210" lon="7.765902">
        <ele>397.268104</ele>
        <time>2021-11-13T09:27:50.439Z</time>
      </trkpt>
      <trkpt lat="47.496969" lon="7.765900">
        <ele>399.377395</ele>
        <time>2021-11-13T09:28:03.597Z</time>
      </trkpt>
      <trkpt lat="47.496750" lon="7.765887">
        <ele>401.295648</ele>
        <time>2021-11-13T09:28:14.555Z</time>
      </trkpt>
      <trkpt lat="47.496588" lon="7.765860">
        <ele>402.758443</ele>
        <time>2021-11-13T09:28:24.000Z</time>
      </trkpt>
      <trkpt lat="47.496330" lon="7.765821">
        <ele>405.691180</ele>
        <time>2021-11-13T09:28:37.340Z</time>
      </trkpt>
      <trkpt lat="47.495769" lon="7.765706">
        <ele>412.095733</ele>
        <time>2021-11-13T09:29:09.309Z</time>
      </trkpt>
      <trkpt lat="47.495064" lon="7.765480">
        <ele>420.252991</ele>
        <time>2021-11-13T09:29:49.688Z</time>
      </trkpt>
      <trkpt lat="47.495053" lon="7.765476">
        <ele>420.381082</ele>
        <time>2021-11-13T09:29:50.889Z</time>
      </trkpt>
      <trkpt lat="47.494591" lon="7.765251">
        <ele>427.146266</ele>
        <time>2021-11-13T09:30:26.752Z</time>
      </trkpt>
      <trkpt lat="47.494492" lon="7.765172">
        <ele>428.965061</ele>
        <time>2021-11-13T09:30:38.880Z</time>
      </trkpt>
      <trkpt lat="47.494264" lon="7.764935">
        <ele>433.470537</ele>
        <time>2021-11-13T09:30:55.713Z</time>
      </trkpt>
      <trkpt lat="47.493931" lon="7.764617">
        <ele>439.879116</ele>
        <time>2021-11-13T09:31:28.972Z</time>
      </trkpt>
      <trkpt lat="47.493680" lon="7.764500">
        <ele>444.134587</ele>
        <time>2021-11-13T09:31:49.903Z</time>
      </trkpt>
      <trkpt lat="47.493590" lon="7.764507">
        <ele>445.591984</ele>
        <time>2021-11-13T09:31:58.467Z</time>
      </trkpt>
      <trkpt lat="47.493540" lon="7.764515">
        <ele>446.405244</ele>
        <time>2021-11-13T09:32:04.037Z</time>
      </trkpt>
      <trkpt lat="47.493263" lon="7.764681">
        <ele>451.237888</ele>
        <time>2021-11-13T09:32:24.038Z</time>
      </trkpt>
      <trkpt lat="47.493099" lon="7.764952">
        <ele>454.107208</ele>
        <time>2021-11-13T09:32:44.655Z</time>
      </trkpt>
      <trkpt lat="47.493004" lon="7.765343">
        <ele>457.072645</ele>
        <time>2021-11-13T09:33:06.693Z</time>
      </trkpt>
      <trkpt lat="47.492990" lon="7.765695">
        <ele>459.589166</ele>
        <time>2021-11-13T09:33:23.318Z</time>
      </trkpt>
      <trkpt lat="47.493008" lon="7.766273">
        <ele>463.718648</ele>
        <time>2021-11-13T09:33:49.454Z</time>
      </trkpt>
      <trkpt lat="47.493026" lon="7.766838">
        <ele>467.755450</ele>
        <time>2021-11-13T09:34:03.336Z</time>
      </trkpt>
      <trkpt lat="47.493062" lon="7.767908">
        <ele>471.807188</ele>
        <time>2021-11-13T09:34:23.152Z</time>
      </trkpt>
      <trkpt lat="47.493070" lon="7.768289">
        <ele>472.294494</ele>
        <time>2021-11-13T09:34:28.184Z</time>
      </trkpt>
      <trkpt lat="47.493059" lon="7.768825">
        <ele>472.980032</ele>
        <time>2021-11-13T09:34:33.683Z</time>
      </trkpt>
      <trkpt lat="47.493049" lon="7.768906">
        <ele>473.085297</ele>
        <time>2021-11-13T09:34:34.417Z</time>
      </trkpt>
      <trkpt lat="47.493003" lon="7.769128">
        <ele>473.382147</ele>
        <time>2021-11-13T09:34:36.933Z</time>
      </trkpt>
      <trkpt lat="47.492853" lon="7.769527">
        <ele>473.965867</ele>
        <time>2021-11-13T09:34:42.084Z</time>
      </trkpt>
      <trkpt lat="47.492753" lon="7.769701">
        <ele>474.257892</ele>
        <time>2021-11-13T09:34:45.668Z</time>
      </trkpt>
      <trkpt lat="47.492661" lon="7.769832">
        <ele>474.666024</ele>
        <time>2021-11-13T09:34:48.403Z</time>
      </trkpt>
      <trkpt lat="47.492435" lon="7.770039">
        <ele>476.308938</ele>
        <time>2021-11-13T09:34:56.520Z</time>
      </trkpt>
      <trkpt lat="47.492137" lon="7.770169">
        <ele>478.229382</ele>
        <time>2021-11-13T09:35:07.087Z</time>
      </trkpt>
      <trkpt lat="47.492020" lon="7.770184">
        <ele>478.955325</ele>
        <time>2021-11-13T09:35:10.983Z</time>
      </trkpt>
      <trkpt lat="47.491182" lon="7.770222">
        <ele>484.137847</ele>
        <time>2021-11-13T09:35:47.492Z</time>
      </trkpt>
      <trkpt lat="47.490367" lon="7.770241">
        <ele>490.030151</ele>
        <time>2021-11-13T09:36:32.160Z</time>
      </trkpt>
      <trkpt lat="47.490063" lon="7.770088">
        <ele>492.481580</ele>
        <time>2021-11-13T09:36:51.162Z</time>
      </trkpt>
      <trkpt lat="47.489882" lon="7.769861">
        <ele>494.292889</ele>
        <time>2021-11-13T09:37:02.536Z</time>
      </trkpt>
      <trkpt lat="47.489759" lon="7.769607">
        <ele>495.904963</ele>
        <time>2021-11-13T09:37:12.536Z</time>
      </trkpt>
      <trkpt lat="47.489330" lon="7.768521">
        <ele>498.055040</ele>
        <time>2021-11-13T09:37:37.173Z</time>
      </trkpt>
      <trkpt lat="47.489260" lon="7.768283">
        <ele>497.530765</ele>
        <time>2021-11-13T09:37:40.899Z</time>
      </trkpt>
      <trkpt lat="47.489217" lon="7.768114">
        <ele>497.166022</ele>
        <time>2021-11-13T09:37:42.140Z</time>
      </trkpt>
      <trkpt lat="47.489202" lon="7.768057">
        <ele>497.042471</ele>
        <time>2021-11-13T09:37:42.511Z</time>
      </trkpt>
      <trkpt lat="47.489166" lon="7.767905">
        <ele>496.717149</ele>
        <time>2021-11-13T09:37:43.865Z</time>
      </trkpt>
      <trkpt lat="47.489106" lon="7.767650">
        <ele>496.171767</ele>
        <time>2021-11-13T09:37:45.614Z</time>
      </trkpt>
      <trkpt lat="47.489047" lon="7.767376">
        <ele>495.590920</ele>
        <time>2021-11-13T09:37:47.461Z</time>
      </trkpt>
      <trkpt lat="47.488885" lon="7.766666">
        <ele>494.077306</ele>
        <time>2021-11-13T09:37:51.980Z</time>
      </trkpt>
      <trkpt lat="47.488779" lon="7.766201">
        <ele>490.756082</ele>
        <time>2021-11-13T09:37:54.843Z</time>
      </trkpt>
      <trkpt lat="47.488674" lon="7.765750">
        <ele>487.033499</ele>
        <time>2021-11-13T09:37:57.565Z</time>
      </trkpt>
      <trkpt lat="47.488592" lon="7.765070">
        <ele>481.643024</ele>
        <time>2021-11-13T09:38:01.508Z</time>
      </trkpt>
      <trkpt lat="47.488619" lon="7.763292">
        <ele>467.671727</ele>
        <time>2021-11-13T09:38:11.628Z</time>
      </trkpt>
      <trkpt lat="47.488582" lon="7.762924">
        <ele>464.718216</ele>
        <time>2021-11-13T09:38:13.755Z</time>
      </trkpt>
      <trkpt lat="47.488339" lon="7.762200">
        <ele>458.300841</ele>
        <time>2021-11-13T09:38:18.385Z</time>
      </trkpt>
      <trkpt lat="47.487890" lon="7.761232">
        <ele>449.315497</ele>
        <time>2021-11-13T09:38:25.144Z</time>
      </trkpt>
      <trkpt lat="47.487031" lon="7.759652">
        <ele>435.005950</ele>
        <time>2021-11-13T09:38:36.895Z</time>
      </trkpt>
      <trkpt lat="47.486636" lon="7.758922">
        <ele>428.767910</ele>
        <time>2021-11-13T09:38:42.370Z</time>
      </trkpt>
      <trkpt lat="47.486484" lon="7.758798">
        <ele>427.091566</ele>
        <time>2021-11-13T09:38:43.829Z</time>
      </trkpt>
      <trkpt lat="47.486303" lon="7.758588">
        <ele>424.870190</ele>
        <time>2021-11-13T09:38:45.860Z</time>
      </trkpt>
      <trkpt lat="47.485984" lon="7.758280">
        <ele>421.191422</ele>
        <time>2021-11-13T09:38:49.151Z</time>
      </trkpt>
      <trkpt lat="47.485673" lon="7.758136">
        <ele>418.044120</ele>
        <time>2021-11-13T09:38:51.985Z</time>
      </trkpt>
      <trkpt lat="47.485622" lon="7.758125">
        <ele>417.546347</ele>
        <time>2021-11-13T09:38:52.427Z</time>
      </trkpt>
      <trkpt lat="47.485584" lon="7.758116">
        <ele>417.174665</ele>
        <time>2021-11-13T09:38:52.742Z</time>
      </trkpt>
      <trkpt lat="47.485109" lon="7.758040">
        <ele>413.754050</ele>
        <time>2021-11-13T09:38:56.910Z</time>
      </trkpt>
      <trkpt lat="47.484552" lon="7.757716">
        <ele>410.075160</ele>
        <time>2021-11-13T09:39:02.194Z</time>
      </trkpt>
      <trkpt lat="47.484252" lon="7.757357">
        <ele>407.703527</ele>
        <time>2021-11-13T09:39:05.698Z</time>
      </trkpt>
      <trkpt lat="47.483892" lon="7.756713">
        <ele>404.561416</ele>
        <time>2021-11-13T09:39:12.073Z</time>
      </trkpt>
      <trkpt lat="47.483791" lon="7.756407">
        <ele>403.985639</ele>
        <time>2021-11-13T09:39:14.795Z</time>
      </trkpt>
      <trkpt lat="47.483769" lon="7.756121">
        <ele>403.498964</ele>
        <time>2021-11-13T09:39:18.086Z</time>
      </trkpt>
      <trkpt lat="47.483754" lon="7.755239">
        <ele>402.007255</ele>
        <time>2021-11-13T09:39:24.421Z</time>
      </trkpt>
      <trkpt lat="47.483795" lon="7.754908">
        <ele>401.438296</ele>
        <time>2021-11-13T09:39:26.781Z</time>
      </trkpt>
      <trkpt lat="47.483838" lon="7.754668">
        <ele>401.018499</ele>
        <time>2021-11-13T09:39:28.624Z</time>
      </trkpt>
      <trkpt lat="47.483916" lon="7.754251">
        <ele>400.284984</ele>
        <time>2021-11-13T09:39:31.557Z</time>
      </trkpt>
      <trkpt lat="47.484067" lon="7.753436">
        <ele>395.589031</ele>
        <time>2021-11-13T09:39:37.180Z</time>
      </trkpt>
      <trkpt lat="47.484428" lon="7.751559">
        <ele>384.526183</ele>
        <time>2021-11-13T09:39:48.497Z</time>
      </trkpt>
      <trkpt lat="47.484582" lon="7.750743">
        <ele>378.452987</ele>
        <time>2021-11-13T09:39:53.332Z</time>
      </trkpt>
      <trkpt lat="47.484640" lon="7.750440">
        <ele>376.195527</ele>
        <time>2021-11-13T09:39:55.130Z</time>
      </trkpt>
      <trkpt lat="47.484700" lon="7.749896">
        <ele>372.244356</ele>
        <time>2021-11-13T09:39:58.318Z</time>
      </trkpt>
      <trkpt lat="47.484572" lon="7.749580">
        <ele>369.603412</ele>
        <time>2021-11-13T09:40:00.497Z</time>
      </trkpt>
      <trkpt lat="47.484510" lon="7.749532">
        <ele>368.861182</ele>
        <time>2021-11-13T09:40:01.074Z</time>
      </trkpt>
      <trkpt lat="47.484462" lon="7.749511">
        <ele>368.330240</ele>
        <time>2021-11-13T09:40:01.507Z</time>
      </trkpt>
      <trkpt lat="47.484403" lon="7.749499">
        <ele>367.698520</ele>
        <time>2021-11-13T09:40:02.049Z</time>
      </trkpt>
      <trkpt lat="47.484374" lon="7.749499">
        <ele>367.390906</ele>
        <time>2021-11-13T09:40:02.297Z</time>
      </trkpt>
      <trkpt lat="47.484374" lon="7.749499">
        <ele>367.390906</ele>
        <time>2021-11-13T09:40:02.304Z</time>
      </trkpt>
      <trkpt lat="47.484276" lon="7.749526">
        <ele>366.356202</ele>
        <time>2021-11-13T09:40:03.188Z</time>
      </trkpt>
      <trkpt lat="47.484079" lon="7.749775">
        <ele>364.335107</ele>
        <time>2021-11-13T09:40:05.446Z</time>
      </trkpt>
      <trkpt lat="47.483821" lon="7.750312">
        <ele>360.861619</ele>
        <time>2021-11-13T09:40:09.368Z</time>
      </trkpt>
      <trkpt lat="47.483598" lon="7.750514">
        <ele>358.821946</ele>
        <time>2021-11-13T09:40:11.679Z</time>
      </trkpt>
      <trkpt lat="47.483353" lon="7.750495">
        <ele>356.908099</ele>
        <time>2021-11-13T09:40:13.822Z</time>
      </trkpt>
      <trkpt lat="47.483212" lon="7.750380">
        <ele>355.652152</ele>
        <time>2021-11-13T09:40:15.350Z</time>
      </trkpt>
      <trkpt lat="47.483118" lon="7.750142">
        <ele>354.198873</ele>
        <time>2021-11-13T09:40:17.004Z</time>
      </trkpt>
      <trkpt lat="47.483104" lon="7.749789">
        <ele>352.345969</ele>
        <time>2021-11-13T09:40:19.295Z</time>
      </trkpt>
      <trkpt lat="47.483127" lon="7.749663">
        <ele>351.803005</ele>
        <time>2021-11-13T09:40:20.037Z</time>
      </trkpt>
      <trkpt lat="47.483455" lon="7.748863">
        <ele>347.910305</ele>
        <time>2021-11-13T09:40:25.802Z</time>
      </trkpt>
      <trkpt lat="47.483653" lon="7.748384">
        <ele>345.574402</ele>
        <time>2021-11-13T09:40:29.216Z</time>
      </trkpt>
      <trkpt lat="47.483857" lon="7.747917">
        <ele>343.261105</ele>
        <time>2021-11-13T09:40:32.644Z</time>
      </trkpt>
      <trkpt lat="47.483953" lon="7.747697">
        <ele>342.171674</ele>
        <time>2021-11-13T09:40:34.255Z</time>
      </trkpt>
      <trkpt lat="47.484176" lon="7.747166">
        <ele>340.299980</ele>
        <time>2021-11-13T09:40:38.503Z</time>
      </trkpt>
      <trkpt lat="47.484266" lon="7.746897">
        <ele>339.572964</ele>
        <time>2021-11-13T09:40:40.318Z</time>
      </trkpt>
      <trkpt lat="47.484616" lon="7.745052">
        <ele>334.931515</ele>
        <time>2021-11-13T09:40:53.729Z</time>
      </trkpt>
      <trkpt lat="47.484658" lon="7.744938">
        <ele>334.551003</ele>
        <time>2021-11-13T09:40:54.471Z</time>
      </trkpt>
      <trkpt lat="47.484727" lon="7.744803">
        <ele>334.033868</ele>
        <time>2021-11-13T09:40:56.665Z</time>
      </trkpt>
      <trkpt lat="47.484772" lon="7.744741">
        <ele>333.755893</ele>
        <time>2021-11-13T09:40:57.574Z</time>
      </trkpt>
      <trkpt lat="47.485152" lon="7.744380">
        <ele>331.714360</ele>
        <time>2021-11-13T09:41:02.501Z</time>
      </trkpt>
      <trkpt lat="47.485353" lon="7.744189">
        <ele>330.634415</ele>
        <time>2021-11-13T09:41:04.670Z</time>
      </trkpt>
      <trkpt lat="47.485726" lon="7.743655">
        <ele>328.288071</ele>
        <time>2021-11-13T09:41:09.504Z</time>
      </trkpt>
      <trkpt lat="47.486081" lon="7.742579">
        <ele>324.005361</ele>
        <time>2021-11-13T09:41:16.988Z</time>
      </trkpt>
      <trkpt lat="47.486170" lon="7.742275">
        <ele>322.693343</ele>
        <time>2021-11-13T09:41:18.947Z</time>
      </trkpt>
      <trkpt lat="47.486221" lon="7.742103">
        <ele>321.949508</ele>
        <time>2021-11-13T09:41:20.252Z</time>
      </trkpt>
      <trkpt lat="47.486335" lon="7.741716">
        <ele>320.277643</ele>
        <time>2021-11-13T09:41:22.802Z</time>
      </trkpt>
      <trkpt lat="47.486413" lon="7.741401">
        <ele>318.949083</ele>
        <time>2021-11-13T09:41:24.852Z</time>
      </trkpt>
      <trkpt lat="47.486458" lon="7.741135">
        <ele>317.863174</ele>
        <time>2021-11-13T09:41:26.598Z</time>
      </trkpt>
      <trkpt lat="47.486469" lon="7.741035">
        <ele>317.461946</ele>
        <time>2021-11-13T09:41:27.228Z</time>
      </trkpt>
      <trkpt lat="47.486493" lon="7.740755">
        <ele>316.344219</ele>
        <time>2021-11-13T09:41:28.930Z</time>
      </trkpt>
      <trkpt lat="47.486498" lon="7.740674">
        <ele>316.148382</ele>
        <time>2021-11-13T09:41:29.511Z</time>
      </trkpt>
      <trkpt lat="47.486546" lon="7.739919">
        <ele>315.307312</ele>
        <time>2021-11-13T09:41:34.581Z</time>
      </trkpt>
      <trkpt lat="47.486574" lon="7.739389">
        <ele>314.717695</ele>
        <time>2021-11-13T09:41:38.478Z</time>
      </trkpt>
      <trkpt lat="47.486588" lon="7.739167">
        <ele>314.470405</ele>
        <time>2021-11-13T09:41:40.212Z</time>
      </trkpt>
      <trkpt lat="47.486599" lon="7.738994">
        <ele>314.277683</ele>
        <time>2021-11-13T09:41:41.915Z</time>
      </trkpt>
      <trkpt lat="47.486652" lon="7.738745">
        <ele>313.988141</ele>
        <time>2021-11-13T09:41:44.813Z</time>
      </trkpt>
      <trkpt lat="47.486688" lon="7.738613">
        <ele>313.830267</ele>
        <time>2021-11-13T09:41:46.074Z</time>
      </trkpt>
      <trkpt lat="47.486696" lon="7.738489">
        <ele>313.692114</ele>
        <time>2021-11-13T09:41:48.175Z</time>
      </trkpt>
      <trkpt lat="47.486689" lon="7.738358">
        <ele>313.546368</ele>
        <time>2021-11-13T09:41:49.961Z</time>
      </trkpt>
      <trkpt lat="47.486676" lon="7.738293">
        <ele>313.471186</ele>
        <time>2021-11-13T09:41:50.832Z</time>
      </trkpt>
      <trkpt lat="47.486621" lon="7.738169">
        <ele>313.306679</ele>
        <time>2021-11-13T09:41:52.479Z</time>
      </trkpt>
      <trkpt lat="47.486495" lon="7.737981">
        <ele>313.418914</ele>
        <time>2021-11-13T09:41:56.610Z</time>
      </trkpt>
      <trkpt lat="47.486384" lon="7.737805">
        <ele>313.618140</ele>
        <time>2021-11-13T09:41:59.584Z</time>
      </trkpt>
      <trkpt lat="47.486354" lon="7.737753">
        <ele>313.674722</ele>
        <time>2021-11-13T09:42:00.328Z</time>
      </trkpt>
      <trkpt lat="47.486314" lon="7.737686">
        <ele>313.748706</ele>
        <time>2021-11-13T09:42:01.810Z</time>
      </trkpt>
      <trkpt lat="47.486287" lon="7.737642">
        <ele>313.797891</ele>
        <time>2021-11-13T09:42:03.065Z</time>
      </trkpt>
      <trkpt lat="47.486087" lon="7.737329">
        <ele>314.154374</ele>
        <time>2021-11-13T09:42:08.597Z</time>
      </trkpt>
      <trkpt lat="47.485976" lon="7.737217">
        <ele>314.318898</ele>
        <time>2021-11-13T09:42:11.860Z</time>
      </trkpt>
      <trkpt lat="47.485875" lon="7.737156">
        <ele>314.452489</ele>
        <time>2021-11-13T09:42:14.027Z</time>
      </trkpt>
      <trkpt lat="47.485806" lon="7.737111">
        <ele>314.544829</ele>
        <time>2021-11-13T09:42:15.121Z</time>
      </trkpt>
      <trkpt lat="47.485750" lon="7.737070">
        <ele>314.621342</ele>
        <time>2021-11-13T09:42:16.271Z</time>
      </trkpt>
      <trkpt lat="47.485750" lon="7.737070">
        <ele>314.621342</ele>
        <time>2021-11-13T09:42:16.349Z</time>
      </trkpt>
      <trkpt lat="47.485696" lon="7.737158">
        <ele>314.719712</ele>
        <time>2021-11-13T09:42:18.188Z</time>
      </trkpt>
      <trkpt lat="47.485631" lon="7.737265">
        <ele>314.838779</ele>
        <time>2021-11-13T09:42:20.274Z</time>
      </trkpt>
      <trkpt lat="47.485384" lon="7.737678">
        <ele>315.295188</ele>
        <time>2021-11-13T09:42:27.514Z</time>
      </trkpt>
      <trkpt lat="47.485202" lon="7.737978">
        <ele>315.476230</ele>
        <time>2021-11-13T09:42:32.485Z</time>
      </trkpt>
      <trkpt lat="47.485121" lon="7.738124">
        <ele>315.500559</ele>
        <time>2021-11-13T09:42:34.852Z</time>
      </trkpt>
      <trkpt lat="47.485088" lon="7.738190">
        <ele>315.511133</ele>
        <time>2021-11-13T09:42:35.550Z</time>
      </trkpt>
      <trkpt lat="47.485067" lon="7.738278">
        <ele>315.523153</ele>
        <time>2021-11-13T09:42:36.554Z</time>
      </trkpt>
      <trkpt lat="47.485045" lon="7.738427">
        <ele>315.542796</ele>
        <time>2021-11-13T09:42:38.395Z</time>
      </trkpt>
      <trkpt lat="47.485032" lon="7.738535">
        <ele>315.556925</ele>
        <time>2021-11-13T09:42:39.893Z</time>
      </trkpt>
      <trkpt lat="47.485014" lon="7.738715">
        <ele>315.580361</ele>
        <time>2021-11-13T09:42:41.602Z</time>
      </trkpt>
      <trkpt lat="47.484997" lon="7.738871">
        <ele>315.600712</ele>
        <time>2021-11-13T09:42:43.227Z</time>
      </trkpt>
      <trkpt lat="47.484807" lon="7.739866">
        <ele>315.733881</ele>
        <time>2021-11-13T09:42:52.609Z</time>
      </trkpt>
      <trkpt lat="47.484365" lon="7.740878">
        <ele>316.057437</ele>
        <time>2021-11-13T09:43:04.948Z</time>
      </trkpt>
      <trkpt lat="47.484268" lon="7.741010">
        <ele>316.125625</ele>
        <time>2021-11-13T09:43:07.499Z</time>
      </trkpt>
      <trkpt lat="47.484154" lon="7.741142">
        <ele>316.200525</ele>
        <time>2021-11-13T09:43:10.248Z</time>
      </trkpt>
      <trkpt lat="47.483946" lon="7.741362">
        <ele>316.332817</ele>
        <time>2021-11-13T09:43:14.832Z</time>
      </trkpt>
      <trkpt lat="47.483828" lon="7.741475">
        <ele>316.405544</ele>
        <time>2021-11-13T09:43:17.406Z</time>
      </trkpt>
      <trkpt lat="47.483275" lon="7.742050">
        <ele>316.789356</ele>
        <time>2021-11-13T09:43:29.015Z</time>
      </trkpt>
      <trkpt lat="47.482927" lon="7.742421">
        <ele>317.235877</ele>
        <time>2021-11-13T09:43:36.971Z</time>
      </trkpt>
      <trkpt lat="47.482889" lon="7.742461">
        <ele>317.284425</ele>
        <time>2021-11-13T09:43:37.656Z</time>
      </trkpt>
      <trkpt lat="47.482599" lon="7.742771">
        <ele>317.656870</ele>
        <time>2021-11-13T09:43:44.268Z</time>
      </trkpt>
      <trkpt lat="47.482327" lon="7.743066">
        <ele>318.007954</ele>
        <time>2021-11-13T09:43:50.739Z</time>
      </trkpt>
      <trkpt lat="47.482182" lon="7.743222">
        <ele>318.194590</ele>
        <time>2021-11-13T09:43:53.974Z</time>
      </trkpt>
      <trkpt lat="47.481963" lon="7.742814">
        <ele>318.561168</ele>
        <time>2021-11-13T09:44:00.961Z</time>
      </trkpt>
      <trkpt lat="47.481898" lon="7.742719">
        <ele>318.693628</ele>
        <time>2021-11-13T09:44:03.063Z</time>
      </trkpt>
      <trkpt lat="47.481698" lon="7.742446">
        <ele>319.146912</ele>
        <time>2021-11-13T09:44:08.545Z</time>
      </trkpt>
      <trkpt lat="47.481605" lon="7.742324">
        <ele>319.353955</ele>
        <time>2021-11-13T09:44:11.663Z</time>
      </trkpt>
      <trkpt lat="47.481177" lon="7.741735">
        <ele>320.327642</ele>
        <time>2021-11-13T09:44:24.175Z</time>
      </trkpt>
      <trkpt lat="47.480648" lon="7.741012">
        <ele>321.527286</ele>
        <time>2021-11-13T09:44:40.470Z</time>
      </trkpt>
      <trkpt lat="47.480591" lon="7.740959">
        <ele>321.622297</ele>
        <time>2021-11-13T09:44:42.423Z</time>
      </trkpt>
      <trkpt lat="47.480539" lon="7.740961">
        <ele>321.678717</ele>
        <time>2021-11-13T09:44:43.192Z</time>
      </trkpt>
      <trkpt lat="47.480294" lon="7.741119">
        <ele>321.968594</ele>
        <time>2021-11-13T09:44:48.716Z</time>
      </trkpt>
      <trkpt lat="47.480104" lon="7.741241">
        <ele>322.193241</ele>
        <time>2021-11-13T09:44:52.699Z</time>
      </trkpt>
      <trkpt lat="47.479963" lon="7.741350">
        <ele>322.365788</ele>
        <time>2021-11-13T09:44:55.957Z</time>
      </trkpt>
      <trkpt lat="47.479843" lon="7.741440">
        <ele>322.511709</ele>
        <time>2021-11-13T09:44:58.399Z</time>
      </trkpt>
      <trkpt lat="47.479629" lon="7.741696">
        <ele>322.810191</ele>
        <time>2021-11-13T09:45:03.666Z</time>
      </trkpt>
      <trkpt lat="47.479130" lon="7.742380">
        <ele>323.550953</ele>
        <time>2021-11-13T09:45:14.908Z</time>
      </trkpt>
      <trkpt lat="47.479105" lon="7.742414">
        <ele>323.603858</ele>
        <time>2021-11-13T09:45:15.586Z</time>
      </trkpt>
      <trkpt lat="47.478949" lon="7.742644">
        <ele>323.946982</ele>
        <time>2021-11-13T09:45:19.624Z</time>
      </trkpt>
      <trkpt lat="47.478895" lon="7.742714">
        <ele>324.058839</ele>
        <time>2021-11-13T09:45:20.916Z</time>
      </trkpt>
      <trkpt lat="47.478848" lon="7.742778">
        <ele>324.158359</ele>
        <time>2021-11-13T09:45:22.131Z</time>
      </trkpt>
      <trkpt lat="47.478747" lon="7.742916">
        <ele>324.372555</ele>
        <time>2021-11-13T09:45:24.829Z</time>
      </trkpt>
      <trkpt lat="47.478673" lon="7.743018">
        <ele>324.530129</ele>
        <time>2021-11-13T09:45:26.990Z</time>
      </trkpt>
      <trkpt lat="47.478481" lon="7.743277">
        <ele>324.934939</ele>
        <time>2021-11-13T09:45:32.252Z</time>
      </trkpt>
      <trkpt lat="47.478402" lon="7.743393">
        <ele>325.108349</ele>
        <time>2021-11-13T09:45:34.700Z</time>
      </trkpt>
      <trkpt lat="47.478238" lon="7.743706">
        <ele>325.525394</ele>
        <time>2021-11-13T09:45:40.462Z</time>
      </trkpt>
      <trkpt lat="47.478130" lon="7.743970">
        <ele>325.850354</ele>
        <time>2021-11-13T09:45:45.499Z</time>
      </trkpt>
      <trkpt lat="47.478089" lon="7.744093">
        <ele>325.994774</ele>
        <time>2021-11-13T09:45:47.568Z</time>
      </trkpt>
      <trkpt lat="47.478062" lon="7.744180">
        <ele>326.095584</ele>
        <time>2021-11-13T09:45:48.985Z</time>
      </trkpt>
      <trkpt lat="47.478021" lon="7.744260">
        <ele>326.201308</ele>
        <time>2021-11-13T09:45:50.736Z</time>
      </trkpt>
      <trkpt lat="47.477976" lon="7.744460">
        <ele>326.432774</ele>
        <time>2021-11-13T09:45:54.137Z</time>
      </trkpt>
      <trkpt lat="47.477881" lon="7.744927">
        <ele>327.007486</ele>
        <time>2021-11-13T09:46:02.114Z</time>
      </trkpt>
      <trkpt lat="47.477870" lon="7.744978">
        <ele>327.070572</ele>
        <time>2021-11-13T09:46:03.179Z</time>
      </trkpt>
      <trkpt lat="47.477849" lon="7.745070">
        <ele>327.185003</ele>
        <time>2021-11-13T09:46:04.816Z</time>
      </trkpt>
      <trkpt lat="47.477828" lon="7.745168">
        <ele>327.306155</ele>
        <time>2021-11-13T09:46:06.307Z</time>
      </trkpt>
      <trkpt lat="47.477754" lon="7.745547">
        <ele>327.771043</ele>
        <time>2021-11-13T09:46:12.885Z</time>
      </trkpt>
      <trkpt lat="47.477739" lon="7.745618">
        <ele>327.858704</ele>
        <time>2021-11-13T09:46:14.013Z</time>
      </trkpt>
      <trkpt lat="47.477716" lon="7.745732">
        <ele>327.998903</ele>
        <time>2021-11-13T09:46:15.627Z</time>
      </trkpt>
      <trkpt lat="47.477702" lon="7.745803">
        <ele>328.086059</ele>
        <time>2021-11-13T09:46:16.721Z</time>
      </trkpt>
      <trkpt lat="47.477673" lon="7.745978">
        <ele>328.298393</ele>
        <time>2021-11-13T09:46:19.466Z</time>
      </trkpt>
      <trkpt lat="47.477600" lon="7.746461">
        <ele>328.881634</ele>
        <time>2021-11-13T09:46:26.319Z</time>
      </trkpt>
      <trkpt lat="47.477602" lon="7.746541">
        <ele>328.975973</ele>
        <time>2021-11-13T09:46:27.662Z</time>
      </trkpt>
      <trkpt lat="47.477518" lon="7.746981">
        <ele>329.487400</ele>
        <time>2021-11-13T09:46:33.229Z</time>
      </trkpt>
      <trkpt lat="47.477485" lon="7.747133">
        <ele>329.529181</ele>
        <time>2021-11-13T09:46:35.479Z</time>
      </trkpt>
      <trkpt lat="47.477447" lon="7.747309">
        <ele>329.577535</ele>
        <time>2021-11-13T09:46:37.296Z</time>
      </trkpt>
      <trkpt lat="47.477430" lon="7.747396">
        <ele>329.601236</ele>
        <time>2021-11-13T09:46:38.434Z</time>
      </trkpt>
      <trkpt lat="47.477359" lon="7.747755">
        <ele>329.699128</ele>
        <time>2021-11-13T09:46:42.997Z</time>
      </trkpt>
      <trkpt lat="47.477344" lon="7.747828">
        <ele>329.719096</ele>
        <time>2021-11-13T09:46:43.643Z</time>
      </trkpt>
      <trkpt lat="47.477197" lon="7.748413">
        <ele>329.882434</ele>
        <time>2021-11-13T09:46:50.154Z</time>
      </trkpt>
      <trkpt lat="47.476699" lon="7.749626">
        <ele>330.286899</ele>
        <time>2021-11-13T09:47:04.394Z</time>
      </trkpt>
      <trkpt lat="47.476287" lon="7.750465">
        <ele>330.673511</ele>
        <time>2021-11-13T09:47:16.478Z</time>
      </trkpt>
      <trkpt lat="47.476116" lon="7.750723">
        <ele>330.808221</ele>
        <time>2021-11-13T09:47:20.726Z</time>
      </trkpt>
      <trkpt lat="47.476077" lon="7.750784">
        <ele>330.839524</ele>
        <time>2021-11-13T09:47:21.640Z</time>
      </trkpt>
      <trkpt lat="47.475914" lon="7.750989">
        <ele>330.957522</ele>
        <time>2021-11-13T09:47:25.645Z</time>
      </trkpt>
      <trkpt lat="47.475761" lon="7.751164">
        <ele>331.064189</ele>
        <time>2021-11-13T09:47:28.862Z</time>
      </trkpt>
      <trkpt lat="47.475475" lon="7.751591">
        <ele>331.369837</ele>
        <time>2021-11-13T09:47:36.331Z</time>
      </trkpt>
      <trkpt lat="47.475425" lon="7.751674">
        <ele>331.439405</ele>
        <time>2021-11-13T09:47:38.034Z</time>
      </trkpt>
      <trkpt lat="47.475261" lon="7.751996">
        <ele>331.691682</ele>
        <time>2021-11-13T09:47:42.763Z</time>
      </trkpt>
      <trkpt lat="47.475233" lon="7.752051">
        <ele>331.734766</ele>
        <time>2021-11-13T09:47:43.851Z</time>
      </trkpt>
      <trkpt lat="47.475199" lon="7.752117">
        <ele>331.786691</ele>
        <time>2021-11-13T09:47:45.024Z</time>
      </trkpt>
      <trkpt lat="47.475086" lon="7.752297">
        <ele>331.940405</ele>
        <time>2021-11-13T09:47:47.920Z</time>
      </trkpt>
      <trkpt lat="47.475038" lon="7.752374">
        <ele>332.005948</ele>
        <time>2021-11-13T09:47:49.310Z</time>
      </trkpt>
      <trkpt lat="47.475005" lon="7.752413">
        <ele>332.045048</ele>
        <time>2021-11-13T09:47:50.461Z</time>
      </trkpt>
      <trkpt lat="47.474768" lon="7.752634">
        <ele>332.304391</ele>
        <time>2021-11-13T09:47:55.659Z</time>
      </trkpt>
      <trkpt lat="47.474213" lon="7.752969">
        <ele>332.860215</ele>
        <time>2021-11-13T09:48:06.501Z</time>
      </trkpt>
      <trkpt lat="47.473881" lon="7.753376">
        <ele>333.273466</ele>
        <time>2021-11-13T09:48:13.781Z</time>
      </trkpt>
      <trkpt lat="47.473818" lon="7.753486">
        <ele>333.366870</ele>
        <time>2021-11-13T09:48:15.618Z</time>
      </trkpt>
      <trkpt lat="47.473818" lon="7.753486">
        <ele>333.366870</ele>
        <time>2021-11-13T09:48:15.671Z</time>
      </trkpt>
      <trkpt lat="47.473676" lon="7.753791">
        <ele>333.606798</ele>
        <time>2021-11-13T09:48:20.272Z</time>
      </trkpt>
      <trkpt lat="47.473295" lon="7.754642">
        <ele>334.268083</ele>
        <time>2021-11-13T09:48:33.719Z</time>
      </trkpt>
      <trkpt lat="47.473177" lon="7.754905">
        <ele>334.472586</ele>
        <time>2021-11-13T09:48:37.910Z</time>
      </trkpt>
      <trkpt lat="47.472840" lon="7.755695">
        <ele>335.260069</ele>
        <time>2021-11-13T09:48:49.542Z</time>
      </trkpt>
      <trkpt lat="47.472767" lon="7.755867">
        <ele>335.437706</ele>
        <time>2021-11-13T09:48:51.914Z</time>
      </trkpt>
      <trkpt lat="47.472705" lon="7.756048">
        <ele>335.615184</ele>
        <time>2021-11-13T09:48:54.505Z</time>
      </trkpt>
      <trkpt lat="47.472674" lon="7.756164">
        <ele>335.724285</ele>
        <time>2021-11-13T09:48:56.016Z</time>
      </trkpt>
      <trkpt lat="47.472582" lon="7.756520">
        <ele>336.057641</ele>
        <time>2021-11-13T09:49:01.015Z</time>
      </trkpt>
      <trkpt lat="47.472546" lon="7.756663">
        <ele>336.191110</ele>
        <time>2021-11-13T09:49:03.171Z</time>
      </trkpt>
      <trkpt lat="47.472456" lon="7.757206">
        <ele>336.680115</ele>
        <time>2021-11-13T09:49:11.527Z</time>
      </trkpt>
      <trkpt lat="47.472395" lon="7.757551">
        <ele>337.005719</ele>
        <time>2021-11-13T09:49:17.100Z</time>
      </trkpt>
      <trkpt lat="47.472362" lon="7.757684">
        <ele>337.145418</ele>
        <time>2021-11-13T09:49:19.119Z</time>
      </trkpt>
      <trkpt lat="47.472319" lon="7.757816">
        <ele>337.289901</ele>
        <time>2021-11-13T09:49:21.492Z</time>
      </trkpt>
      <trkpt lat="47.472238" lon="7.757977">
        <ele>337.487800</ele>
        <time>2021-11-13T09:49:24.598Z</time>
      </trkpt>
      <trkpt lat="47.472159" lon="7.758094">
        <ele>337.650864</ele>
        <time>2021-11-13T09:49:26.993Z</time>
      </trkpt>
      <trkpt lat="47.472073" lon="7.758206">
        <ele>337.818001</ele>
        <time>2021-11-13T09:49:29.598Z</time>
      </trkpt>
      <trkpt lat="47.471915" lon="7.758366">
        <ele>338.097309</ele>
        <time>2021-11-13T09:49:33.621Z</time>
      </trkpt>
      <trkpt lat="47.471824" lon="7.758458">
        <ele>338.258092</ele>
        <time>2021-11-13T09:49:35.954Z</time>
      </trkpt>
      <trkpt lat="47.471717" lon="7.758570">
        <ele>338.449297</ele>
        <time>2021-11-13T09:49:38.330Z</time>
      </trkpt>
      <trkpt lat="47.471671" lon="7.758643">
        <ele>338.547705</ele>
        <time>2021-11-13T09:49:39.952Z</time>
      </trkpt>
      <trkpt lat="47.471508" lon="7.759003">
        <ele>338.974961</ele>
        <time>2021-11-13T09:49:45.559Z</time>
      </trkpt>
      <trkpt lat="47.471457" lon="7.759151">
        <ele>339.138766</ele>
        <time>2021-11-13T09:49:47.869Z</time>
      </trkpt>
      <trkpt lat="47.471350" lon="7.759462">
        <ele>339.482867</ele>
        <time>2021-11-13T09:49:52.328Z</time>
      </trkpt>
      <trkpt lat="47.471272" lon="7.759692">
        <ele>339.575728</ele>
        <time>2021-11-13T09:49:55.760Z</time>
      </trkpt>
      <trkpt lat="47.471202" lon="7.759897">
        <ele>339.642651</ele>
        <time>2021-11-13T09:49:58.512Z</time>
      </trkpt>
      <trkpt lat="47.471129" lon="7.760229">
        <ele>339.744379</ele>
        <time>2021-11-13T09:50:02.842Z</time>
      </trkpt>
      <trkpt lat="47.471136" lon="7.760336">
        <ele>339.775703</ele>
        <time>2021-11-13T09:50:03.909Z</time>
      </trkpt>
      <trkpt lat="47.471180" lon="7.760462">
        <ele>339.817027</ele>
        <time>2021-11-13T09:50:05.349Z</time>
      </trkpt>
      <trkpt lat="47.471314" lon="7.760905">
        <ele>339.958444</ele>
        <time>2021-11-13T09:50:10.644Z</time>
      </trkpt>
      <trkpt lat="47.471311" lon="7.760992">
        <ele>339.983827</ele>
        <time>2021-11-13T09:50:11.436Z</time>
      </trkpt>
      <trkpt lat="47.471311" lon="7.760992">
        <ele>339.983827</ele>
        <time>2021-11-13T09:50:11.444Z</time>
      </trkpt>
      <trkpt lat="47.471311" lon="7.760992">
        <ele>339.983827</ele>
        <time>2021-11-13T09:50:11.546Z</time>
      </trkpt>
      <trkpt lat="47.471270" lon="7.761194">
        <ele>340.045283</ele>
        <time>2021-11-13T09:50:14.081Z</time>
      </trkpt>
      <trkpt lat="47.471113" lon="7.761649">
        <ele>340.194137</ele>
        <time>2021-11-13T09:50:19.125Z</time>
      </trkpt>
      <trkpt lat="47.471053" lon="7.761797">
        <ele>340.244423</ele>
        <time>2021-11-13T09:50:20.632Z</time>
      </trkpt>
      <trkpt lat="47.470716" lon="7.762408">
        <ele>340.535273</ele>
        <time>2021-11-13T09:50:28.845Z</time>
      </trkpt>
      <trkpt lat="47.470687" lon="7.762459">
        <ele>340.560913</ele>
        <time>2021-11-13T09:50:29.785Z</time>
      </trkpt>
      <trkpt lat="47.470461" lon="7.763125">
        <ele>340.847621</ele>
        <time>2021-11-13T09:50:37.905Z</time>
      </trkpt>
      <trkpt lat="47.470433" lon="7.763337">
        <ele>340.930727</ele>
        <time>2021-11-13T09:50:40.716Z</time>
      </trkpt>
      <trkpt lat="47.470406" lon="7.763555">
        <ele>341.015995</ele>
        <time>2021-11-13T09:50:43.702Z</time>
      </trkpt>
      <trkpt lat="47.470377" lon="7.763914">
        <ele>341.155098</ele>
        <time>2021-11-13T09:50:48.733Z</time>
      </trkpt>
      <trkpt lat="47.470330" lon="7.764383">
        <ele>341.279850</ele>
        <time>2021-11-13T09:50:54.878Z</time>
      </trkpt>
      <trkpt lat="47.470323" lon="7.764439">
        <ele>341.259945</ele>
        <time>2021-11-13T09:50:56.130Z</time>
      </trkpt>
      <trkpt lat="47.470230" lon="7.765246">
        <ele>340.973815</ele>
        <time>2021-11-13T09:51:04.212Z</time>
      </trkpt>
      <trkpt lat="47.470213" lon="7.765394">
        <ele>340.921345</ele>
        <time>2021-11-13T09:51:05.567Z</time>
      </trkpt>
      <trkpt lat="47.470203" lon="7.765481">
        <ele>340.890500</ele>
        <time>2021-11-13T09:51:07.126Z</time>
      </trkpt>
      <trkpt lat="47.470162" lon="7.765840">
        <ele>340.763245</ele>
        <time>2021-11-13T09:51:09.847Z</time>
      </trkpt>
      <trkpt lat="47.470139" lon="7.766059">
        <ele>340.685782</ele>
        <time>2021-11-13T09:51:12.209Z</time>
      </trkpt>
      <trkpt lat="47.470117" lon="7.766218">
        <ele>340.629056</ele>
        <time>2021-11-13T09:51:13.311Z</time>
      </trkpt>
      <trkpt lat="47.470126" lon="7.766402">
        <ele>340.564577</ele>
        <time>2021-11-13T09:51:14.697Z</time>
      </trkpt>
      <trkpt lat="47.470144" lon="7.766471">
        <ele>340.538727</ele>
        <time>2021-11-13T09:51:15.523Z</time>
      </trkpt>
      <trkpt lat="47.470127" lon="7.766502">
        <ele>340.524774</ele>
        <time>2021-11-13T09:51:16.198Z</time>
      </trkpt>
      <trkpt lat="47.470117" lon="7.766539">
        <ele>340.510847</ele>
        <time>2021-11-13T09:51:16.618Z</time>
      </trkpt>
      <trkpt lat="47.470114" lon="7.766579">
        <ele>340.496780</ele>
        <time>2021-11-13T09:51:16.949Z</time>
      </trkpt>
      <trkpt lat="47.470118" lon="7.766618">
        <ele>340.482993</ele>
        <time>2021-11-13T09:51:17.244Z</time>
      </trkpt>
      <trkpt lat="47.470132" lon="7.766659">
        <ele>340.466938</ele>
        <time>2021-11-13T09:51:17.525Z</time>
      </trkpt>
      <trkpt lat="47.470153" lon="7.766693">
        <ele>340.450841</ele>
        <time>2021-11-13T09:51:17.856Z</time>
      </trkpt>
      <trkpt lat="47.470181" lon="7.766714">
        <ele>340.434609</ele>
        <time>2021-11-13T09:51:18.224Z</time>
      </trkpt>
      <trkpt lat="47.470212" lon="7.766722">
        <ele>340.418338</ele>
        <time>2021-11-13T09:51:18.584Z</time>
      </trkpt>
      <trkpt lat="47.470242" lon="7.766716">
        <ele>340.402685</ele>
        <time>2021-11-13T09:51:18.942Z</time>
      </trkpt>
      <trkpt lat="47.470289" lon="7.766725">
        <ele>340.378181</ele>
        <time>2021-11-13T09:51:19.446Z</time>
      </trkpt>
      <trkpt lat="47.470360" lon="7.766755">
        <ele>340.326605</ele>
        <time>2021-11-13T09:51:20.820Z</time>
      </trkpt>
      <trkpt lat="47.470452" lon="7.766777">
        <ele>340.261107</ele>
        <time>2021-11-13T09:51:21.928Z</time>
      </trkpt>
      <trkpt lat="47.470478" lon="7.766796">
        <ele>340.240726</ele>
        <time>2021-11-13T09:51:22.188Z</time>
      </trkpt>
      <trkpt lat="47.470652" lon="7.766915">
        <ele>340.106002</ele>
        <time>2021-11-13T09:51:24.503Z</time>
      </trkpt>
      <trkpt lat="47.471145" lon="7.767252">
        <ele>339.724318</ele>
        <time>2021-11-13T09:51:31.103Z</time>
      </trkpt>
      <trkpt lat="47.470979" lon="7.768192">
        <ele>339.262763</ele>
        <time>2021-11-13T09:51:42.936Z</time>
      </trkpt>
      <trkpt lat="47.470868" lon="7.769055">
        <ele>339.570625</ele>
        <time>2021-11-13T09:51:56.076Z</time>
      </trkpt>
      <trkpt lat="47.470854" lon="7.769162">
        <ele>339.659072</ele>
        <time>2021-11-13T09:51:58.328Z</time>
      </trkpt>
      <trkpt lat="47.470712" lon="7.770050">
        <ele>340.399619</ele>
        <time>2021-11-13T09:52:14.550Z</time>
      </trkpt>
      <trkpt lat="47.470499" lon="7.771171">
        <ele>341.336431</ele>
        <time>2021-11-13T09:52:35.664Z</time>
      </trkpt>
      <trkpt lat="47.470261" lon="7.772145">
        <ele>342.081311</ele>
        <time>2021-11-13T09:52:52.920Z</time>
      </trkpt>
      <trkpt lat="47.470122" lon="7.772830">
        <ele>342.595695</ele>
        <time>2021-11-13T09:53:04.280Z</time>
      </trkpt>
      <trkpt lat="47.470120" lon="7.772872">
        <ele>342.625977</ele>
        <time>2021-11-13T09:53:05.191Z</time>
      </trkpt>
      <trkpt lat="47.470034" lon="7.774910">
        <ele>344.574117</ele>
        <time>2021-11-13T09:53:38.395Z</time>
      </trkpt>
      <trkpt lat="47.470028" lon="7.775062">
        <ele>344.741438</ele>
        <time>2021-11-13T09:53:41.456Z</time>
      </trkpt>
      <trkpt lat="47.469958" lon="7.776819">
        <ele>346.892454</ele>
        <time>2021-11-13T09:54:15.692Z</time>
      </trkpt>
      <trkpt lat="47.469866" lon="7.778066">
        <ele>348.799798</ele>
        <time>2021-11-13T09:54:41.457Z</time>
      </trkpt>
      <trkpt lat="47.469631" lon="7.779469">
        <ele>350.631761</ele>
        <time>2021-11-13T09:55:09.193Z</time>
      </trkpt>
      <trkpt lat="47.469352" lon="7.781141">
        <ele>352.111899</ele>
        <time>2021-11-13T09:55:38.216Z</time>
      </trkpt>
      <trkpt lat="47.469211" lon="7.782028">
        <ele>352.443513</ele>
        <time>2021-11-13T09:55:52.373Z</time>
      </trkpt>
      <trkpt lat="47.468831" lon="7.784400">
        <ele>352.178795</ele>
        <time>2021-11-13T09:56:25.027Z</time>
      </trkpt>
      <trkpt lat="47.468800" lon="7.784631">
        <ele>351.971233</ele>
        <time>2021-11-13T09:56:27.754Z</time>
      </trkpt>
      <trkpt lat="47.469176" lon="7.784763">
        <ele>351.467400</ele>
        <time>2021-11-13T09:56:32.116Z</time>
      </trkpt>
      <trkpt lat="47.469364" lon="7.784822">
        <ele>351.216836</ele>
        <time>2021-11-13T09:56:34.248Z</time>
      </trkpt>
      <trkpt lat="47.469637" lon="7.784915">
        <ele>350.851591</ele>
        <time>2021-11-13T09:56:37.416Z</time>
      </trkpt>
      <trkpt lat="47.469901" lon="7.785007">
        <ele>350.497974</ele>
        <time>2021-11-13T09:56:40.590Z</time>
      </trkpt>
      <trkpt lat="47.470008" lon="7.785038">
        <ele>350.355821</ele>
        <time>2021-11-13T09:56:41.786Z</time>
      </trkpt>
      <trkpt lat="47.470007" lon="7.785071">
        <ele>350.326708</ele>
        <time>2021-11-13T09:56:42.033Z</time>
      </trkpt>
      <trkpt lat="47.470028" lon="7.785128">
        <ele>350.269496</ele>
        <time>2021-11-13T09:56:42.576Z</time>
      </trkpt>
      <trkpt lat="47.470053" lon="7.785149">
        <ele>350.232014</ele>
        <time>2021-11-13T09:56:42.920Z</time>
      </trkpt>
      <trkpt lat="47.470075" lon="7.785152">
        <ele>350.203209</ele>
        <time>2021-11-13T09:56:43.176Z</time>
      </trkpt>
      <trkpt lat="47.470127" lon="7.785098">
        <ele>350.120377</ele>
        <time>2021-11-13T09:56:43.965Z</time>
      </trkpt>
      <trkpt lat="47.470132" lon="7.785075">
        <ele>350.100335</ele>
        <time>2021-11-13T09:56:44.144Z</time>
      </trkpt>
      <trkpt lat="47.470634" lon="7.785245">
        <ele>349.926476</ele>
        <time>2021-11-13T09:56:49.956Z</time>
      </trkpt>
      <trkpt lat="47.470959" lon="7.785356">
        <ele>349.813871</ele>
        <time>2021-11-13T09:56:54.017Z</time>
      </trkpt>
      <trkpt lat="47.471127" lon="7.785436">
        <ele>349.754288</ele>
        <time>2021-11-13T09:56:56.424Z</time>
      </trkpt>
      <trkpt lat="47.471125" lon="7.785472">
        <ele>349.746045</ele>
        <time>2021-11-13T09:56:56.844Z</time>
      </trkpt>
      <trkpt lat="47.471152" lon="7.785543">
        <ele>349.727455</ele>
        <time>2021-11-13T09:56:57.590Z</time>
      </trkpt>
      <trkpt lat="47.471176" lon="7.785560">
        <ele>349.718471</ele>
        <time>2021-11-13T09:56:57.984Z</time>
      </trkpt>
      <trkpt lat="47.470848" lon="7.787192">
        <ele>350.147380</ele>
        <time>2021-11-13T09:57:19.351Z</time>
      </trkpt>
      <trkpt lat="47.470802" lon="7.787415">
        <ele>350.359990</ele>
        <time>2021-11-13T09:57:22.576Z</time>
      </trkpt>
      <trkpt lat="47.470785" lon="7.787490">
        <ele>350.432125</ele>
        <time>2021-11-13T09:57:23.818Z</time>
      </trkpt>
      <trkpt lat="47.470698" lon="7.788038">
        <ele>350.945441</ele>
        <time>2021-11-13T09:57:31.577Z</time>
      </trkpt>
      <trkpt lat="47.470614" lon="7.788952">
        <ele>351.786584</ele>
        <time>2021-11-13T09:57:44.739Z</time>
      </trkpt>
      <trkpt lat="47.470591" lon="7.791493">
        <ele>354.135313</ele>
        <time>2021-11-13T09:58:20.545Z</time>
      </trkpt>
      <trkpt lat="47.470596" lon="7.792776">
        <ele>354.769799</ele>
        <time>2021-11-13T09:58:36.223Z</time>
      </trkpt>
      <trkpt lat="47.470587" lon="7.794273">
        <ele>355.341672</ele>
        <time>2021-11-13T09:58:52.647Z</time>
      </trkpt>
      <trkpt lat="47.470724" lon="7.794809">
        <ele>355.441347</ele>
        <time>2021-11-13T09:58:58.637Z</time>
      </trkpt>
      <trkpt lat="47.470854" lon="7.795152">
        <ele>355.481610</ele>
        <time>2021-11-13T09:59:02.745Z</time>
      </trkpt>
      <trkpt lat="47.470898" lon="7.795257">
        <ele>355.494259</ele>
        <time>2021-11-13T09:59:04.021Z</time>
      </trkpt>
      <trkpt lat="47.471005" lon="7.795723">
        <ele>355.544650</ele>
        <time>2021-11-13T09:59:09.134Z</time>
      </trkpt>
      <trkpt lat="47.471026" lon="7.796272">
        <ele>355.600952</ele>
        <time>2021-11-13T09:59:14.767Z</time>
      </trkpt>
      <trkpt lat="47.470815" lon="7.797463">
        <ele>355.860428</ele>
        <time>2021-11-13T09:59:27.543Z</time>
      </trkpt>
      <trkpt lat="47.470622" lon="7.797969">
        <ele>356.059433</ele>
        <time>2021-11-13T09:59:33.767Z</time>
      </trkpt>
      <trkpt lat="47.470580" lon="7.798119">
        <ele>356.115044</ele>
        <time>2021-11-13T09:59:35.556Z</time>
      </trkpt>
      <trkpt lat="47.470528" lon="7.798467">
        <ele>356.237120</ele>
        <time>2021-11-13T09:59:39.579Z</time>
      </trkpt>
      <trkpt lat="47.470510" lon="7.798553">
        <ele>356.267957</ele>
        <time>2021-11-13T09:59:40.585Z</time>
      </trkpt>
      <trkpt lat="47.470269" lon="7.799995">
        <ele>357.047748</ele>
        <time>2021-11-13T09:59:59.132Z</time>
      </trkpt>
      <trkpt lat="47.470137" lon="7.800744">
        <ele>357.680918</ele>
        <time>2021-11-13T10:00:09.150Z</time>
      </trkpt>
      <trkpt lat="47.470139" lon="7.800862">
        <ele>357.777474</ele>
        <time>2021-11-13T10:00:10.708Z</time>
      </trkpt>
      <trkpt lat="47.470163" lon="7.801003">
        <ele>357.896414</ele>
        <time>2021-11-13T10:00:12.922Z</time>
      </trkpt>
      <trkpt lat="47.470106" lon="7.801105">
        <ele>358.004671</ele>
        <time>2021-11-13T10:00:14.619Z</time>
      </trkpt>
      <trkpt lat="47.470064" lon="7.801244">
        <ele>358.129218</ele>
        <time>2021-11-13T10:00:16.682Z</time>
      </trkpt>
      <trkpt lat="47.470035" lon="7.801408">
        <ele>358.267886</ele>
        <time>2021-11-13T10:00:19.075Z</time>
      </trkpt>
      <trkpt lat="47.469938" lon="7.801967">
        <ele>358.739982</ele>
        <time>2021-11-13T10:00:27.229Z</time>
      </trkpt>
      <trkpt lat="47.469839" lon="7.802540">
        <ele>359.388867</ele>
        <time>2021-11-13T10:00:35.644Z</time>
      </trkpt>
      <trkpt lat="47.469821" lon="7.802641">
        <ele>359.504603</ele>
        <time>2021-11-13T10:00:37.019Z</time>
      </trkpt>
      <trkpt lat="47.469280" lon="7.805635">
        <ele>362.800278</ele>
        <time>2021-11-13T10:01:22.290Z</time>
      </trkpt>
      <trkpt lat="47.469217" lon="7.805935">
        <ele>363.109301</ele>
        <time>2021-11-13T10:01:26.661Z</time>
      </trkpt>
      <trkpt lat="47.469092" lon="7.806596">
        <ele>363.784493</ele>
        <time>2021-11-13T10:01:35.866Z</time>
      </trkpt>
      <trkpt lat="47.469033" lon="7.806891">
        <ele>364.087121</ele>
        <time>2021-11-13T10:01:39.932Z</time>
      </trkpt>
      <trkpt lat="47.468960" lon="7.807202">
        <ele>364.381498</ele>
        <time>2021-11-13T10:01:44.349Z</time>
      </trkpt>
      <trkpt lat="47.468675" lon="7.808217">
        <ele>365.097213</ele>
        <time>2021-11-13T10:01:58.952Z</time>
      </trkpt>
      <trkpt lat="47.468629" lon="7.808388">
        <ele>365.217061</ele>
        <time>2021-11-13T10:02:01.192Z</time>
      </trkpt>
      <trkpt lat="47.468609" lon="7.808505">
        <ele>365.295650</ele>
        <time>2021-11-13T10:02:02.280Z</time>
      </trkpt>
      <trkpt lat="47.468582" lon="7.808672">
        <ele>365.407467</ele>
        <time>2021-11-13T10:02:04.226Z</time>
      </trkpt>
      <trkpt lat="47.468575" lon="7.808774">
        <ele>365.474230</ele>
        <time>2021-11-13T10:02:06.345Z</time>
      </trkpt>
      <trkpt lat="47.468567" lon="7.808880">
        <ele>365.543686</ele>
        <time>2021-11-13T10:02:07.314Z</time>
      </trkpt>
      <trkpt lat="47.468560" lon="7.809002">
        <ele>365.623418</ele>
        <time>2021-11-13T10:02:08.452Z</time>
      </trkpt>
      <trkpt lat="47.468554" lon="7.809191">
        <ele>365.746630</ele>
        <time>2021-11-13T10:02:10.557Z</time>
      </trkpt>
      <trkpt lat="47.468553" lon="7.809321">
        <ele>365.831292</ele>
        <time>2021-11-13T10:02:13.103Z</time>
      </trkpt>
      <trkpt lat="47.468548" lon="7.810180">
        <ele>366.371095</ele>
        <time>2021-11-13T10:02:22.613Z</time>
      </trkpt>
      <trkpt lat="47.468474" lon="7.810467">
        <ele>366.559395</ele>
        <time>2021-11-13T10:02:27.020Z</time>
      </trkpt>
      <trkpt lat="47.468357" lon="7.810692">
        <ele>366.733412</ele>
        <time>2021-11-13T10:02:30.130Z</time>
      </trkpt>
      <trkpt lat="47.468313" lon="7.810744">
        <ele>366.784483</ele>
        <time>2021-11-13T10:02:31.786Z</time>
      </trkpt>
      <trkpt lat="47.468136" lon="7.810955">
        <ele>366.990625</ele>
        <time>2021-11-13T10:02:35.673Z</time>
      </trkpt>
      <trkpt lat="47.468125" lon="7.810968">
        <ele>367.003393</ele>
        <time>2021-11-13T10:02:35.886Z</time>
      </trkpt>
      <trkpt lat="47.468045" lon="7.811064">
        <ele>367.096808</ele>
        <time>2021-11-13T10:02:38.053Z</time>
      </trkpt>
      <trkpt lat="47.467664" lon="7.811512">
        <ele>367.538169</ele>
        <time>2021-11-13T10:02:46.798Z</time>
      </trkpt>
      <trkpt lat="47.467534" lon="7.811668">
        <ele>367.690415</ele>
        <time>2021-11-13T10:02:49.774Z</time>
      </trkpt>
      <trkpt lat="47.467360" lon="7.811849">
        <ele>367.918457</ele>
        <time>2021-11-13T10:02:53.733Z</time>
      </trkpt>
      <trkpt lat="47.467121" lon="7.812080">
        <ele>368.224524</ele>
        <time>2021-11-13T10:02:59.301Z</time>
      </trkpt>
      <trkpt lat="47.467084" lon="7.812119">
        <ele>368.273230</ele>
        <time>2021-11-13T10:03:00.182Z</time>
      </trkpt>
      <trkpt lat="47.467062" lon="7.812145">
        <ele>368.303418</ele>
        <time>2021-11-13T10:03:00.694Z</time>
      </trkpt>
      <trkpt lat="47.467013" lon="7.812269">
        <ele>368.407511</ele>
        <time>2021-11-13T10:03:02.698Z</time>
      </trkpt>
      <trkpt lat="47.467077" lon="7.812317">
        <ele>368.484438</ele>
        <time>2021-11-13T10:03:04.166Z</time>
      </trkpt>
      <trkpt lat="47.467146" lon="7.812375">
        <ele>368.569519</ele>
        <time>2021-11-13T10:03:05.701Z</time>
      </trkpt>
      <trkpt lat="47.466979" lon="7.812866">
        <ele>368.967860</ele>
        <time>2021-11-13T10:03:12.690Z</time>
      </trkpt>
      <trkpt lat="47.466915" lon="7.813076">
        <ele>369.134804</ele>
        <time>2021-11-13T10:03:15.723Z</time>
      </trkpt>
      <trkpt lat="47.466730" lon="7.813590">
        <ele>369.556823</ele>
        <time>2021-11-13T10:03:23.135Z</time>
      </trkpt>
      <trkpt lat="47.466661" lon="7.813746">
        <ele>369.702168</ele>
        <time>2021-11-13T10:03:25.467Z</time>
      </trkpt>
      <trkpt lat="47.466640" lon="7.813785">
        <ele>369.743160</ele>
        <time>2021-11-13T10:03:26.158Z</time>
      </trkpt>
      <trkpt lat="47.466531" lon="7.813985">
        <ele>369.954372</ele>
        <time>2021-11-13T10:03:29.533Z</time>
      </trkpt>
      <trkpt lat="47.466272" lon="7.814382">
        <ele>370.407972</ele>
        <time>2021-11-13T10:03:37.176Z</time>
      </trkpt>
      <trkpt lat="47.466179" lon="7.814494">
        <ele>370.553819</ele>
        <time>2021-11-13T10:03:39.644Z</time>
      </trkpt>
      <trkpt lat="47.466052" lon="7.814635">
        <ele>370.746937</ele>
        <time>2021-11-13T10:03:43.072Z</time>
      </trkpt>
      <trkpt lat="47.465476" lon="7.815350">
        <ele>371.661426</ele>
        <time>2021-11-13T10:03:58.261Z</time>
      </trkpt>
      <trkpt lat="47.465411" lon="7.815405">
        <ele>371.752496</ele>
        <time>2021-11-13T10:03:59.669Z</time>
      </trkpt>
      <trkpt lat="47.465155" lon="7.815522">
        <ele>372.041353</ele>
        <time>2021-11-13T10:04:04.147Z</time>
      </trkpt>
      <trkpt lat="47.465032" lon="7.815580">
        <ele>372.177241</ele>
        <time>2021-11-13T10:04:06.412Z</time>
      </trkpt>
      <trkpt lat="47.464917" lon="7.815658">
        <ele>372.310407</ele>
        <time>2021-11-13T10:04:08.482Z</time>
      </trkpt>
      <trkpt lat="47.464761" lon="7.815835">
        <ele>372.517354</ele>
        <time>2021-11-13T10:04:11.746Z</time>
      </trkpt>
      <trkpt lat="47.464717" lon="7.815901">
        <ele>372.583314</ele>
        <time>2021-11-13T10:04:13.033Z</time>
      </trkpt>
      <trkpt lat="47.464393" lon="7.816382">
        <ele>373.066494</ele>
        <time>2021-11-13T10:04:21.988Z</time>
      </trkpt>
      <trkpt lat="47.464280" lon="7.816543">
        <ele>373.231641</ele>
        <time>2021-11-13T10:04:25.034Z</time>
      </trkpt>
      <trkpt lat="47.464209" lon="7.816621">
        <ele>373.324732</ele>
        <time>2021-11-13T10:04:27.105Z</time>
      </trkpt>
      <trkpt lat="47.464112" lon="7.816530">
        <ele>373.445637</ele>
        <time>2021-11-13T10:04:29.925Z</time>
      </trkpt>
      <trkpt lat="47.463967" lon="7.816383">
        <ele>373.630669</ele>
        <time>2021-11-13T10:04:32.878Z</time>
      </trkpt>
      <trkpt lat="47.463919" lon="7.816337">
        <ele>373.690871</ele>
        <time>2021-11-13T10:04:34.177Z</time>
      </trkpt>
      <trkpt lat="47.463805" lon="7.816235">
        <ele>373.845997</ele>
        <time>2021-11-13T10:04:37.216Z</time>
      </trkpt>
      <trkpt lat="47.463672" lon="7.816122">
        <ele>374.025291</ele>
        <time>2021-11-13T10:04:39.565Z</time>
      </trkpt>
      <trkpt lat="47.463339" lon="7.815878">
        <ele>374.459700</ele>
        <time>2021-11-13T10:04:48.623Z</time>
      </trkpt>
      <trkpt lat="47.463250" lon="7.815816">
        <ele>374.574698</ele>
        <time>2021-11-13T10:04:51.202Z</time>
      </trkpt>
      <trkpt lat="47.463109" lon="7.815699">
        <ele>374.763687</ele>
        <time>2021-11-13T10:04:55.328Z</time>
      </trkpt>
      <trkpt lat="47.462938" lon="7.815588">
        <ele>374.981981</ele>
        <time>2021-11-13T10:04:59.579Z</time>
      </trkpt>
      <trkpt lat="47.462859" lon="7.815548">
        <ele>375.079590</ele>
        <time>2021-11-13T10:05:02.086Z</time>
      </trkpt>
      <trkpt lat="47.462785" lon="7.815763">
        <ele>375.270257</ele>
        <time>2021-11-13T10:05:04.641Z</time>
      </trkpt>
      <trkpt lat="47.462434" lon="7.816598">
        <ele>375.974049</ele>
        <time>2021-11-13T10:05:18.685Z</time>
      </trkpt>
      <trkpt lat="47.462262" lon="7.817447">
        <ele>376.467808</ele>
        <time>2021-11-13T10:05:29.535Z</time>
      </trkpt>
      <trkpt lat="47.462122" lon="7.818441">
        <ele>377.033458</ele>
        <time>2021-11-13T10:05:41.013Z</time>
      </trkpt>
      <trkpt lat="47.462012" lon="7.818948">
        <ele>377.337098</ele>
        <time>2021-11-13T10:05:47.476Z</time>
      </trkpt>
      <trkpt lat="47.461960" lon="7.819120">
        <ele>377.457076</ele>
        <time>2021-11-13T10:05:49.580Z</time>
      </trkpt>
      <trkpt lat="47.461912" lon="7.819188">
        <ele>377.519677</ele>
        <time>2021-11-13T10:05:50.673Z</time>
      </trkpt>
      <trkpt lat="47.461803" lon="7.819336">
        <ele>377.659038</ele>
        <time>2021-11-13T10:05:53.702Z</time>
      </trkpt>
      <trkpt lat="47.461833" lon="7.819386">
        <ele>377.701607</ele>
        <time>2021-11-13T10:05:54.445Z</time>
      </trkpt>
      <trkpt lat="47.461832" lon="7.819582">
        <ele>377.826418</ele>
        <time>2021-11-13T10:05:56.659Z</time>
      </trkpt>
      <trkpt lat="47.461818" lon="7.819635">
        <ele>377.862652</ele>
        <time>2021-11-13T10:05:57.288Z</time>
      </trkpt>
      <trkpt lat="47.461818" lon="7.819635">
        <ele>377.862652</ele>
        <time>2021-11-13T10:05:57.291Z</time>
      </trkpt>
      <trkpt lat="47.461754" lon="7.819910">
        <ele>378.047851</ele>
        <time>2021-11-13T10:06:01.474Z</time>
      </trkpt>
      <trkpt lat="47.461722" lon="7.820179">
        <ele>378.221775</ele>
        <time>2021-11-13T10:06:04.563Z</time>
      </trkpt>
      <trkpt lat="47.461730" lon="7.820282">
        <ele>378.287795</ele>
        <time>2021-11-13T10:06:06.259Z</time>
      </trkpt>
      <trkpt lat="47.461748" lon="7.820387">
        <ele>378.356773</ele>
        <time>2021-11-13T10:06:07.814Z</time>
      </trkpt>
      <trkpt lat="47.461867" lon="7.821095">
        <ele>378.821335</ele>
        <time>2021-11-13T10:06:16.964Z</time>
      </trkpt>
      <trkpt lat="47.461966" lon="7.821681">
        <ele>379.132275</ele>
        <time>2021-11-13T10:06:24.524Z</time>
      </trkpt>
      <trkpt lat="47.461985" lon="7.821867">
        <ele>379.213807</ele>
        <time>2021-11-13T10:06:27.207Z</time>
      </trkpt>
      <trkpt lat="47.461990" lon="7.821930">
        <ele>379.241301</ele>
        <time>2021-11-13T10:06:28.206Z</time>
      </trkpt>
      <trkpt lat="47.462122" lon="7.824085">
        <ele>380.165459</ele>
        <time>2021-11-13T10:06:52.904Z</time>
      </trkpt>
      <trkpt lat="47.462104" lon="7.824385">
        <ele>380.260834</ele>
        <time>2021-11-13T10:06:56.050Z</time>
      </trkpt>
      <trkpt lat="47.462075" lon="7.824560">
        <ele>380.317892</ele>
        <time>2021-11-13T10:06:57.938Z</time>
      </trkpt>
      <trkpt lat="47.462041" lon="7.824554">
        <ele>380.333931</ele>
        <time>2021-11-13T10:06:58.527Z</time>
      </trkpt>
      <trkpt lat="47.461981" lon="7.824592">
        <ele>380.364502</ele>
        <time>2021-11-13T10:06:59.510Z</time>
      </trkpt>
      <trkpt lat="47.461961" lon="7.824632">
        <ele>380.380257</ele>
        <time>2021-11-13T10:07:00.146Z</time>
      </trkpt>
      <trkpt lat="47.461951" lon="7.824677">
        <ele>380.395257</ele>
        <time>2021-11-13T10:07:00.532Z</time>
      </trkpt>
      <trkpt lat="47.461983" lon="7.824803">
        <ele>380.437880</ele>
        <time>2021-11-13T10:07:02.141Z</time>
      </trkpt>
      <trkpt lat="47.462009" lon="7.824828">
        <ele>380.452406</ele>
        <time>2021-11-13T10:07:02.576Z</time>
      </trkpt>
      <trkpt lat="47.462048" lon="7.824839">
        <ele>380.471002</ele>
        <time>2021-11-13T10:07:03.156Z</time>
      </trkpt>
      <trkpt lat="47.462087" lon="7.824826">
        <ele>380.489728</ele>
        <time>2021-11-13T10:07:03.850Z</time>
      </trkpt>
      <trkpt lat="47.462119" lon="7.824792">
        <ele>380.508183</ele>
        <time>2021-11-13T10:07:04.492Z</time>
      </trkpt>
      <trkpt lat="47.462172" lon="7.824876">
        <ele>380.544568</ele>
        <time>2021-11-13T10:07:05.789Z</time>
      </trkpt>
      <trkpt lat="47.462220" lon="7.824965">
        <ele>380.580620</ele>
        <time>2021-11-13T10:07:06.943Z</time>
      </trkpt>
      <trkpt lat="47.462266" lon="7.825058">
        <ele>380.617111</ele>
        <time>2021-11-13T10:07:08.333Z</time>
      </trkpt>
      <trkpt lat="47.462323" lon="7.825177">
        <ele>380.663294</ele>
        <time>2021-11-13T10:07:09.986Z</time>
      </trkpt>
      <trkpt lat="47.462301" lon="7.825212">
        <ele>380.678428</ele>
        <time>2021-11-13T10:07:10.520Z</time>
      </trkpt>
      <trkpt lat="47.462295" lon="7.825350">
        <ele>380.722219</ele>
        <time>2021-11-13T10:07:12.136Z</time>
      </trkpt>
      <trkpt lat="47.462312" lon="7.825390">
        <ele>380.737180</ele>
        <time>2021-11-13T10:07:12.562Z</time>
      </trkpt>
      <trkpt lat="47.462244" lon="7.825463">
        <ele>380.776536</ele>
        <time>2021-11-13T10:07:14.188Z</time>
      </trkpt>
      <trkpt lat="47.462057" lon="7.825761">
        <ele>380.905289</ele>
        <time>2021-11-13T10:07:18.776Z</time>
      </trkpt>
      <trkpt lat="47.461963" lon="7.826038">
        <ele>381.064299</ele>
        <time>2021-11-13T10:07:22.587Z</time>
      </trkpt>
      <trkpt lat="47.461900" lon="7.826316">
        <ele>381.330214</ele>
        <time>2021-11-13T10:07:26.077Z</time>
      </trkpt>
      <trkpt lat="47.461850" lon="7.826816">
        <ele>381.788615</ele>
        <time>2021-11-13T10:07:31.914Z</time>
      </trkpt>
      <trkpt lat="47.461804" lon="7.827389">
        <ele>382.311941</ele>
        <time>2021-11-13T10:07:40.015Z</time>
      </trkpt>
      <trkpt lat="47.461536" lon="7.829345">
        <ele>384.241929</ele>
        <time>2021-11-13T10:08:10.042Z</time>
      </trkpt>
      <trkpt lat="47.461525" lon="7.829524">
        <ele>384.431423</ele>
        <time>2021-11-13T10:08:13.110Z</time>
      </trkpt>
      <trkpt lat="47.461539" lon="7.829782">
        <ele>384.704302</ele>
        <time>2021-11-13T10:08:16.525Z</time>
      </trkpt>
      <trkpt lat="47.461548" lon="7.829918">
        <ele>384.848369</ele>
        <time>2021-11-13T10:08:18.480Z</time>
      </trkpt>
      <trkpt lat="47.461585" lon="7.830158">
        <ele>385.107890</ele>
        <time>2021-11-13T10:08:22.161Z</time>
      </trkpt>
      <trkpt lat="47.461787" lon="7.831158">
        <ele>386.200177</ele>
        <time>2021-11-13T10:08:36.054Z</time>
      </trkpt>
      <trkpt lat="47.461918" lon="7.831668">
        <ele>386.542306</ele>
        <time>2021-11-13T10:08:43.079Z</time>
      </trkpt>
      <trkpt lat="47.462048" lon="7.832204">
        <ele>386.899408</ele>
        <time>2021-11-13T10:08:50.116Z</time>
      </trkpt>
      <trkpt lat="47.462080" lon="7.832335">
        <ele>386.986757</ele>
        <time>2021-11-13T10:08:51.745Z</time>
      </trkpt>
      <trkpt lat="47.462179" lon="7.832744">
        <ele>387.259184</ele>
        <time>2021-11-13T10:08:56.945Z</time>
      </trkpt>
      <trkpt lat="47.462217" lon="7.832953">
        <ele>387.394905</ele>
        <time>2021-11-13T10:08:59.789Z</time>
      </trkpt>
      <trkpt lat="47.462285" lon="7.833721">
        <ele>387.878915</ele>
        <time>2021-11-13T10:09:09.296Z</time>
      </trkpt>
      <trkpt lat="47.462296" lon="7.833933">
        <ele>388.002681</ele>
        <time>2021-11-13T10:09:12.244Z</time>
      </trkpt>
      <trkpt lat="47.462317" lon="7.834216">
        <ele>388.168401</ele>
        <time>2021-11-13T10:09:15.754Z</time>
      </trkpt>
      <trkpt lat="47.462357" lon="7.834782">
        <ele>388.499658</ele>
        <time>2021-11-13T10:09:22.516Z</time>
      </trkpt>
      <trkpt lat="47.462375" lon="7.834910">
        <ele>388.575760</ele>
        <time>2021-11-13T10:09:24.300Z</time>
      </trkpt>
      <trkpt lat="47.462388" lon="7.834991">
        <ele>388.624219</ele>
        <time>2021-11-13T10:09:25.330Z</time>
      </trkpt>
      <trkpt lat="47.462586" lon="7.835900">
        <ele>389.180120</ele>
        <time>2021-11-13T10:09:36.478Z</time>
      </trkpt>
      <trkpt lat="47.462666" lon="7.836201">
        <ele>389.368380</ele>
        <time>2021-11-13T10:09:40.589Z</time>
      </trkpt>
      <trkpt lat="47.462700" lon="7.836337">
        <ele>389.472263</ele>
        <time>2021-11-13T10:09:42.462Z</time>
      </trkpt>
      <trkpt lat="47.462730" lon="7.836472">
        <ele>389.588932</ele>
        <time>2021-11-13T10:09:44.184Z</time>
      </trkpt>
      <trkpt lat="47.462748" lon="7.836556">
        <ele>389.661277</ele>
        <time>2021-11-13T10:09:45.072Z</time>
      </trkpt>
      <trkpt lat="47.462851" lon="7.837404">
        <ele>390.368632</ele>
        <time>2021-11-13T10:09:57.684Z</time>
      </trkpt>
      <trkpt lat="47.462856" lon="7.837506">
        <ele>390.452593</ele>
        <time>2021-11-13T10:09:59.576Z</time>
      </trkpt>
      <trkpt lat="47.462865" lon="7.837711">
        <ele>390.621253</ele>
        <time>2021-11-13T10:10:01.984Z</time>
      </trkpt>
      <trkpt lat="47.462869" lon="7.837866">
        <ele>390.748600</ele>
        <time>2021-11-13T10:10:03.941Z</time>
      </trkpt>
      <trkpt lat="47.462871" lon="7.837954">
        <ele>390.820889</ele>
        <time>2021-11-13T10:10:05.470Z</time>
      </trkpt>
      <trkpt lat="47.462873" lon="7.838016">
        <ele>390.871849</ele>
        <time>2021-11-13T10:10:06.512Z</time>
      </trkpt>
      <trkpt lat="47.462883" lon="7.838488">
        <ele>391.259550</ele>
        <time>2021-11-13T10:10:12.646Z</time>
      </trkpt>
      <trkpt lat="47.462936" lon="7.838934">
        <ele>391.601821</ele>
        <time>2021-11-13T10:10:17.988Z</time>
      </trkpt>
      <trkpt lat="47.462967" lon="7.839047">
        <ele>391.631232</ele>
        <time>2021-11-13T10:10:19.685Z</time>
      </trkpt>
      <trkpt lat="47.462982" lon="7.839106">
        <ele>391.646434</ele>
        <time>2021-11-13T10:10:20.624Z</time>
      </trkpt>
      <trkpt lat="47.463043" lon="7.839292">
        <ele>391.696292</ele>
        <time>2021-11-13T10:10:22.440Z</time>
      </trkpt>
      <trkpt lat="47.463133" lon="7.839561">
        <ele>391.768678</ele>
        <time>2021-11-13T10:10:26.346Z</time>
      </trkpt>
      <trkpt lat="47.463287" lon="7.840028">
        <ele>391.893990</ele>
        <time>2021-11-13T10:10:32.381Z</time>
      </trkpt>
      <trkpt lat="47.463588" lon="7.840904">
        <ele>392.130979</ele>
        <time>2021-11-13T10:10:43.676Z</time>
      </trkpt>
      <trkpt lat="47.463616" lon="7.840992">
        <ele>392.154436</ele>
        <time>2021-11-13T10:10:44.754Z</time>
      </trkpt>
      <trkpt lat="47.463685" lon="7.841203">
        <ele>392.210964</ele>
        <time>2021-11-13T10:10:46.697Z</time>
      </trkpt>
      <trkpt lat="47.463874" lon="7.841863">
        <ele>392.055724</ele>
        <time>2021-11-13T10:10:52.985Z</time>
      </trkpt>
      <trkpt lat="47.463922" lon="7.842123">
        <ele>391.981008</ele>
        <time>2021-11-13T10:10:54.969Z</time>
      </trkpt>
      <trkpt lat="47.463971" lon="7.842355">
        <ele>391.913629</ele>
        <time>2021-11-13T10:10:57.533Z</time>
      </trkpt>
      <trkpt lat="47.464053" lon="7.842690">
        <ele>391.814862</ele>
        <time>2021-11-13T10:11:00.333Z</time>
      </trkpt>
      <trkpt lat="47.464075" lon="7.842774">
        <ele>391.789889</ele>
        <time>2021-11-13T10:11:01.531Z</time>
      </trkpt>
      <trkpt lat="47.464165" lon="7.843130">
        <ele>391.684526</ele>
        <time>2021-11-13T10:11:04.656Z</time>
      </trkpt>
      <trkpt lat="47.464176" lon="7.843178">
        <ele>391.670476</ele>
        <time>2021-11-13T10:11:05.141Z</time>
      </trkpt>
      <trkpt lat="47.464234" lon="7.843434">
        <ele>391.595630</ele>
        <time>2021-11-13T10:11:08.205Z</time>
      </trkpt>
      <trkpt lat="47.464354" lon="7.843960">
        <ele>391.579670</ele>
        <time>2021-11-13T10:11:14.222Z</time>
      </trkpt>
      <trkpt lat="47.464386" lon="7.844088">
        <ele>391.642360</ele>
        <time>2021-11-13T10:11:15.564Z</time>
      </trkpt>
      <trkpt lat="47.464433" lon="7.844273">
        <ele>391.733146</ele>
        <time>2021-11-13T10:11:18.048Z</time>
      </trkpt>
      <trkpt lat="47.464585" lon="7.844988">
        <ele>392.077448</ele>
        <time>2021-11-13T10:11:26.561Z</time>
      </trkpt>
      <trkpt lat="47.464737" lon="7.846119">
        <ele>392.607155</ele>
        <time>2021-11-13T10:11:40.670Z</time>
      </trkpt>
      <trkpt lat="47.464771" lon="7.847028">
        <ele>393.283546</ele>
        <time>2021-11-13T10:11:52.780Z</time>
      </trkpt>
      <trkpt lat="47.464784" lon="7.847333">
        <ele>393.541022</ele>
        <time>2021-11-13T10:11:56.760Z</time>
      </trkpt>
      <trkpt lat="47.464820" lon="7.847644">
        <ele>393.806855</ele>
        <time>2021-11-13T10:12:01.031Z</time>
      </trkpt>
      <trkpt lat="47.464850" lon="7.847870">
        <ele>394.000898</ele>
        <time>2021-11-13T10:12:03.947Z</time>
      </trkpt>
      <trkpt lat="47.464909" lon="7.848219">
        <ele>394.303987</ele>
        <time>2021-11-13T10:12:09.013Z</time>
      </trkpt>
      <trkpt lat="47.464909" lon="7.848219">
        <ele>394.303987</ele>
        <time>2021-11-13T10:12:09.038Z</time>
      </trkpt>
      <trkpt lat="47.464909" lon="7.848219">
        <ele>394.303987</ele>
        <time>2021-11-13T10:12:09.062Z</time>
      </trkpt>
      <trkpt lat="47.464952" lon="7.848443">
        <ele>394.500170</ele>
        <time>2021-11-13T10:12:12.251Z</time>
      </trkpt>
      <trkpt lat="47.465152" lon="7.849351">
        <ele>395.363386</ele>
        <time>2021-11-13T10:12:25.509Z</time>
      </trkpt>
      <trkpt lat="47.465348" lon="7.849875">
        <ele>395.953090</ele>
        <time>2021-11-13T10:12:33.632Z</time>
      </trkpt>
      <trkpt lat="47.465558" lon="7.850405">
        <ele>396.558020</ele>
        <time>2021-11-13T10:12:41.883Z</time>
      </trkpt>
      <trkpt lat="47.465620" lon="7.850585">
        <ele>396.756948</ele>
        <time>2021-11-13T10:12:44.682Z</time>
      </trkpt>
      <trkpt lat="47.465714" lon="7.850917">
        <ele>397.111384</ele>
        <time>2021-11-13T10:12:49.169Z</time>
      </trkpt>
      <trkpt lat="47.465829" lon="7.851383">
        <ele>397.618760</ele>
        <time>2021-11-13T10:12:56.431Z</time>
      </trkpt>
      <trkpt lat="47.465804" lon="7.851399">
        <ele>397.691533</ele>
        <time>2021-11-13T10:12:57.131Z</time>
      </trkpt>
      <trkpt lat="47.465765" lon="7.851501">
        <ele>397.903176</ele>
        <time>2021-11-13T10:12:59.326Z</time>
      </trkpt>
      <trkpt lat="47.465770" lon="7.851542">
        <ele>397.978420</ele>
        <time>2021-11-13T10:13:00.036Z</time>
      </trkpt>
      <trkpt lat="47.465781" lon="7.851575">
        <ele>398.044872</ele>
        <time>2021-11-13T10:13:00.599Z</time>
      </trkpt>
      <trkpt lat="47.465821" lon="7.851619">
        <ele>398.178045</ele>
        <time>2021-11-13T10:13:01.637Z</time>
      </trkpt>
      <trkpt lat="47.465846" lon="7.851625">
        <ele>398.245708</ele>
        <time>2021-11-13T10:13:02.169Z</time>
      </trkpt>
      <trkpt lat="47.465871" lon="7.851620">
        <ele>398.313105</ele>
        <time>2021-11-13T10:13:02.672Z</time>
      </trkpt>
      <trkpt lat="47.465896" lon="7.851603">
        <ele>398.386614</ele>
        <time>2021-11-13T10:13:03.187Z</time>
      </trkpt>
      <trkpt lat="47.465931" lon="7.851497">
        <ele>398.599673</ele>
        <time>2021-11-13T10:13:05.186Z</time>
      </trkpt>
      <trkpt lat="47.465925" lon="7.851458">
        <ele>398.671910</ele>
        <time>2021-11-13T10:13:05.887Z</time>
      </trkpt>
      <trkpt lat="47.466015" lon="7.851377">
        <ele>398.953360</ele>
        <time>2021-11-13T10:13:08.826Z</time>
      </trkpt>
      <trkpt lat="47.466390" lon="7.851107">
        <ele>400.067579</ele>
        <time>2021-11-13T10:13:18.876Z</time>
      </trkpt>
      <trkpt lat="47.466513" lon="7.851046">
        <ele>400.414161</ele>
        <time>2021-11-13T10:13:21.668Z</time>
      </trkpt>
      <trkpt lat="47.466576" lon="7.851019">
        <ele>400.589393</ele>
        <time>2021-11-13T10:13:23.432Z</time>
      </trkpt>
      <trkpt lat="47.466767" lon="7.850952">
        <ele>401.113817</ele>
        <time>2021-11-13T10:13:28.513Z</time>
      </trkpt>
      <trkpt lat="47.466831" lon="7.850929">
        <ele>401.289773</ele>
        <time>2021-11-13T10:13:29.925Z</time>
      </trkpt>
      <trkpt lat="47.467007" lon="7.850894">
        <ele>401.764202</ele>
        <time>2021-11-13T10:13:34.968Z</time>
      </trkpt>
      <trkpt lat="47.468532" lon="7.850782">
        <ele>407.716463</ele>
        <time>2021-11-13T10:14:22.598Z</time>
      </trkpt>
      <trkpt lat="47.468646" lon="7.850779">
        <ele>408.185928</ele>
        <time>2021-11-13T10:14:25.131Z</time>
      </trkpt>
      <trkpt lat="47.468794" lon="7.850777">
        <ele>408.795338</ele>
        <time>2021-11-13T10:14:31.882Z</time>
      </trkpt>
      <trkpt lat="47.468807" lon="7.850777">
        <ele>408.848865</ele>
        <time>2021-11-13T10:14:31.996Z</time>
      </trkpt>
      <trkpt lat="47.468931" lon="7.850775">
        <ele>409.359461</ele>
        <time>2021-11-13T10:14:37.336Z</time>
      </trkpt>
      <trkpt lat="47.469115" lon="7.850772">
        <ele>410.161670</ele>
        <time>2021-11-13T10:14:43.854Z</time>
      </trkpt>
      <trkpt lat="47.469315" lon="7.850771">
        <ele>411.096744</ele>
        <time>2021-11-13T10:14:50.738Z</time>
      </trkpt>
      <trkpt lat="47.469352" lon="7.850770">
        <ele>411.269760</ele>
        <time>2021-11-13T10:14:51.062Z</time>
      </trkpt>
      <trkpt lat="47.469464" lon="7.850775">
        <ele>411.793637</ele>
        <time>2021-11-13T10:14:56.714Z</time>
      </trkpt>
      <trkpt lat="47.469555" lon="7.850782">
        <ele>412.219668</ele>
        <time>2021-11-13T10:14:59.152Z</time>
      </trkpt>
      <trkpt lat="47.469772" lon="7.850804">
        <ele>413.236596</ele>
        <time>2021-11-13T10:15:08.131Z</time>
      </trkpt>
      <trkpt lat="47.470145" lon="7.850841">
        <ele>414.984414</ele>
        <time>2021-11-13T10:15:23.152Z</time>
      </trkpt>
      <trkpt lat="47.470421" lon="7.850868">
        <ele>416.277627</ele>
        <time>2021-11-13T10:15:33.366Z</time>
      </trkpt>
      <trkpt lat="47.470525" lon="7.850877">
        <ele>416.764693</ele>
        <time>2021-11-13T10:15:37.607Z</time>
      </trkpt>
      <trkpt lat="47.471325" lon="7.850935">
        <ele>420.444117</ele>
        <time>2021-11-13T10:16:09.464Z</time>
      </trkpt>
      <trkpt lat="47.471670" lon="7.851035">
        <ele>422.041326</ele>
        <time>2021-11-13T10:16:22.604Z</time>
      </trkpt>
      <trkpt lat="47.471898" lon="7.851131">
        <ele>423.118314</ele>
        <time>2021-11-13T10:16:32.780Z</time>
      </trkpt>
      <trkpt lat="47.472010" lon="7.851173">
        <ele>423.643246</ele>
        <time>2021-11-13T10:16:36.720Z</time>
      </trkpt>
      <trkpt lat="47.472075" lon="7.851198">
        <ele>423.948371</ele>
        <time>2021-11-13T10:16:39.399Z</time>
      </trkpt>
      <trkpt lat="47.472223" lon="7.851237">
        <ele>424.631350</ele>
        <time>2021-11-13T10:16:45.309Z</time>
      </trkpt>
      <trkpt lat="47.472594" lon="7.851279">
        <ele>426.321807</ele>
        <time>2021-11-13T10:16:58.763Z</time>
      </trkpt>
      <trkpt lat="47.473090" lon="7.851217">
        <ele>428.306565</ele>
        <time>2021-11-13T10:17:16.114Z</time>
      </trkpt>
      <trkpt lat="47.473132" lon="7.851211">
        <ele>428.474310</ele>
        <time>2021-11-13T10:17:17.871Z</time>
      </trkpt>
      <trkpt lat="47.473275" lon="7.851189">
        <ele>429.045861</ele>
        <time>2021-11-13T10:17:23.762Z</time>
      </trkpt>
      <trkpt lat="47.473706" lon="7.851184">
        <ele>430.759321</ele>
        <time>2021-11-13T10:17:38.347Z</time>
      </trkpt>
      <trkpt lat="47.474073" lon="7.851261">
        <ele>432.232899</ele>
        <time>2021-11-13T10:17:50.962Z</time>
      </trkpt>
      <trkpt lat="47.474489" lon="7.851469">
        <ele>434.132565</ele>
        <time>2021-11-13T10:18:06.983Z</time>
      </trkpt>
      <trkpt lat="47.475005" lon="7.851847">
        <ele>437.189549</ele>
        <time>2021-11-13T10:18:30.574Z</time>
      </trkpt>
      <trkpt lat="47.475474" lon="7.852041">
        <ele>439.775053</ele>
        <time>2021-11-13T10:18:51.225Z</time>
      </trkpt>
      <trkpt lat="47.475712" lon="7.852137">
        <ele>441.084762</ele>
        <time>2021-11-13T10:19:02.574Z</time>
      </trkpt>
      <trkpt lat="47.476000" lon="7.852252">
        <ele>442.668521</ele>
        <time>2021-11-13T10:19:15.568Z</time>
      </trkpt>
      <trkpt lat="47.476190" lon="7.852326">
        <ele>443.618685</ele>
        <time>2021-11-13T10:19:23.569Z</time>
      </trkpt>
      <trkpt lat="47.476289" lon="7.852358">
        <ele>444.078886</ele>
        <time>2021-11-13T10:19:28.637Z</time>
      </trkpt>
      <trkpt lat="47.476520" lon="7.852417">
        <ele>445.143460</ele>
        <time>2021-11-13T10:19:37.671Z</time>
      </trkpt>
      <trkpt lat="47.476682" lon="7.852438">
        <ele>445.881981</ele>
        <time>2021-11-13T10:19:45.228Z</time>
      </trkpt>
      <trkpt lat="47.476792" lon="7.852449">
        <ele>446.382672</ele>
        <time>2021-11-13T10:19:49.450Z</time>
      </trkpt>
      <trkpt lat="47.476984" lon="7.852449">
        <ele>447.254615</ele>
        <time>2021-11-13T10:19:57.570Z</time>
      </trkpt>
      <trkpt lat="47.479117" lon="7.852270">
        <ele>456.108464</ele>
        <time>2021-11-13T10:21:10.510Z</time>
      </trkpt>
      <trkpt lat="47.479244" lon="7.852259">
        <ele>456.600503</ele>
        <time>2021-11-13T10:21:14.495Z</time>
      </trkpt>
      <trkpt lat="47.479485" lon="7.852237">
        <ele>457.534391</ele>
        <time>2021-11-13T10:21:24.819Z</time>
      </trkpt>
      <trkpt lat="47.480217" lon="7.852063">
        <ele>460.525331</ele>
        <time>2021-11-13T10:21:54.150Z</time>
      </trkpt>
      <trkpt lat="47.480646" lon="7.851849">
        <ele>462.374254</ele>
        <time>2021-11-13T10:22:10.841Z</time>
      </trkpt>
      <trkpt lat="47.480750" lon="7.851790">
        <ele>462.829138</ele>
        <time>2021-11-13T10:22:15.719Z</time>
      </trkpt>
      <trkpt lat="47.480852" lon="7.851729">
        <ele>463.278445</ele>
        <time>2021-11-13T10:22:20.206Z</time>
      </trkpt>
      <trkpt lat="47.481334" lon="7.851437">
        <ele>465.405532</ele>
        <time>2021-11-13T10:22:36.548Z</time>
      </trkpt>
      <trkpt lat="47.481608" lon="7.851297">
        <ele>466.321767</ele>
        <time>2021-11-13T10:22:45.052Z</time>
      </trkpt>
      <trkpt lat="47.481766" lon="7.851223">
        <ele>466.826067</ele>
        <time>2021-11-13T10:22:51.352Z</time>
      </trkpt>
      <trkpt lat="47.482358" lon="7.850933">
        <ele>468.723665</ele>
        <time>2021-11-13T10:23:12.047Z</time>
      </trkpt>
      <trkpt lat="47.482608" lon="7.850799">
        <ele>469.532782</ele>
        <time>2021-11-13T10:23:19.279Z</time>
      </trkpt>
      <trkpt lat="47.482665" lon="7.850768">
        <ele>469.717577</ele>
        <time>2021-11-13T10:23:21.455Z</time>
      </trkpt>
      <trkpt lat="47.482738" lon="7.850728">
        <ele>469.954456</ele>
        <time>2021-11-13T10:23:22.857Z</time>
      </trkpt>
      <trkpt lat="47.482794" lon="7.850696">
        <ele>470.137128</ele>
        <time>2021-11-13T10:23:24.621Z</time>
      </trkpt>
      <trkpt lat="47.482807" lon="7.850688">
        <ele>470.179971</ele>
        <time>2021-11-13T10:23:25.895Z</time>
      </trkpt>
      <trkpt lat="47.482915" lon="7.850629">
        <ele>470.530295</ele>
        <time>2021-11-13T10:23:27.370Z</time>
      </trkpt>
      <trkpt lat="47.483011" lon="7.850573">
        <ele>470.844301</ele>
        <time>2021-11-13T10:23:31.412Z</time>
      </trkpt>
      <trkpt lat="47.483128" lon="7.850517">
        <ele>471.220823</ele>
        <time>2021-11-13T10:23:35.478Z</time>
      </trkpt>
      <trkpt lat="47.484041" lon="7.850377">
        <ele>474.045591</ele>
        <time>2021-11-13T10:23:59.889Z</time>
      </trkpt>
      <trkpt lat="47.484352" lon="7.850459">
        <ele>475.017756</ele>
        <time>2021-11-13T10:24:08.767Z</time>
      </trkpt>
      <trkpt lat="47.484518" lon="7.850556">
        <ele>475.567003</ele>
        <time>2021-11-13T10:24:15.767Z</time>
      </trkpt>
      <trkpt lat="47.484548" lon="7.850572">
        <ele>475.665141</ele>
        <time>2021-11-13T10:24:17.095Z</time>
      </trkpt>
      <trkpt lat="47.484631" lon="7.850586">
        <ele>475.922224</ele>
        <time>2021-11-13T10:24:19.210Z</time>
      </trkpt>
      <trkpt lat="47.484736" lon="7.850560">
        <ele>476.249850</ele>
        <time>2021-11-13T10:24:20.592Z</time>
      </trkpt>
      <trkpt lat="47.484922" lon="7.850473">
        <ele>476.699181</ele>
        <time>2021-11-13T10:24:26.405Z</time>
      </trkpt>
      <trkpt lat="47.485140" lon="7.850236">
        <ele>477.115705</ele>
        <time>2021-11-13T10:24:31.608Z</time>
      </trkpt>
      <trkpt lat="47.485302" lon="7.850164">
        <ele>477.376156</ele>
        <time>2021-11-13T10:24:35.071Z</time>
      </trkpt>
      <trkpt lat="47.485423" lon="7.850124">
        <ele>477.567062</ele>
        <time>2021-11-13T10:24:36.780Z</time>
      </trkpt>
      <trkpt lat="47.485547" lon="7.850079">
        <ele>477.763651</ele>
        <time>2021-11-13T10:24:40.489Z</time>
      </trkpt>
      <trkpt lat="47.485834" lon="7.849993">
        <ele>478.214536</ele>
        <time>2021-11-13T10:24:45.421Z</time>
      </trkpt>
      <trkpt lat="47.485932" lon="7.849984">
        <ele>478.365724</ele>
        <time>2021-11-13T10:24:48.346Z</time>
      </trkpt>
      <trkpt lat="47.485987" lon="7.849975">
        <ele>478.450928</ele>
        <time>2021-11-13T10:24:49.544Z</time>
      </trkpt>
      <trkpt lat="47.486083" lon="7.849946">
        <ele>478.601795</ele>
        <time>2021-11-13T10:24:50.604Z</time>
      </trkpt>
      <trkpt lat="47.486240" lon="7.849728">
        <ele>478.933299</ele>
        <time>2021-11-13T10:24:54.857Z</time>
      </trkpt>
      <trkpt lat="47.486279" lon="7.849670">
        <ele>479.018436</ele>
        <time>2021-11-13T10:24:55.938Z</time>
      </trkpt>
      <trkpt lat="47.486303" lon="7.849650">
        <ele>479.060847</ele>
        <time>2021-11-13T10:24:56.563Z</time>
      </trkpt>
      <trkpt lat="47.486469" lon="7.849589">
        <ele>479.336400</ele>
        <time>2021-11-13T10:24:59.160Z</time>
      </trkpt>
      <trkpt lat="47.486773" lon="7.849704">
        <ele>480.695235</ele>
        <time>2021-11-13T10:25:05.833Z</time>
      </trkpt>
      <trkpt lat="47.486894" lon="7.849739">
        <ele>481.229153</ele>
        <time>2021-11-13T10:25:09.077Z</time>
      </trkpt>
      <trkpt lat="47.487073" lon="7.849767">
        <ele>482.008648</ele>
        <time>2021-11-13T10:25:13.533Z</time>
      </trkpt>
      <trkpt lat="47.487219" lon="7.849782">
        <ele>482.642436</ele>
        <time>2021-11-13T10:25:17.142Z</time>
      </trkpt>
      <trkpt lat="47.487361" lon="7.849792">
        <ele>483.258076</ele>
        <time>2021-11-13T10:25:21.468Z</time>
      </trkpt>
      <trkpt lat="47.488402" lon="7.849885">
        <ele>488.270272</ele>
        <time>2021-11-13T10:26:04.771Z</time>
      </trkpt>
      <trkpt lat="47.488639" lon="7.849855">
        <ele>490.065276</ele>
        <time>2021-11-13T10:26:13.255Z</time>
      </trkpt>
      <trkpt lat="47.488939" lon="7.849720">
        <ele>492.431518</ele>
        <time>2021-11-13T10:26:27.168Z</time>
      </trkpt>
      <trkpt lat="47.488993" lon="7.849683">
        <ele>492.880577</ele>
        <time>2021-11-13T10:26:30.345Z</time>
      </trkpt>
      <trkpt lat="47.489046" lon="7.849642">
        <ele>493.331879</ele>
        <time>2021-11-13T10:26:34.429Z</time>
      </trkpt>
      <trkpt lat="47.489366" lon="7.849261">
        <ele>496.431213</ele>
        <time>2021-11-13T10:26:51.807Z</time>
      </trkpt>
      <trkpt lat="47.489636" lon="7.849127">
        <ele>498.580237</ele>
        <time>2021-11-13T10:27:03.729Z</time>
      </trkpt>
      <trkpt lat="47.489714" lon="7.849112">
        <ele>499.173797</ele>
        <time>2021-11-13T10:27:09.191Z</time>
      </trkpt>
      <trkpt lat="47.489830" lon="7.849115">
        <ele>500.049302</ele>
        <time>2021-11-13T10:27:13.675Z</time>
      </trkpt>
      <trkpt lat="47.490088" lon="7.849193">
        <ele>502.422293</ele>
        <time>2021-11-13T10:27:28.210Z</time>
      </trkpt>
      <trkpt lat="47.490465" lon="7.849456">
        <ele>506.461972</ele>
        <time>2021-11-13T10:27:49.270Z</time>
      </trkpt>
      <trkpt lat="47.490655" lon="7.849589">
        <ele>508.499152</ele>
        <time>2021-11-13T10:27:57.254Z</time>
      </trkpt>
      <trkpt lat="47.490721" lon="7.849614">
        <ele>509.159474</ele>
        <time>2021-11-13T10:28:01.579Z</time>
      </trkpt>
      <trkpt lat="47.490767" lon="7.849632">
        <ele>509.620648</ele>
        <time>2021-11-13T10:28:03.756Z</time>
      </trkpt>
      <trkpt lat="47.491187" lon="7.849815">
        <ele>513.864239</ele>
        <time>2021-11-13T10:28:29.648Z</time>
      </trkpt>
      <trkpt lat="47.492141" lon="7.850226">
        <ele>524.702029</ele>
        <time>2021-11-13T10:29:27.589Z</time>
      </trkpt>
      <trkpt lat="47.492293" lon="7.850293">
        <ele>526.584113</ele>
        <time>2021-11-13T10:29:40.271Z</time>
      </trkpt>
      <trkpt lat="47.492414" lon="7.850375">
        <ele>528.163397</ele>
        <time>2021-11-13T10:29:49.331Z</time>
      </trkpt>
      <trkpt lat="47.492541" lon="7.850563">
        <ele>530.295011</ele>
        <time>2021-11-13T10:30:00.786Z</time>
      </trkpt>
      <trkpt lat="47.492601" lon="7.850751">
        <ele>531.962156</ele>
        <time>2021-11-13T10:30:10.776Z</time>
      </trkpt>
      <trkpt lat="47.492659" lon="7.851591">
        <ele>538.732636</ele>
        <time>2021-11-13T10:30:44.613Z</time>
      </trkpt>
      <trkpt lat="47.492688" lon="7.851670">
        <ele>539.453532</ele>
        <time>2021-11-13T10:30:49.760Z</time>
      </trkpt>
      <trkpt lat="47.492804" lon="7.851886">
        <ele>541.189986</ele>
        <time>2021-11-13T10:30:59.498Z</time>
      </trkpt>
      <trkpt lat="47.492920" lon="7.852087">
        <ele>542.852757</ele>
        <time>2021-11-13T10:31:11.157Z</time>
      </trkpt>
      <trkpt lat="47.493033" lon="7.852285">
        <ele>544.483062</ele>
        <time>2021-11-13T10:31:19.773Z</time>
      </trkpt>
      <trkpt lat="47.493043" lon="7.852307">
        <ele>544.649849</ele>
        <time>2021-11-13T10:31:21.169Z</time>
      </trkpt>
      <trkpt lat="47.493734" lon="7.854034">
        <ele>557.035008</ele>
        <time>2021-11-13T10:32:26.374Z</time>
      </trkpt>
      <trkpt lat="47.494057" lon="7.854507">
        <ele>560.319027</ele>
        <time>2021-11-13T10:32:50.844Z</time>
      </trkpt>
      <trkpt lat="47.494198" lon="7.854677">
        <ele>561.633424</ele>
        <time>2021-11-13T10:32:58.266Z</time>
      </trkpt>
      <trkpt lat="47.494366" lon="7.854877">
        <ele>563.191668</ele>
        <time>2021-11-13T10:33:10.688Z</time>
      </trkpt>
      <trkpt lat="47.494791" lon="7.855375">
        <ele>567.109422</ele>
        <time>2021-11-13T10:33:30.379Z</time>
      </trkpt>
      <trkpt lat="47.494903" lon="7.855508">
        <ele>568.147227</ele>
        <time>2021-11-13T10:33:38.409Z</time>
      </trkpt>
      <trkpt lat="47.495162" lon="7.855728">
        <ele>569.049360</ele>
        <time>2021-11-13T10:33:46.122Z</time>
      </trkpt>
      <trkpt lat="47.495219" lon="7.855764">
        <ele>568.987604</ele>
        <time>2021-11-13T10:33:50.749Z</time>
      </trkpt>
      <trkpt lat="47.495339" lon="7.855822">
        <ele>568.861811</ele>
        <time>2021-11-13T10:33:53.570Z</time>
      </trkpt>
      <trkpt lat="47.495626" lon="7.855911">
        <ele>568.569609</ele>
        <time>2021-11-13T10:34:02.002Z</time>
      </trkpt>
      <trkpt lat="47.495682" lon="7.855928">
        <ele>568.512645</ele>
        <time>2021-11-13T10:34:02.667Z</time>
      </trkpt>
      <trkpt lat="47.495742" lon="7.855769">
        <ele>568.390029</ele>
        <time>2021-11-13T10:34:04.421Z</time>
      </trkpt>
      <trkpt lat="47.495962" lon="7.855400">
        <ele>568.058697</ele>
        <time>2021-11-13T10:34:10.375Z</time>
      </trkpt>
      <trkpt lat="47.496291" lon="7.855054">
        <ele>567.656518</ele>
        <time>2021-11-13T10:34:16.142Z</time>
      </trkpt>
      <trkpt lat="47.497386" lon="7.854753">
        <ele>561.250008</ele>
        <time>2021-11-13T10:34:30.076Z</time>
      </trkpt>
      <trkpt lat="47.497996" lon="7.854842">
        <ele>556.888352</ele>
        <time>2021-11-13T10:34:37.981Z</time>
      </trkpt>
      <trkpt lat="47.498034" lon="7.854847">
        <ele>556.616887</ele>
        <time>2021-11-13T10:34:38.417Z</time>
      </trkpt>
      <trkpt lat="47.498061" lon="7.854851">
        <ele>556.423801</ele>
        <time>2021-11-13T10:34:38.777Z</time>
      </trkpt>
      <trkpt lat="47.498499" lon="7.854914">
        <ele>553.839645</ele>
        <time>2021-11-13T10:34:44.539Z</time>
      </trkpt>
      <trkpt lat="47.498600" lon="7.854805">
        <ele>553.319469</ele>
        <time>2021-11-13T10:34:46.252Z</time>
      </trkpt>
      <trkpt lat="47.498844" lon="7.854653">
        <ele>552.217789</ele>
        <time>2021-11-13T10:34:49.734Z</time>
      </trkpt>
      <trkpt lat="47.498934" lon="7.854576">
        <ele>551.785185</ele>
        <time>2021-11-13T10:34:51.226Z</time>
      </trkpt>
      <trkpt lat="47.499091" lon="7.854535">
        <ele>551.121733</ele>
        <time>2021-11-13T10:34:53.280Z</time>
      </trkpt>
      <trkpt lat="47.499815" lon="7.854405">
        <ele>548.086696</ele>
        <time>2021-11-13T10:35:03.836Z</time>
      </trkpt>
      <trkpt lat="47.500046" lon="7.854421">
        <ele>547.125146</ele>
        <time>2021-11-13T10:35:07.508Z</time>
      </trkpt>
      <trkpt lat="47.502338" lon="7.854924">
        <ele>545.013349</ele>
        <time>2021-11-13T10:35:48.906Z</time>
      </trkpt>
      <trkpt lat="47.502566" lon="7.854916">
        <ele>544.865746</ele>
        <time>2021-11-13T10:35:53.718Z</time>
      </trkpt>
      <trkpt lat="47.502908" lon="7.854689">
        <ele>544.623172</ele>
        <time>2021-11-13T10:36:01.225Z</time>
      </trkpt>
      <trkpt lat="47.503269" lon="7.854422">
        <ele>544.361994</ele>
        <time>2021-11-13T10:36:08.780Z</time>
      </trkpt>
      <trkpt lat="47.503693" lon="7.854148">
        <ele>543.733645</ele>
        <time>2021-11-13T10:36:16.473Z</time>
      </trkpt>
      <trkpt lat="47.504150" lon="7.853972">
        <ele>542.606605</ele>
        <time>2021-11-13T10:36:23.833Z</time>
      </trkpt>
      <trkpt lat="47.504477" lon="7.853819">
        <ele>541.788090</ele>
        <time>2021-11-13T10:36:29.138Z</time>
      </trkpt>
      <trkpt lat="47.505250" lon="7.853383">
        <ele>539.866452</ele>
        <time>2021-11-13T10:36:41.028Z</time>
      </trkpt>
      <trkpt lat="47.505215" lon="7.852914">
        <ele>539.617384</ele>
        <time>2021-11-13T10:36:44.380Z</time>
      </trkpt>
      <trkpt lat="47.505145" lon="7.852200">
        <ele>539.236550</ele>
        <time>2021-11-13T10:36:49.977Z</time>
      </trkpt>
      <trkpt lat="47.504980" lon="7.851535">
        <ele>538.862599</ele>
        <time>2021-11-13T10:36:56.447Z</time>
      </trkpt>
      <trkpt lat="47.504903" lon="7.851306">
        <ele>538.727574</ele>
        <time>2021-11-13T10:36:58.813Z</time>
      </trkpt>
      <trkpt lat="47.504851" lon="7.851192">
        <ele>538.654965</ele>
        <time>2021-11-13T10:37:01.374Z</time>
      </trkpt>
      <trkpt lat="47.504672" lon="7.850987">
        <ele>538.506913</ele>
        <time>2021-11-13T10:37:05.574Z</time>
      </trkpt>
      <trkpt lat="47.504357" lon="7.850973">
        <ele>539.092774</ele>
        <time>2021-11-13T10:37:12.674Z</time>
      </trkpt>
      <trkpt lat="47.504239" lon="7.850874">
        <ele>539.344924</ele>
        <time>2021-11-13T10:37:15.854Z</time>
      </trkpt>
      <trkpt lat="47.503893" lon="7.849807">
        <ele>540.831303</ele>
        <time>2021-11-13T10:37:35.916Z</time>
      </trkpt>
      <trkpt lat="47.503641" lon="7.848945">
        <ele>541.834513</ele>
        <time>2021-11-13T10:37:50.154Z</time>
      </trkpt>
      <trkpt lat="47.503484" lon="7.848394">
        <ele>541.851664</ele>
        <time>2021-11-13T10:37:57.299Z</time>
      </trkpt>
      <trkpt lat="47.503091" lon="7.847553">
        <ele>541.880991</ele>
        <time>2021-11-13T10:38:06.381Z</time>
      </trkpt>
      <trkpt lat="47.503052" lon="7.847473">
        <ele>541.883821</ele>
        <time>2021-11-13T10:38:08.119Z</time>
      </trkpt>
      <trkpt lat="47.503023" lon="7.847369">
        <ele>541.887048</ele>
        <time>2021-11-13T10:38:08.909Z</time>
      </trkpt>
      <trkpt lat="47.503044" lon="7.846999">
        <ele>541.897696</ele>
        <time>2021-11-13T10:38:12.397Z</time>
      </trkpt>
      <trkpt lat="47.503134" lon="7.846872">
        <ele>541.902975</ele>
        <time>2021-11-13T10:38:13.915Z</time>
      </trkpt>
      <trkpt lat="47.503256" lon="7.846808">
        <ele>541.969154</ele>
        <time>2021-11-13T10:38:15.394Z</time>
      </trkpt>
      <trkpt lat="47.503628" lon="7.846708">
        <ele>542.551698</ele>
        <time>2021-11-13T10:38:20.331Z</time>
      </trkpt>
      <trkpt lat="47.504232" lon="7.846590">
        <ele>543.490397</ele>
        <time>2021-11-13T10:38:28.965Z</time>
      </trkpt>
      <trkpt lat="47.504599" lon="7.846703">
        <ele>544.067965</ele>
        <time>2021-11-13T10:38:39.193Z</time>
      </trkpt>
      <trkpt lat="47.504849" lon="7.846705">
        <ele>544.453165</ele>
        <time>2021-11-13T10:38:45.488Z</time>
      </trkpt>
      <trkpt lat="47.505754" lon="7.846083">
        <ele>550.131275</ele>
        <time>2021-11-13T10:39:23.865Z</time>
      </trkpt>
      <trkpt lat="47.505835" lon="7.845960">
        <ele>550.874127</ele>
        <time>2021-11-13T10:39:29.570Z</time>
      </trkpt>
      <trkpt lat="47.505847" lon="7.845902">
        <ele>551.136451</ele>
        <time>2021-11-13T10:39:33.824Z</time>
      </trkpt>
      <trkpt lat="47.506032" lon="7.844375">
        <ele>557.262251</ele>
        <time>2021-11-13T10:40:41.805Z</time>
      </trkpt>
      <trkpt lat="47.506130" lon="7.843433">
        <ele>559.929727</ele>
        <time>2021-11-13T10:41:20.787Z</time>
      </trkpt>
      <trkpt lat="47.506150" lon="7.843312">
        <ele>560.278362</ele>
        <time>2021-11-13T10:41:23.530Z</time>
      </trkpt>
      <trkpt lat="47.506374" lon="7.841365">
        <ele>563.871499</ele>
        <time>2021-11-13T10:42:00.539Z</time>
      </trkpt>
      <trkpt lat="47.505959" lon="7.841291">
        <ele>564.053280</ele>
        <time>2021-11-13T10:42:08.999Z</time>
      </trkpt>
      <trkpt lat="47.505358" lon="7.841213">
        <ele>564.315646</ele>
        <time>2021-11-13T10:42:21.268Z</time>
      </trkpt>
      <trkpt lat="47.505239" lon="7.841203">
        <ele>564.367481</ele>
        <time>2021-11-13T10:42:23.434Z</time>
      </trkpt>
      <trkpt lat="47.504959" lon="7.841240">
        <ele>564.159784</ele>
        <time>2021-11-13T10:42:29.140Z</time>
      </trkpt>
      <trkpt lat="47.503768" lon="7.841356">
        <ele>561.955776</ele>
        <time>2021-11-13T10:42:49.039Z</time>
      </trkpt>
      <trkpt lat="47.503614" lon="7.841305">
        <ele>561.664377</ele>
        <time>2021-11-13T10:42:51.590Z</time>
      </trkpt>
      <trkpt lat="47.503565" lon="7.841261">
        <ele>561.558549</ele>
        <time>2021-11-13T10:42:52.445Z</time>
      </trkpt>
      <trkpt lat="47.503365" lon="7.840954">
        <ele>560.870492</ele>
        <time>2021-11-13T10:42:56.486Z</time>
      </trkpt>
      <trkpt lat="47.503247" lon="7.840737">
        <ele>559.836780</ele>
        <time>2021-11-13T10:42:59.160Z</time>
      </trkpt>
      <trkpt lat="47.503203" lon="7.840615">
        <ele>559.323582</ele>
        <time>2021-11-13T10:43:00.340Z</time>
      </trkpt>
      <trkpt lat="47.503029" lon="7.840222">
        <ele>557.579925</ele>
        <time>2021-11-13T10:43:04.646Z</time>
      </trkpt>
      <trkpt lat="47.502867" lon="7.839629">
        <ele>555.206276</ele>
        <time>2021-11-13T10:43:10.322Z</time>
      </trkpt>
      <trkpt lat="47.502712" lon="7.839407">
        <ele>554.021547</ele>
        <time>2021-11-13T10:43:13.225Z</time>
      </trkpt>
      <trkpt lat="47.502604" lon="7.839292">
        <ele>553.290753</ele>
        <time>2021-11-13T10:43:14.872Z</time>
      </trkpt>
      <trkpt lat="47.502464" lon="7.839247">
        <ele>552.503804</ele>
        <time>2021-11-13T10:43:16.745Z</time>
      </trkpt>
      <trkpt lat="47.502118" lon="7.839230">
        <ele>550.600803</ele>
        <time>2021-11-13T10:43:21.195Z</time>
      </trkpt>
      <trkpt lat="47.501875" lon="7.839304">
        <ele>549.235066</ele>
        <time>2021-11-13T10:43:24.437Z</time>
      </trkpt>
      <trkpt lat="47.500610" lon="7.840107">
        <ele>541.657871</ele>
        <time>2021-11-13T10:43:42.764Z</time>
      </trkpt>
      <trkpt lat="47.500490" lon="7.840175">
        <ele>541.099317</ele>
        <time>2021-11-13T10:43:44.506Z</time>
      </trkpt>
      <trkpt lat="47.500334" lon="7.840257">
        <ele>540.551156</ele>
        <time>2021-11-13T10:43:46.887Z</time>
      </trkpt>
      <trkpt lat="47.499541" lon="7.840552">
        <ele>537.843666</ele>
        <time>2021-11-13T10:43:58.712Z</time>
      </trkpt>
      <trkpt lat="47.499316" lon="7.840601">
        <ele>537.090611</ele>
        <time>2021-11-13T10:44:02.050Z</time>
      </trkpt>
      <trkpt lat="47.499138" lon="7.840659">
        <ele>536.487094</ele>
        <time>2021-11-13T10:44:04.786Z</time>
      </trkpt>
      <trkpt lat="47.498763" lon="7.840766">
        <ele>535.199787</ele>
        <time>2021-11-13T10:44:10.764Z</time>
      </trkpt>
      <trkpt lat="47.498156" lon="7.841079">
        <ele>532.739286</ele>
        <time>2021-11-13T10:44:20.484Z</time>
      </trkpt>
      <trkpt lat="47.497488" lon="7.841201">
        <ele>530.162855</ele>
        <time>2021-11-13T10:44:30.092Z</time>
      </trkpt>
      <trkpt lat="47.497385" lon="7.841209">
        <ele>529.768039</ele>
        <time>2021-11-13T10:44:31.517Z</time>
      </trkpt>
      <trkpt lat="47.497204" lon="7.841203">
        <ele>529.075015</ele>
        <time>2021-11-13T10:44:33.890Z</time>
      </trkpt>
      <trkpt lat="47.497103" lon="7.841096">
        <ele>528.599566</ele>
        <time>2021-11-13T10:44:35.550Z</time>
      </trkpt>
      <trkpt lat="47.496881" lon="7.840859">
        <ele>526.665325</ele>
        <time>2021-11-13T10:44:39.126Z</time>
      </trkpt>
      <trkpt lat="47.496495" lon="7.840384">
        <ele>522.914791</ele>
        <time>2021-11-13T10:44:45.603Z</time>
      </trkpt>
      <trkpt lat="47.496136" lon="7.839927">
        <ele>519.376961</ele>
        <time>2021-11-13T10:44:51.627Z</time>
      </trkpt>
      <trkpt lat="47.496134" lon="7.839925">
        <ele>519.358927</ele>
        <time>2021-11-13T10:44:51.674Z</time>
      </trkpt>
      <trkpt lat="47.495494" lon="7.839107">
        <ele>513.095039</ele>
        <time>2021-11-13T10:45:02.180Z</time>
      </trkpt>
      <trkpt lat="47.494823" lon="7.838533">
        <ele>507.460597</ele>
        <time>2021-11-13T10:45:11.905Z</time>
      </trkpt>
      <trkpt lat="47.494673" lon="7.838344">
        <ele>506.028422</ele>
        <time>2021-11-13T10:45:14.533Z</time>
      </trkpt>
      <trkpt lat="47.494626" lon="7.838257">
        <ele>505.481259</ele>
        <time>2021-11-13T10:45:15.438Z</time>
      </trkpt>
      <trkpt lat="47.494536" lon="7.837978">
        <ele>503.962596</ele>
        <time>2021-11-13T10:45:18.270Z</time>
      </trkpt>
      <trkpt lat="47.494516" lon="7.837806">
        <ele>503.105291</ele>
        <time>2021-11-13T10:45:19.784Z</time>
      </trkpt>
      <trkpt lat="47.494593" lon="7.837800">
        <ele>502.544718</ele>
        <time>2021-11-13T10:45:20.768Z</time>
      </trkpt>
      <trkpt lat="47.494701" lon="7.837752">
        <ele>501.807447</ele>
        <time>2021-11-13T10:45:22.353Z</time>
      </trkpt>
      <trkpt lat="47.494860" lon="7.837661">
        <ele>500.988196</ele>
        <time>2021-11-13T10:45:24.605Z</time>
      </trkpt>
      <trkpt lat="47.495516" lon="7.837485">
        <ele>497.784264</ele>
        <time>2021-11-13T10:45:33.742Z</time>
      </trkpt>
      <trkpt lat="47.495686" lon="7.837455">
        <ele>496.961505</ele>
        <time>2021-11-13T10:45:35.898Z</time>
      </trkpt>
      <trkpt lat="47.496083" lon="7.837670">
        <ele>494.929926</ele>
        <time>2021-11-13T10:45:41.816Z</time>
      </trkpt>
      <trkpt lat="47.496520" lon="7.837694">
        <ele>493.071637</ele>
        <time>2021-11-13T10:45:48.018Z</time>
      </trkpt>
      <trkpt lat="47.496868" lon="7.837844">
        <ele>492.183635</ele>
        <time>2021-11-13T10:45:53.180Z</time>
      </trkpt>
      <trkpt lat="47.496962" lon="7.837850">
        <ele>491.953125</ele>
        <time>2021-11-13T10:45:54.841Z</time>
      </trkpt>
      <trkpt lat="47.497006" lon="7.837744">
        <ele>491.747198</ele>
        <time>2021-11-13T10:45:55.953Z</time>
      </trkpt>
      <trkpt lat="47.497050" lon="7.837488">
        <ele>491.309955</ele>
        <time>2021-11-13T10:45:58.938Z</time>
      </trkpt>
      <trkpt lat="47.496981" lon="7.836871">
        <ele>490.274764</ele>
        <time>2021-11-13T10:46:05.860Z</time>
      </trkpt>
      <trkpt lat="47.497024" lon="7.836771">
        <ele>490.078557</ele>
        <time>2021-11-13T10:46:07.053Z</time>
      </trkpt>
      <trkpt lat="47.497283" lon="7.836569">
        <ele>489.361315</ele>
        <time>2021-11-13T10:46:12.186Z</time>
      </trkpt>
      <trkpt lat="47.497488" lon="7.836415">
        <ele>488.713747</ele>
        <time>2021-11-13T10:46:15.731Z</time>
      </trkpt>
      <trkpt lat="47.497663" lon="7.836246">
        <ele>487.841826</ele>
        <time>2021-11-13T10:46:19.718Z</time>
      </trkpt>
      <trkpt lat="47.498371" lon="7.835942">
        <ele>484.765699</ele>
        <time>2021-11-13T10:46:30.000Z</time>
      </trkpt>
      <trkpt lat="47.499070" lon="7.835763">
        <ele>481.805596</ele>
        <time>2021-11-13T10:46:39.669Z</time>
      </trkpt>
      <trkpt lat="47.499117" lon="7.835753">
        <ele>481.607459</ele>
        <time>2021-11-13T10:46:40.376Z</time>
      </trkpt>
      <trkpt lat="47.499268" lon="7.835669">
        <ele>480.169101</ele>
        <time>2021-11-13T10:46:42.575Z</time>
      </trkpt>
      <trkpt lat="47.499349" lon="7.835598">
        <ele>479.147876</ele>
        <time>2021-11-13T10:46:43.689Z</time>
      </trkpt>
      <trkpt lat="47.499509" lon="7.835360">
        <ele>476.687121</ele>
        <time>2021-11-13T10:46:46.862Z</time>
      </trkpt>
      <trkpt lat="47.499533" lon="7.835290">
        <ele>476.111807</ele>
        <time>2021-11-13T10:46:47.495Z</time>
      </trkpt>
      <trkpt lat="47.499840" lon="7.834402">
        <ele>468.801027</ele>
        <time>2021-11-13T10:46:55.579Z</time>
      </trkpt>
      <trkpt lat="47.499905" lon="7.833427">
        <ele>461.539433</ele>
        <time>2021-11-13T10:47:03.318Z</time>
      </trkpt>
      <trkpt lat="47.499893" lon="7.833272">
        <ele>460.064684</ele>
        <time>2021-11-13T10:47:04.584Z</time>
      </trkpt>
      <trkpt lat="47.499956" lon="7.833147">
        <ele>458.590531</ele>
        <time>2021-11-13T10:47:05.798Z</time>
      </trkpt>
      <trkpt lat="47.500316" lon="7.832383">
        <ele>449.785671</ele>
        <time>2021-11-13T10:47:13.321Z</time>
      </trkpt>
      <trkpt lat="47.500938" lon="7.831417">
        <ele>437.171535</ele>
        <time>2021-11-13T10:47:23.809Z</time>
      </trkpt>
      <trkpt lat="47.501317" lon="7.830941">
        <ele>431.339490</ele>
        <time>2021-11-13T10:47:29.710Z</time>
      </trkpt>
      <trkpt lat="47.501426" lon="7.830651">
        <ele>428.742817</ele>
        <time>2021-11-13T10:47:32.424Z</time>
      </trkpt>
      <trkpt lat="47.501508" lon="7.830397">
        <ele>426.540115</ele>
        <time>2021-11-13T10:47:34.692Z</time>
      </trkpt>
      <trkpt lat="47.501570" lon="7.830119">
        <ele>424.249428</ele>
        <time>2021-11-13T10:47:37.068Z</time>
      </trkpt>
      <trkpt lat="47.501872" lon="7.828923">
        <ele>414.878163</ele>
        <time>2021-11-13T10:47:47.527Z</time>
      </trkpt>
      <trkpt lat="47.501916" lon="7.828447">
        <ele>412.535223</ele>
        <time>2021-11-13T10:47:51.559Z</time>
      </trkpt>
      <trkpt lat="47.501935" lon="7.828179">
        <ele>411.221090</ele>
        <time>2021-11-13T10:47:53.846Z</time>
      </trkpt>
      <trkpt lat="47.501972" lon="7.827862">
        <ele>409.652274</ele>
        <time>2021-11-13T10:47:56.677Z</time>
      </trkpt>
      <trkpt lat="47.502031" lon="7.827633">
        <ele>408.457053</ele>
        <time>2021-11-13T10:47:58.871Z</time>
      </trkpt>
      <trkpt lat="47.502306" lon="7.827173">
        <ele>405.461548</ele>
        <time>2021-11-13T10:48:04.264Z</time>
      </trkpt>
      <trkpt lat="47.502694" lon="7.826607">
        <ele>402.276459</ele>
        <time>2021-11-13T10:48:11.393Z</time>
      </trkpt>
      <trkpt lat="47.503059" lon="7.826259">
        <ele>400.827924</ele>
        <time>2021-11-13T10:48:17.341Z</time>
      </trkpt>
      <trkpt lat="47.503196" lon="7.826042">
        <ele>400.158484</ele>
        <time>2021-11-13T10:48:20.523Z</time>
      </trkpt>
      <trkpt lat="47.503225" lon="7.825979">
        <ele>399.986656</ele>
        <time>2021-11-13T10:48:21.186Z</time>
      </trkpt>
      <trkpt lat="47.503231" lon="7.825900">
        <ele>399.807475</ele>
        <time>2021-11-13T10:48:21.983Z</time>
      </trkpt>
      <trkpt lat="47.503225" lon="7.825809">
        <ele>399.601394</ele>
        <time>2021-11-13T10:48:22.904Z</time>
      </trkpt>
      <trkpt lat="47.503509" lon="7.825771">
        <ele>398.649988</ele>
        <time>2021-11-13T10:48:25.914Z</time>
      </trkpt>
      <trkpt lat="47.503860" lon="7.825735">
        <ele>397.476097</ele>
        <time>2021-11-13T10:48:29.742Z</time>
      </trkpt>
      <trkpt lat="47.504813" lon="7.825703">
        <ele>396.622472</ele>
        <time>2021-11-13T10:48:41.297Z</time>
      </trkpt>
      <trkpt lat="47.506147" lon="7.825028">
        <ele>396.014395</ele>
        <time>2021-11-13T10:49:04.392Z</time>
      </trkpt>
      <trkpt lat="47.507017" lon="7.824678">
        <ele>395.497309</ele>
        <time>2021-11-13T10:49:17.968Z</time>
      </trkpt>
      <trkpt lat="47.507990" lon="7.824326">
        <ele>392.895894</ele>
        <time>2021-11-13T10:49:28.752Z</time>
      </trkpt>
      <trkpt lat="47.508288" lon="7.824180">
        <ele>391.447265</ele>
        <time>2021-11-13T10:49:31.834Z</time>
      </trkpt>
      <trkpt lat="47.509075" lon="7.823456">
        <ele>387.171123</ele>
        <time>2021-11-13T10:49:40.360Z</time>
      </trkpt>
      <trkpt lat="47.509744" lon="7.823275">
        <ele>383.149866</ele>
        <time>2021-11-13T10:49:46.435Z</time>
      </trkpt>
      <trkpt lat="47.510203" lon="7.823212">
        <ele>380.369838</ele>
        <time>2021-11-13T10:49:50.655Z</time>
      </trkpt>
      <trkpt lat="47.510706" lon="7.823221">
        <ele>377.336103</ele>
        <time>2021-11-13T10:49:55.296Z</time>
      </trkpt>
      <trkpt lat="47.511863" lon="7.823271">
        <ele>373.006997</ele>
        <time>2021-11-13T10:50:06.339Z</time>
      </trkpt>
      <trkpt lat="47.512067" lon="7.823229">
        <ele>372.341984</ele>
        <time>2021-11-13T10:50:08.555Z</time>
      </trkpt>
      <trkpt lat="47.512263" lon="7.823167">
        <ele>371.694856</ele>
        <time>2021-11-13T10:50:10.689Z</time>
      </trkpt>
      <trkpt lat="47.512648" lon="7.822935">
        <ele>370.352749</ele>
        <time>2021-11-13T10:50:15.516Z</time>
      </trkpt>
      <trkpt lat="47.513483" lon="7.822231">
        <ele>369.349304</ele>
        <time>2021-11-13T10:50:28.525Z</time>
      </trkpt>
      <trkpt lat="47.514302" lon="7.821660">
        <ele>368.368658</ele>
        <time>2021-11-13T10:50:40.011Z</time>
      </trkpt>
      <trkpt lat="47.514708" lon="7.821376">
        <ele>366.728917</ele>
        <time>2021-11-13T10:50:44.658Z</time>
      </trkpt>
      <trkpt lat="47.514821" lon="7.821292">
        <ele>366.267183</ele>
        <time>2021-11-13T10:50:45.993Z</time>
      </trkpt>
      <trkpt lat="47.515036" lon="7.821090">
        <ele>365.337329</ele>
        <time>2021-11-13T10:50:48.504Z</time>
      </trkpt>
      <trkpt lat="47.515202" lon="7.820909">
        <ele>364.584503</ele>
        <time>2021-11-13T10:50:50.578Z</time>
      </trkpt>
      <trkpt lat="47.515268" lon="7.820836">
        <ele>364.283665</ele>
        <time>2021-11-13T10:50:51.329Z</time>
      </trkpt>
      <trkpt lat="47.515469" lon="7.820644">
        <ele>363.410170</ele>
        <time>2021-11-13T10:50:53.703Z</time>
      </trkpt>
      <trkpt lat="47.515587" lon="7.820532">
        <ele>362.898328</ele>
        <time>2021-11-13T10:50:54.984Z</time>
      </trkpt>
      <trkpt lat="47.516786" lon="7.819655">
        <ele>357.357344</ele>
        <time>2021-11-13T10:51:07.440Z</time>
      </trkpt>
      <trkpt lat="47.517657" lon="7.818442">
        <ele>353.286447</ele>
        <time>2021-11-13T10:51:19.858Z</time>
      </trkpt>
      <trkpt lat="47.518035" lon="7.818005">
        <ele>352.287917</ele>
        <time>2021-11-13T10:51:25.249Z</time>
      </trkpt>
      <trkpt lat="47.518220" lon="7.817823">
        <ele>351.825453</ele>
        <time>2021-11-13T10:51:27.782Z</time>
      </trkpt>
      <trkpt lat="47.518481" lon="7.817598">
        <ele>351.196622</ele>
        <time>2021-11-13T10:51:31.233Z</time>
      </trkpt>
      <trkpt lat="47.518941" lon="7.817228">
        <ele>350.024104</ele>
        <time>2021-11-13T10:51:37.028Z</time>
      </trkpt>
      <trkpt lat="47.519453" lon="7.816861">
        <ele>348.604380</ele>
        <time>2021-11-13T10:51:43.220Z</time>
      </trkpt>
      <trkpt lat="47.519807" lon="7.816661">
        <ele>347.658726</ele>
        <time>2021-11-13T10:51:47.155Z</time>
      </trkpt>
      <trkpt lat="47.519959" lon="7.816575">
        <ele>347.252608</ele>
        <time>2021-11-13T10:51:48.889Z</time>
      </trkpt>
      <trkpt lat="47.520002" lon="7.816556">
        <ele>347.140610</ele>
        <time>2021-11-13T10:51:49.333Z</time>
      </trkpt>
      <trkpt lat="47.520578" lon="7.816306">
        <ele>345.592268</ele>
        <time>2021-11-13T10:51:55.459Z</time>
      </trkpt>
      <trkpt lat="47.521028" lon="7.816163">
        <ele>344.295716</ele>
        <time>2021-11-13T10:52:00.185Z</time>
      </trkpt>
      <trkpt lat="47.521087" lon="7.816144">
        <ele>344.125622</ele>
        <time>2021-11-13T10:52:00.745Z</time>
      </trkpt>
      <trkpt lat="47.521199" lon="7.816108">
        <ele>343.802761</ele>
        <time>2021-11-13T10:52:01.948Z</time>
      </trkpt>
      <trkpt lat="47.521383" lon="7.816075">
        <ele>343.280629</ele>
        <time>2021-11-13T10:52:03.914Z</time>
      </trkpt>
      <trkpt lat="47.521699" lon="7.816019">
        <ele>342.384077</ele>
        <time>2021-11-13T10:52:07.202Z</time>
      </trkpt>
      <trkpt lat="47.521870" lon="7.815989">
        <ele>341.898986</ele>
        <time>2021-11-13T10:52:08.957Z</time>
      </trkpt>
      <trkpt lat="47.522090" lon="7.815952">
        <ele>341.275242</ele>
        <time>2021-11-13T10:52:11.445Z</time>
      </trkpt>
      <trkpt lat="47.523608" lon="7.815695">
        <ele>337.296855</ele>
        <time>2021-11-13T10:52:27.511Z</time>
      </trkpt>
      <trkpt lat="47.523730" lon="7.815653">
        <ele>336.972782</ele>
        <time>2021-11-13T10:52:28.822Z</time>
      </trkpt>
      <trkpt lat="47.523757" lon="7.815629">
        <ele>336.891305</ele>
        <time>2021-11-13T10:52:29.105Z</time>
      </trkpt>
      <trkpt lat="47.523836" lon="7.814923">
        <ele>335.703555</ele>
        <time>2021-11-13T10:52:34.338Z</time>
      </trkpt>
      <trkpt lat="47.523994" lon="7.814691">
        <ele>335.181531</ele>
        <time>2021-11-13T10:52:36.626Z</time>
      </trkpt>
      <trkpt lat="47.524032" lon="7.814643">
        <ele>335.064350</ele>
        <time>2021-11-13T10:52:37.137Z</time>
      </trkpt>
      <trkpt lat="47.524286" lon="7.814362">
        <ele>334.320501</ele>
        <time>2021-11-13T10:52:40.471Z</time>
      </trkpt>
      <trkpt lat="47.524601" lon="7.814100">
        <ele>333.472879</ele>
        <time>2021-11-13T10:52:44.246Z</time>
      </trkpt>
      <trkpt lat="47.524645" lon="7.814069">
        <ele>333.358561</ele>
        <time>2021-11-13T10:52:44.771Z</time>
      </trkpt>
      <trkpt lat="47.524963" lon="7.813836">
        <ele>332.526165</ele>
        <time>2021-11-13T10:52:48.707Z</time>
      </trkpt>
      <trkpt lat="47.524982" lon="7.813822">
        <ele>332.476375</ele>
        <time>2021-11-13T10:52:48.947Z</time>
      </trkpt>
      <trkpt lat="47.525103" lon="7.813754">
        <ele>332.172738</ele>
        <time>2021-11-13T10:52:50.433Z</time>
      </trkpt>
      <trkpt lat="47.525265" lon="7.813766">
        <ele>331.968110</ele>
        <time>2021-11-13T10:52:52.152Z</time>
      </trkpt>
      <trkpt lat="47.525640" lon="7.813941">
        <ele>331.586094</ele>
        <time>2021-11-13T10:52:56.694Z</time>
      </trkpt>
      <trkpt lat="47.525829" lon="7.814027">
        <ele>331.393986</ele>
        <time>2021-11-13T10:52:59.031Z</time>
      </trkpt>
      <trkpt lat="47.525874" lon="7.814072">
        <ele>331.341229</ele>
        <time>2021-11-13T10:52:59.647Z</time>
      </trkpt>
      <trkpt lat="47.526135" lon="7.814494">
        <ele>330.965778</ele>
        <time>2021-11-13T10:53:04.304Z</time>
      </trkpt>
      <trkpt lat="47.526394" lon="7.814809">
        <ele>330.640145</ele>
        <time>2021-11-13T10:53:08.621Z</time>
      </trkpt>
      <trkpt lat="47.526478" lon="7.814853">
        <ele>330.553575</ele>
        <time>2021-11-13T10:53:09.874Z</time>
      </trkpt>
      <trkpt lat="47.526579" lon="7.814859">
        <ele>330.455363</ele>
        <time>2021-11-13T10:53:11.430Z</time>
      </trkpt>
      <trkpt lat="47.526655" lon="7.814822">
        <ele>330.377633</ele>
        <time>2021-11-13T10:53:12.546Z</time>
      </trkpt>
      <trkpt lat="47.526665" lon="7.814850">
        <ele>330.356852</ele>
        <time>2021-11-13T10:53:12.828Z</time>
      </trkpt>
      <trkpt lat="47.527105" lon="7.815211">
        <ele>330.988995</ele>
        <time>2021-11-13T10:53:21.143Z</time>
      </trkpt>
      <trkpt lat="47.527153" lon="7.815269">
        <ele>331.070314</ele>
        <time>2021-11-13T10:53:22.326Z</time>
      </trkpt>
      <trkpt lat="47.527206" lon="7.815349">
        <ele>331.169653</ele>
        <time>2021-11-13T10:53:23.929Z</time>
      </trkpt>
      <trkpt lat="47.527292" lon="7.815550">
        <ele>331.380566</ele>
        <time>2021-11-13T10:53:26.958Z</time>
      </trkpt>
      <trkpt lat="47.527320" lon="7.815661">
        <ele>331.485593</ele>
        <time>2021-11-13T10:53:28.705Z</time>
      </trkpt>
      <trkpt lat="47.527346" lon="7.815799">
        <ele>331.612582</ele>
        <time>2021-11-13T10:53:30.880Z</time>
      </trkpt>
      <trkpt lat="47.527361" lon="7.815943">
        <ele>331.741727</ele>
        <time>2021-11-13T10:53:32.923Z</time>
      </trkpt>
      <trkpt lat="47.527362" lon="7.815959">
        <ele>331.755970</ele>
        <time>2021-11-13T10:53:33.135Z</time>
      </trkpt>
      <trkpt lat="47.527366" lon="7.816038">
        <ele>331.826188</ele>
        <time>2021-11-13T10:53:34.206Z</time>
      </trkpt>
      <trkpt lat="47.527376" lon="7.816175">
        <ele>331.948327</ele>
        <time>2021-11-13T10:53:36.255Z</time>
      </trkpt>
      <trkpt lat="47.527388" lon="7.816407">
        <ele>332.154564</ele>
        <time>2021-11-13T10:53:39.957Z</time>
      </trkpt>
      <trkpt lat="47.527432" lon="7.817173">
        <ele>332.930627</ele>
        <time>2021-11-13T10:53:52.114Z</time>
      </trkpt>
      <trkpt lat="47.527471" lon="7.817746">
        <ele>333.812560</ele>
        <time>2021-11-13T10:54:01.588Z</time>
      </trkpt>
      <trkpt lat="47.527477" lon="7.817911">
        <ele>334.065606</ele>
        <time>2021-11-13T10:54:04.177Z</time>
      </trkpt>
      <trkpt lat="47.527477" lon="7.818068">
        <ele>334.306034</ele>
        <time>2021-11-13T10:54:06.370Z</time>
      </trkpt>
      <trkpt lat="47.527466" lon="7.818406">
        <ele>334.824244</ele>
        <time>2021-11-13T10:54:11.970Z</time>
      </trkpt>
      <trkpt lat="47.527455" lon="7.818544">
        <ele>335.037044</ele>
        <time>2021-11-13T10:54:13.714Z</time>
      </trkpt>
      <trkpt lat="47.527408" lon="7.818945">
        <ele>335.660314</ele>
        <time>2021-11-13T10:54:19.942Z</time>
      </trkpt>
      <trkpt lat="47.527349" lon="7.819451">
        <ele>336.446667</ele>
        <time>2021-11-13T10:54:28.237Z</time>
      </trkpt>
      <trkpt lat="47.527327" lon="7.819619">
        <ele>336.708734</ele>
        <time>2021-11-13T10:54:30.591Z</time>
      </trkpt>
      <trkpt lat="47.527283" lon="7.819942">
        <ele>337.827620</ele>
        <time>2021-11-13T10:54:36.994Z</time>
      </trkpt>
      <trkpt lat="47.527258" lon="7.820150">
        <ele>338.615231</ele>
        <time>2021-11-13T10:54:40.130Z</time>
      </trkpt>
      <trkpt lat="47.527223" lon="7.820442">
        <ele>339.720824</ele>
        <time>2021-11-13T10:54:47.155Z</time>
      </trkpt>
      <trkpt lat="47.527128" lon="7.821204">
        <ele>342.609575</ele>
        <time>2021-11-13T10:55:03.711Z</time>
      </trkpt>
      <trkpt lat="47.527202" lon="7.821239">
        <ele>343.038459</ele>
        <time>2021-11-13T10:55:07.898Z</time>
      </trkpt>
      <trkpt lat="47.527273" lon="7.821332">
        <ele>343.561776</ele>
        <time>2021-11-13T10:55:12.877Z</time>
      </trkpt>
      <trkpt lat="47.527330" lon="7.821475">
        <ele>344.180834</ele>
        <time>2021-11-13T10:55:17.987Z</time>
      </trkpt>
      <trkpt lat="47.527328" lon="7.821598">
        <ele>344.639509</ele>
        <time>2021-11-13T10:55:21.805Z</time>
      </trkpt>
      <trkpt lat="47.527320" lon="7.821717">
        <ele>345.085334</ele>
        <time>2021-11-13T10:55:26.311Z</time>
      </trkpt>
      <trkpt lat="47.527306" lon="7.821963">
        <ele>346.005671</ele>
        <time>2021-11-13T10:55:35.083Z</time>
      </trkpt>
      <trkpt lat="47.527294" lon="7.822224">
        <ele>347.263386</ele>
        <time>2021-11-13T10:55:44.392Z</time>
      </trkpt>
      <trkpt lat="47.527302" lon="7.822396">
        <ele>348.589800</ele>
        <time>2021-11-13T10:55:51.109Z</time>
      </trkpt>
      <trkpt lat="47.527319" lon="7.822526">
        <ele>349.608536</ele>
        <time>2021-11-13T10:55:55.762Z</time>
      </trkpt>
      <trkpt lat="47.527440" lon="7.823003">
        <ele>353.528738</ele>
        <time>2021-11-13T10:56:15.584Z</time>
      </trkpt>
      <trkpt lat="47.527623" lon="7.823631">
        <ele>358.790933</ele>
        <time>2021-11-13T10:56:50.056Z</time>
      </trkpt>
      <trkpt lat="47.527888" lon="7.824419">
        <ele>365.563616</ele>
        <time>2021-11-13T10:57:32.285Z</time>
      </trkpt>
      <trkpt lat="47.528115" lon="7.824942">
        <ele>370.589420</ele>
        <time>2021-11-13T10:58:00.107Z</time>
      </trkpt>
      <trkpt lat="47.528196" lon="7.825074">
        <ele>372.067734</ele>
        <time>2021-11-13T10:58:11.464Z</time>
      </trkpt>
      <trkpt lat="47.528345" lon="7.825277">
        <ele>374.552818</ele>
        <time>2021-11-13T10:58:24.186Z</time>
      </trkpt>
      <trkpt lat="47.529325" lon="7.826126">
        <ele>388.488762</ele>
        <time>2021-11-13T10:59:41.327Z</time>
      </trkpt>
      <trkpt lat="47.529366" lon="7.826189">
        <ele>389.213949</ele>
        <time>2021-11-13T10:59:47.657Z</time>
      </trkpt>
      <trkpt lat="47.529587" lon="7.826488">
        <ele>392.791548</ele>
        <time>2021-11-13T11:00:08.511Z</time>
      </trkpt>
      <trkpt lat="47.529848" lon="7.826759">
        <ele>396.599196</ele>
        <time>2021-11-13T11:00:29.365Z</time>
      </trkpt>
      <trkpt lat="47.530051" lon="7.826934">
        <ele>399.405008</ele>
        <time>2021-11-13T11:00:45.098Z</time>
      </trkpt>
      <trkpt lat="47.530158" lon="7.827005">
        <ele>400.805595</ele>
        <time>2021-11-13T11:00:53.090Z</time>
      </trkpt>
      <trkpt lat="47.530339" lon="7.827141">
        <ele>403.230061</ele>
        <time>2021-11-13T11:01:07.269Z</time>
      </trkpt>
      <trkpt lat="47.530495" lon="7.827156">
        <ele>405.097478</ele>
        <time>2021-11-13T11:01:18.728Z</time>
      </trkpt>
      <trkpt lat="47.530663" lon="7.827082">
        <ele>407.191190</ele>
        <time>2021-11-13T11:01:30.849Z</time>
      </trkpt>
      <trkpt lat="47.530711" lon="7.827258">
        <ele>408.722150</ele>
        <time>2021-11-13T11:01:40.041Z</time>
      </trkpt>
      <trkpt lat="47.530778" lon="7.827416">
        <ele>410.226984</ele>
        <time>2021-11-13T11:01:46.970Z</time>
      </trkpt>
      <trkpt lat="47.530910" lon="7.827537">
        <ele>411.756421</ele>
        <time>2021-11-13T11:01:55.377Z</time>
      </trkpt>
      <trkpt lat="47.531513" lon="7.827959">
        <ele>417.746408</ele>
        <time>2021-11-13T11:02:32.843Z</time>
      </trkpt>
      <trkpt lat="47.531664" lon="7.828061">
        <ele>419.237002</ele>
        <time>2021-11-13T11:02:42.103Z</time>
      </trkpt>
      <trkpt lat="47.532227" lon="7.828686">
        <ele>425.556280</ele>
        <time>2021-11-13T11:03:14.017Z</time>
      </trkpt>
      <trkpt lat="47.532741" lon="7.829861">
        <ele>431.762315</ele>
        <time>2021-11-13T11:03:51.632Z</time>
      </trkpt>
      <trkpt lat="47.533138" lon="7.830624">
        <ele>435.729855</ele>
        <time>2021-11-13T11:04:15.520Z</time>
      </trkpt>
      <trkpt lat="47.533172" lon="7.830741">
        <ele>436.254489</ele>
        <time>2021-11-13T11:04:19.220Z</time>
      </trkpt>
      <trkpt lat="47.533205" lon="7.830904">
        <ele>436.955377</ele>
        <time>2021-11-13T11:04:23.252Z</time>
      </trkpt>
      <trkpt lat="47.533248" lon="7.831080">
        <ele>437.726277</ele>
        <time>2021-11-13T11:04:27.445Z</time>
      </trkpt>
      <trkpt lat="47.533464" lon="7.831485">
        <ele>440.195500</ele>
        <time>2021-11-13T11:04:41.029Z</time>
      </trkpt>
      <trkpt lat="47.533503" lon="7.831541">
        <ele>440.585129</ele>
        <time>2021-11-13T11:04:43.817Z</time>
      </trkpt>
      <trkpt lat="47.533606" lon="7.831667">
        <ele>441.543362</ele>
        <time>2021-11-13T11:04:49.560Z</time>
      </trkpt>
      <trkpt lat="47.533641" lon="7.831715">
        <ele>441.885512</ele>
        <time>2021-11-13T11:04:51.246Z</time>
      </trkpt>
      <trkpt lat="47.533685" lon="7.831757">
        <ele>442.260990</ele>
        <time>2021-11-13T11:04:53.899Z</time>
      </trkpt>
      <trkpt lat="47.533728" lon="7.831912">
        <ele>443.072539</ele>
        <time>2021-11-13T11:04:59.122Z</time>
      </trkpt>
      <trkpt lat="47.533787" lon="7.832819">
        <ele>447.485393</ele>
        <time>2021-11-13T11:05:29.453Z</time>
      </trkpt>
      <trkpt lat="47.533855" lon="7.833235">
        <ele>449.558244</ele>
        <time>2021-11-13T11:05:41.430Z</time>
      </trkpt>
      <trkpt lat="47.533862" lon="7.833372">
        <ele>450.223618</ele>
        <time>2021-11-13T11:05:48.590Z</time>
      </trkpt>
      <trkpt lat="47.534011" lon="7.833341">
        <ele>451.030887</ele>
        <time>2021-11-13T11:05:55.437Z</time>
      </trkpt>
      <trkpt lat="47.534141" lon="7.833324">
        <ele>451.460380</ele>
        <time>2021-11-13T11:05:59.269Z</time>
      </trkpt>
      <trkpt lat="47.534258" lon="7.833316">
        <ele>451.845837</ele>
        <time>2021-11-13T11:06:05.590Z</time>
      </trkpt>
      <trkpt lat="47.534536" lon="7.833350">
        <ele>452.763848</ele>
        <time>2021-11-13T11:06:13.636Z</time>
      </trkpt>
      <trkpt lat="47.534581" lon="7.833360">
        <ele>452.913600</ele>
        <time>2021-11-13T11:06:16.140Z</time>
      </trkpt>
      <trkpt lat="47.534869" lon="7.833423">
        <ele>453.871688</ele>
        <time>2021-11-13T11:06:23.672Z</time>
      </trkpt>
      <trkpt lat="47.535041" lon="7.833445">
        <ele>454.439846</ele>
        <time>2021-11-13T11:06:29.967Z</time>
      </trkpt>
      <trkpt lat="47.535301" lon="7.833465">
        <ele>455.296658</ele>
        <time>2021-11-13T11:06:36.531Z</time>
      </trkpt>
      <trkpt lat="47.535868" lon="7.833423">
        <ele>456.160489</ele>
        <time>2021-11-13T11:06:45.210Z</time>
      </trkpt>
      <trkpt lat="47.536091" lon="7.833355">
        <ele>455.219797</ele>
        <time>2021-11-13T11:06:47.869Z</time>
      </trkpt>
      <trkpt lat="47.536401" lon="7.833309">
        <ele>453.932558</ele>
        <time>2021-11-13T11:06:50.903Z</time>
      </trkpt>
      <trkpt lat="47.536644" lon="7.833357">
        <ele>452.919666</ele>
        <time>2021-11-13T11:06:53.244Z</time>
      </trkpt>
      <trkpt lat="47.536802" lon="7.833477">
        <ele>452.186044</ele>
        <time>2021-11-13T11:06:54.906Z</time>
      </trkpt>
      <trkpt lat="47.536897" lon="7.833599">
        <ele>451.666551</ele>
        <time>2021-11-13T11:06:56.059Z</time>
      </trkpt>
      <trkpt lat="47.537138" lon="7.834039">
        <ele>450.086102</ele>
        <time>2021-11-13T11:06:59.518Z</time>
      </trkpt>
      <trkpt lat="47.537707" lon="7.834801">
        <ele>445.551238</ele>
        <time>2021-11-13T11:07:06.532Z</time>
      </trkpt>
      <trkpt lat="47.538158" lon="7.835307">
        <ele>441.867575</ele>
        <time>2021-11-13T11:07:11.767Z</time>
      </trkpt>
      <trkpt lat="47.538222" lon="7.835464">
        <ele>441.061431</ele>
        <time>2021-11-13T11:07:12.897Z</time>
      </trkpt>
      <trkpt lat="47.538410" lon="7.837106">
        <ele>432.712263</ele>
        <time>2021-11-13T11:07:22.889Z</time>
      </trkpt>
      <trkpt lat="47.538505" lon="7.837464">
        <ele>430.568107</ele>
        <time>2021-11-13T11:07:25.175Z</time>
      </trkpt>
      <trkpt lat="47.538612" lon="7.837844">
        <ele>428.273090</ele>
        <time>2021-11-13T11:07:27.653Z</time>
      </trkpt>
      <trkpt lat="47.538712" lon="7.838169">
        <ele>426.282224</ele>
        <time>2021-11-13T11:07:29.769Z</time>
      </trkpt>
      <trkpt lat="47.538810" lon="7.838491">
        <ele>424.313410</ele>
        <time>2021-11-13T11:07:31.878Z</time>
      </trkpt>
      <trkpt lat="47.538837" lon="7.838580">
        <ele>423.769529</ele>
        <time>2021-11-13T11:07:32.459Z</time>
      </trkpt>
      <trkpt lat="47.538868" lon="7.838681">
        <ele>423.151095</ele>
        <time>2021-11-13T11:07:33.086Z</time>
      </trkpt>
      <trkpt lat="47.539226" lon="7.839805">
        <ele>414.801411</ele>
        <time>2021-11-13T11:07:40.301Z</time>
      </trkpt>
      <trkpt lat="47.539357" lon="7.840201">
        <ele>411.805748</ele>
        <time>2021-11-13T11:07:42.854Z</time>
      </trkpt>
      <trkpt lat="47.539459" lon="7.840353">
        <ele>410.349865</ele>
        <time>2021-11-13T11:07:44.103Z</time>
      </trkpt>
      <trkpt lat="47.539657" lon="7.840668">
        <ele>407.426112</ele>
        <time>2021-11-13T11:07:46.631Z</time>
      </trkpt>
      <trkpt lat="47.539702" lon="7.840734">
        <ele>406.788893</ele>
        <time>2021-11-13T11:07:47.164Z</time>
      </trkpt>
      <trkpt lat="47.540066" lon="7.841269">
        <ele>400.789299</ele>
        <time>2021-11-13T11:07:51.643Z</time>
      </trkpt>
      <trkpt lat="47.540168" lon="7.841414">
        <ele>398.968327</ele>
        <time>2021-11-13T11:07:52.819Z</time>
      </trkpt>
      <trkpt lat="47.540305" lon="7.841591">
        <ele>396.626761</ele>
        <time>2021-11-13T11:07:54.325Z</time>
      </trkpt>
      <trkpt lat="47.540531" lon="7.841825">
        <ele>393.075068</ele>
        <time>2021-11-13T11:07:56.612Z</time>
      </trkpt>
      <trkpt lat="47.540744" lon="7.841906">
        <ele>390.242482</ele>
        <time>2021-11-13T11:07:58.478Z</time>
      </trkpt>
      <trkpt lat="47.540817" lon="7.841934">
        <ele>389.271170</ele>
        <time>2021-11-13T11:07:59.106Z</time>
      </trkpt>
      <trkpt lat="47.541050" lon="7.841906">
        <ele>386.260071</ele>
        <time>2021-11-13T11:08:01.073Z</time>
      </trkpt>
      <trkpt lat="47.541351" lon="7.841740">
        <ele>382.122961</ele>
        <time>2021-11-13T11:08:03.780Z</time>
      </trkpt>
      <trkpt lat="47.541409" lon="7.841671">
        <ele>381.165389</ele>
        <time>2021-11-13T11:08:04.387Z</time>
      </trkpt>
      <trkpt lat="47.541483" lon="7.841624">
        <ele>380.130442</ele>
        <time>2021-11-13T11:08:05.072Z</time>
      </trkpt>
      <trkpt lat="47.541583" lon="7.841568">
        <ele>378.756250</ele>
        <time>2021-11-13T11:08:05.955Z</time>
      </trkpt>
      <trkpt lat="47.542097" lon="7.841420">
        <ele>372.025587</ele>
        <time>2021-11-13T11:08:10.325Z</time>
      </trkpt>
      <trkpt lat="47.542339" lon="7.841424">
        <ele>368.914700</ele>
        <time>2021-11-13T11:08:12.344Z</time>
      </trkpt>
      <trkpt lat="47.542781" lon="7.841430">
        <ele>363.232946</ele>
        <time>2021-11-13T11:08:16.047Z</time>
      </trkpt>
      <trkpt lat="47.542795" lon="7.841432">
        <ele>363.052154</ele>
        <time>2021-11-13T11:08:16.170Z</time>
      </trkpt>
      <trkpt lat="47.542890" lon="7.841434">
        <ele>361.830890</ele>
        <time>2021-11-13T11:08:16.971Z</time>
      </trkpt>
      <trkpt lat="47.543032" lon="7.841467">
        <ele>359.983284</ele>
        <time>2021-11-13T11:08:18.174Z</time>
      </trkpt>
      <trkpt lat="47.543343" lon="7.841595">
        <ele>356.787185</ele>
        <time>2021-11-13T11:08:21.036Z</time>
      </trkpt>
      <trkpt lat="47.544480" lon="7.842116">
        <ele>347.308106</ele>
        <time>2021-11-13T11:08:31.531Z</time>
      </trkpt>
      <trkpt lat="47.544939" lon="7.842229">
        <ele>343.756607</ele>
        <time>2021-11-13T11:08:35.774Z</time>
      </trkpt>
      <trkpt lat="47.545011" lon="7.842239">
        <ele>343.396614</ele>
        <time>2021-11-13T11:08:36.412Z</time>
      </trkpt>
      <trkpt lat="47.546843" lon="7.842270">
        <ele>334.731823</ele>
        <time>2021-11-13T11:08:53.805Z</time>
      </trkpt>
      <trkpt lat="47.546951" lon="7.842267">
        <ele>334.506603</ele>
        <time>2021-11-13T11:08:54.882Z</time>
      </trkpt>
      <trkpt lat="47.547259" lon="7.842269">
        <ele>333.864415</ele>
        <time>2021-11-13T11:08:59.506Z</time>
      </trkpt>
      <trkpt lat="47.547314" lon="7.842270">
        <ele>333.749732</ele>
        <time>2021-11-13T11:09:00.289Z</time>
      </trkpt>
      <trkpt lat="47.547448" lon="7.842262">
        <ele>333.470114</ele>
        <time>2021-11-13T11:09:02.363Z</time>
      </trkpt>
      <trkpt lat="47.547354" lon="7.842839">
        <ele>332.634764</ele>
        <time>2021-11-13T11:09:08.698Z</time>
      </trkpt>
      <trkpt lat="47.547313" lon="7.843735">
        <ele>331.370894</ele>
        <time>2021-11-13T11:09:19.345Z</time>
      </trkpt>
      <trkpt lat="47.547295" lon="7.844722">
        <ele>331.923365</ele>
        <time>2021-11-13T11:09:33.728Z</time>
      </trkpt>
      <trkpt lat="47.547274" lon="7.845536">
        <ele>332.452587</ele>
        <time>2021-11-13T11:09:47.180Z</time>
      </trkpt>
      <trkpt lat="47.547124" lon="7.848795">
        <ele>336.235630</ele>
        <time>2021-11-13T11:10:49.334Z</time>
      </trkpt>
      <trkpt lat="47.547143" lon="7.849985">
        <ele>337.608370</ele>
        <time>2021-11-13T11:11:12.186Z</time>
      </trkpt>
      <trkpt lat="47.547141" lon="7.850355">
        <ele>338.009677</ele>
        <time>2021-11-13T11:11:19.285Z</time>
      </trkpt>
      <trkpt lat="47.546945" lon="7.851719">
        <ele>339.522195</ele>
        <time>2021-11-13T11:11:43.818Z</time>
      </trkpt>
      <trkpt lat="47.546582" lon="7.856413">
        <ele>340.662647</ele>
        <time>2021-11-13T11:12:52.130Z</time>
      </trkpt>
      <trkpt lat="47.546537" lon="7.857497">
        <ele>340.868263</ele>
        <time>2021-11-13T11:13:07.438Z</time>
      </trkpt>
      <trkpt lat="47.546487" lon="7.859119">
        <ele>341.212398</ele>
        <time>2021-11-13T11:13:30.886Z</time>
      </trkpt>
      <trkpt lat="47.546526" lon="7.861665">
        <ele>341.362560</ele>
        <time>2021-11-13T11:14:08.060Z</time>
      </trkpt>
      <trkpt lat="47.546592" lon="7.863006">
        <ele>340.694472</ele>
        <time>2021-11-13T11:14:24.527Z</time>
      </trkpt>
      <trkpt lat="47.546877" lon="7.864345">
        <ele>339.236220</ele>
        <time>2021-11-13T11:14:39.696Z</time>
      </trkpt>
      <trkpt lat="47.546885" lon="7.864500">
        <ele>339.074760</ele>
        <time>2021-11-13T11:14:41.375Z</time>
      </trkpt>
      <trkpt lat="47.546894" lon="7.864837">
        <ele>338.724464</ele>
        <time>2021-11-13T11:14:44.855Z</time>
      </trkpt>
      <trkpt lat="47.546889" lon="7.865225">
        <ele>338.264342</ele>
        <time>2021-11-13T11:14:48.976Z</time>
      </trkpt>
      <trkpt lat="47.546819" lon="7.865489">
        <ele>337.910454</ele>
        <time>2021-11-13T11:14:52.053Z</time>
      </trkpt>
      <trkpt lat="47.546510" lon="7.865766">
        <ele>337.242865</ele>
        <time>2021-11-13T11:14:57.748Z</time>
      </trkpt>
      <trkpt lat="47.546327" lon="7.865959">
        <ele>336.827644</ele>
        <time>2021-11-13T11:15:01.079Z</time>
      </trkpt>
      <trkpt lat="47.546096" lon="7.866147">
        <ele>336.340468</ele>
        <time>2021-11-13T11:15:05.145Z</time>
      </trkpt>
      <trkpt lat="47.545240" lon="7.866887">
        <ele>335.456406</ele>
        <time>2021-11-13T11:15:21.819Z</time>
      </trkpt>
      <trkpt lat="47.545160" lon="7.866985">
        <ele>335.500215</ele>
        <time>2021-11-13T11:15:23.775Z</time>
      </trkpt>
      <trkpt lat="47.545003" lon="7.867278">
        <ele>335.606783</ele>
        <time>2021-11-13T11:15:29.443Z</time>
      </trkpt>
      <trkpt lat="47.544568" lon="7.867693">
        <ele>335.825136</ele>
        <time>2021-11-13T11:15:42.274Z</time>
      </trkpt>
      <trkpt lat="47.544469" lon="7.867776">
        <ele>335.873143</ele>
        <time>2021-11-13T11:15:45.160Z</time>
      </trkpt>
      <trkpt lat="47.544410" lon="7.867825">
        <ele>335.901688</ele>
        <time>2021-11-13T11:15:47.243Z</time>
      </trkpt>
      <trkpt lat="47.544246" lon="7.867967">
        <ele>335.981854</ele>
        <time>2021-11-13T11:15:51.910Z</time>
      </trkpt>
      <trkpt lat="47.544214" lon="7.867988">
        <ele>335.996624</ele>
        <time>2021-11-13T11:15:52.762Z</time>
      </trkpt>
      <trkpt lat="47.543801" lon="7.868269">
        <ele>336.553523</ele>
        <time>2021-11-13T11:16:04.386Z</time>
      </trkpt>
      <trkpt lat="47.543657" lon="7.868359">
        <ele>336.780951</ele>
        <time>2021-11-13T11:16:08.700Z</time>
      </trkpt>
      <trkpt lat="47.543482" lon="7.868474">
        <ele>337.059534</ele>
        <time>2021-11-13T11:16:12.554Z</time>
      </trkpt>
      <trkpt lat="47.543201" lon="7.868657">
        <ele>337.506202</ele>
        <time>2021-11-13T11:16:18.920Z</time>
      </trkpt>
      <trkpt lat="47.543105" lon="7.868711">
        <ele>337.655629</ele>
        <time>2021-11-13T11:16:21.512Z</time>
      </trkpt>
      <trkpt lat="47.543049" lon="7.868759">
        <ele>337.749775</ele>
        <time>2021-11-13T11:16:22.874Z</time>
      </trkpt>
      <trkpt lat="47.542722" lon="7.869201">
        <ele>338.393923</ele>
        <time>2021-11-13T11:16:32.697Z</time>
      </trkpt>
      <trkpt lat="47.542696" lon="7.869257">
        <ele>338.460686</ele>
        <time>2021-11-13T11:16:33.534Z</time>
      </trkpt>
      <trkpt lat="47.542657" lon="7.869354">
        <ele>338.571589</ele>
        <time>2021-11-13T11:16:34.983Z</time>
      </trkpt>
      <trkpt lat="47.542372" lon="7.869746">
        <ele>338.656600</ele>
        <time>2021-11-13T11:16:42.199Z</time>
      </trkpt>
      <trkpt lat="47.542329" lon="7.869820">
        <ele>338.656600</ele>
        <time>2021-11-13T11:16:43.408Z</time>
      </trkpt>
      <trkpt lat="47.542348" lon="7.869983">
        <ele>338.656600</ele>
        <time>2021-11-13T11:16:44.953Z</time>
      </trkpt>
      <trkpt lat="47.542317" lon="7.870012">
        <ele>338.656600</ele>
        <time>2021-11-13T11:16:45.649Z</time>
      </trkpt>
      <trkpt lat="47.542181" lon="7.870131">
        <ele>338.656600</ele>
        <time>2021-11-13T11:16:48.243Z</time>
      </trkpt>
      <trkpt lat="47.542118" lon="7.870135">
        <ele>338.656600</ele>
        <time>2021-11-13T11:16:49.281Z</time>
      </trkpt>
      <trkpt lat="47.542014" lon="7.870126">
        <ele>338.656600</ele>
        <time>2021-11-13T11:16:50.654Z</time>
      </trkpt>
      <trkpt lat="47.541910" lon="7.870106">
        <ele>338.656600</ele>
        <time>2021-11-13T11:16:52.318Z</time>
      </trkpt>
      <trkpt lat="47.541606" lon="7.870424">
        <ele>338.656600</ele>
        <time>2021-11-13T11:16:57.691Z</time>
      </trkpt>
      <trkpt lat="47.541521" lon="7.870517">
        <ele>338.656600</ele>
        <time>2021-11-13T11:16:59.187Z</time>
      </trkpt>
      <trkpt lat="47.541550" lon="7.870601">
        <ele>338.656600</ele>
        <time>2021-11-13T11:17:00.060Z</time>
      </trkpt>
      <trkpt lat="47.541576" lon="7.870664">
        <ele>338.656600</ele>
        <time>2021-11-13T11:17:00.732Z</time>
      </trkpt>
      <trkpt lat="47.541410" lon="7.870791">
        <ele>338.656600</ele>
        <time>2021-11-13T11:17:03.929Z</time>
      </trkpt>
      <trkpt lat="47.541326" lon="7.870860">
        <ele>338.656600</ele>
        <time>2021-11-13T11:17:05.268Z</time>
      </trkpt>
    </trkseg>
  </trk>
</gpx>